
Distance (Route):
Temperature : 15.5°C
Humidity : 71.9%
Pressure : 770.3hPa| Receiver | Frames | First received | Last received |
|---|---|---|---|
| PU1XMG-16 | 865 | 2026-08-31 23:33:48 | 2026-09-01 01:22:02 |
| Receiver | Date | Latitude | Longitude | Direction | Speed | Altitude | Climb | Temperature | Humidity | Pressure | Voltage | Killtimer | Uptime | BKT | XDATA |
|---|---|---|---|---|---|---|---|---|---|---|---|---|---|---|---|
| PU1XMG-16 | 2026-09-01 01:22:02 | -22.81129 | -42.47477 | 137° | 42km/h | 2350m | -8.4m/s | 15.5°C | 71.9% | 770.3hPa | 0V | 00:00:00 | 00:00:00 | 00:00:00 | |
| PU1XMG-16 | 2026-09-01 01:21:53 | -22.81068 | -42.47540 | 136° | 40km/h | 2416m | -8.2m/s | 15.1°C | 74.0% | 764.4hPa | 0V | 00:00:00 | 00:00:00 | 00:00:00 | |
| PU1XMG-16 | 2026-09-01 01:21:42 | -22.80979 | -42.47635 | 136° | 42km/h | 2517m | -8.7m/s | 14.7°C | 65.5% | 755.4hPa | 0V | 00:00:00 | 00:00:00 | 00:00:00 | |
| PU1XMG-16 | 2026-09-01 01:20:17 | -22.80520 | -42.48213 | 119° | 31km/h | 3221m | -8.3m/s | 9.7°C | 74.0% | 694.9hPa | 0V | 00:00:00 | 00:00:00 | 00:00:00 | |
| PU1XMG-16 | 2026-09-01 01:20:11 | -22.80498 | -42.48257 | 117° | 31km/h | 3270m | -8.6m/s | 9.3°C | 77.6% | 690.7hPa | 0V | 00:00:00 | 00:00:00 | 00:00:00 | |
| PU1XMG-16 | 2026-09-01 01:20:02 | -22.80462 | -42.48336 | 118° | 33km/h | 3353m | -8.7m/s | 8.6°C | 80.6% | 683.9hPa | 0V | 00:00:00 | 00:00:00 | 00:00:00 | |
| PU1XMG-16 | 2026-09-01 01:19:55 | -22.80440 | -42.48382 | 120° | 31km/h | 3404m | -8.6m/s | 8.1°C | 82.2% | 679.7hPa | 0V | 00:00:00 | 00:00:00 | 00:00:00 | |
| PU1XMG-16 | 2026-09-01 01:19:49 | -22.80415 | -42.48427 | 121° | 31km/h | 3454m | -8.4m/s | 7.8°C | 82.4% | 675.7hPa | 0V | 00:00:00 | 00:00:00 | 00:00:00 | |
| PU1XMG-16 | 2026-09-01 01:19:44 | -22.80391 | -42.48469 | 122° | 29km/h | 3504m | -8.4m/s | 7.4°C | 82.4% | 671.7hPa | 0V | 00:00:00 | 00:00:00 | 00:00:00 | |
| PU1XMG-16 | 2026-09-01 01:17:58 | -22.79904 | -42.49342 | 114° | 40km/h | 4403m | -8.5m/s | 0.9°C | 87.3% | 601.7hPa | 0V | 00:00:00 | 00:00:00 | 00:00:00 | |
| PU1XMG-16 | 2026-09-01 01:16:27 | -22.79492 | -42.50387 | 109° | 55km/h | 5180m | -8.3m/s | -3.8°C | 85.9% | 546.0hPa | 0V | 08:03:00 | 00:00:00 | 00:00:00 | |
| PU1XMG-16 | 2026-09-01 01:16:20 | -22.79464 | -42.50489 | 107° | 57km/h | 5240m | -8.8m/s | -3.9°C | 78.5% | 541.9hPa | 0V | 08:03:00 | 00:00:00 | 00:00:00 | |
| PU1XMG-16 | 2026-09-01 01:16:15 | -22.79443 | -42.50566 | 109° | 58km/h | 5282m | -8.8m/s | -3.9°C | 69.7% | 539.0hPa | 0V | 08:03:00 | 00:00:00 | 00:00:00 | |
| PU1XMG-16 | 2026-09-01 01:16:10 | -22.79420 | -42.50643 | 110° | 60km/h | 5326m | -8.4m/s | -4.1°C | 76.4% | 536.0hPa | 0V | 08:03:00 | 00:00:00 | 00:00:00 | |
| PU1XMG-16 | 2026-09-01 01:16:04 | -22.79392 | -42.50735 | 108° | 58km/h | 5377m | -8.7m/s | -4.4°C | 77.4% | 532.5hPa | 0V | 08:03:00 | 00:00:00 | 00:00:00 | |
| PU1XMG-16 | 2026-09-01 01:15:59 | -22.79369 | -42.50813 | 107° | 60km/h | 5420m | -8.1m/s | -3.7°C | 66.0% | 529.8hPa | 0V | 08:03:00 | 00:00:00 | 00:00:00 | |
| PU1XMG-16 | 2026-09-01 01:15:53 | -22.79344 | -42.50910 | 106° | 60km/h | 5471m | -8.8m/s | -3.3°C | 44.9% | 526.5hPa | 0V | 08:03:00 | 00:00:00 | 00:00:00 | |
| PU1XMG-16 | 2026-09-01 01:15:47 | -22.79319 | -42.51008 | 105° | 62km/h | 5525m | -8.9m/s | -3.8°C | 48.5% | 522.7hPa | 0V | 08:03:00 | 00:00:00 | 00:00:00 | |
| PU1XMG-16 | 2026-09-01 01:15:42 | -22.79300 | -42.51093 | 102° | 64km/h | 5569m | -8.9m/s | -4.1°C | 44.5% | 519.9hPa | 0V | 08:04:00 | 00:00:00 | 00:00:00 | |
| PU1XMG-16 | 2026-09-01 01:15:36 | -22.79282 | -42.51195 | 101° | 66km/h | 5625m | -9.4m/s | -4.5°C | 38.8% | 516.3hPa | 0V | 08:04:00 | 00:00:00 | 00:00:00 | |
| PU1XMG-16 | 2026-09-01 01:15:30 | -22.79265 | -42.51301 | 101° | 66km/h | 5680m | -9.5m/s | -4.9°C | 24.8% | 512.7hPa | 0V | 08:04:00 | 00:00:00 | 00:00:00 | |
| PU1XMG-16 | 2026-09-01 01:15:23 | -22.79247 | -42.51429 | 97° | 68km/h | 5746m | -9.0m/s | -5.6°C | 22.1% | 508.4hPa | 0V | 08:04:00 | 00:00:00 | 00:00:00 | |
| PU1XMG-16 | 2026-09-01 01:15:17 | -22.79236 | -42.51538 | 98° | 66km/h | 5800m | -9.5m/s | -6.1°C | 23.3% | 504.8hPa | 0V | 08:04:00 | 00:00:00 | 00:00:00 | |
| PU1XMG-16 | 2026-09-01 01:15:13 | -22.79229 | -42.51628 | 94° | 68km/h | 5847m | -9.4m/s | -6.4°C | 16.1% | 501.8hPa | 0V | 08:04:00 | 00:00:00 | 00:00:00 | |
| PU1XMG-16 | 2026-09-01 01:15:05 | -22.79227 | -42.51758 | 92° | 69km/h | 5912m | -9.1m/s | -7.0°C | 13.9% | 497.7hPa | 0V | 08:04:00 | 00:00:00 | 00:00:00 | |
| PU1XMG-16 | 2026-09-01 01:15:00 | -22.79224 | -42.51854 | 92° | 69km/h | 5960m | -9.4m/s | -7.4°C | 14.6% | 494.7hPa | 0V | 08:04:00 | 00:00:00 | 00:00:00 | |
| PU1XMG-16 | 2026-09-01 01:14:55 | -22.79222 | -42.51950 | 93° | 69km/h | 6007m | -9.4m/s | -7.7°C | 16.0% | 491.6hPa | 0V | 08:04:00 | 00:00:00 | 00:00:00 | |
| PU1XMG-16 | 2026-09-01 01:14:50 | -22.79216 | -42.52064 | 95° | 71km/h | 6063m | -9.6m/s | -7.5°C | 9.6% | 488.2hPa | 0V | 00:00:00 | 00:00:00 | 00:00:00 | |
| PU1XMG-16 | 2026-09-01 01:14:43 | -22.79209 | -42.52179 | 93° | 69km/h | 6120m | -9.4m/s | -7.6°C | 5.9% | 484.6hPa | 0V | 00:00:00 | 00:00:00 | 00:00:00 | |
| PU1XMG-16 | 2026-09-01 01:14:37 | -22.79201 | -42.52294 | 95° | 69km/h | 6178m | -9.4m/s | -7.4°C | 5.1% | 481.1hPa | 0V | 00:00:00 | 00:00:00 | 00:00:00 | |
| PU1XMG-16 | 2026-09-01 01:14:32 | -22.79193 | -42.52390 | 95° | 71km/h | 6225m | -10.1m/s | -7.7°C | 4.9% | 478.2hPa | 0V | 00:00:00 | 00:00:00 | 00:00:00 | |
| PU1XMG-16 | 2026-09-01 01:14:26 | -22.79184 | -42.52506 | 97° | 73km/h | 6283m | -9.8m/s | -8.2°C | 5.1% | 474.5hPa | 0V | 00:00:00 | 00:00:00 | 00:00:00 | |
| PU1XMG-16 | 2026-09-01 01:14:20 | -22.79173 | -42.52625 | 96° | 73km/h | 6342m | -10.0m/s | -8.7°C | 6.3% | 471.0hPa | 0V | 00:00:00 | 00:00:00 | 00:00:00 | |
| PU1XMG-16 | 2026-09-01 01:14:15 | -22.79162 | -42.52722 | 98° | 71km/h | 6391m | -9.6m/s | -9.1°C | 6.6% | 468.1hPa | 0V | 00:00:00 | 00:00:00 | 00:00:00 | |
| PU1XMG-16 | 2026-09-01 01:14:09 | -22.79149 | -42.52839 | 100° | 71km/h | 6448m | -9.6m/s | -9.6°C | 7.4% | 464.6hPa | 0V | 00:00:00 | 00:00:00 | 00:00:00 | |
| PU1XMG-16 | 2026-09-01 01:14:03 | -22.79133 | -42.52954 | 100° | 71km/h | 6506m | -9.9m/s | -10.1°C | 7.8% | 461.1hPa | 0V | 00:00:00 | 00:00:00 | 00:00:00 | |
| PU1XMG-16 | 2026-09-01 01:13:58 | -22.79115 | -42.53068 | 102° | 71km/h | 6564m | -9.7m/s | -10.6°C | 7.7% | 457.7hPa | 0V | 08:06:00 | 00:00:00 | 00:00:00 | |
| PU1XMG-16 | 2026-09-01 01:13:46 | -22.79081 | -42.53274 | 101° | 69km/h | 6674m | -9.7m/s | -11.5°C | 8.8% | 451.2hPa | 0V | 08:06:00 | 00:00:00 | 00:00:00 | |
| PU1XMG-16 | 2026-09-01 01:13:40 | -22.79062 | -42.53388 | 101° | 73km/h | 6734m | -9.6m/s | -12.1°C | 9.7% | 447.7hPa | 0V | 08:06:00 | 00:00:00 | 00:00:00 | |
| PU1XMG-16 | 2026-09-01 01:13:35 | -22.79046 | -42.53504 | 100° | 71km/h | 6795m | -9.4m/s | -12.6°C | 10.7% | 444.2hPa | 0V | 08:06:00 | 00:00:00 | 00:00:00 | |
| PU1XMG-16 | 2026-09-01 01:13:28 | -22.79031 | -42.53620 | 99° | 71km/h | 6854m | -9.6m/s | -13.1°C | 12.1% | 440.8hPa | 0V | 08:06:00 | 00:00:00 | 00:00:00 | |
| PU1XMG-16 | 2026-09-01 01:13:22 | -22.79015 | -42.53757 | 99° | 69km/h | 6921m | -9.5m/s | -13.7°C | 23.5% | 436.9hPa | 0V | 08:06:00 | 00:00:00 | 00:00:00 | |
| PU1XMG-16 | 2026-09-01 01:13:10 | -22.78984 | -42.53993 | 100° | 69km/h | 7036m | -9.2m/s | -14.8°C | 49.5% | 430.4hPa | 0V | 08:07:00 | 00:00:00 | 00:00:00 | |
| PU1XMG-16 | 2026-09-01 01:13:05 | -22.78968 | -42.54088 | 102° | 69km/h | 7084m | -9.1m/s | -15.4°C | 57.5% | 427.7hPa | 0V | 08:07:00 | 00:00:00 | 00:00:00 | |
| PU1XMG-16 | 2026-09-01 01:12:55 | -22.78939 | -42.54258 | 101° | 68km/h | 7167m | -9.5m/s | -16.1°C | 56.7% | 423.0hPa | 0V | 08:07:00 | 00:00:00 | 00:00:00 | |
| PU1XMG-16 | 2026-09-01 01:12:50 | -22.78918 | -42.54369 | 104° | 69km/h | 7224m | -9.7m/s | -16.6°C | 58.8% | 419.8hPa | 0V | 08:07:00 | 00:00:00 | 00:00:00 | |
| PU1XMG-16 | 2026-09-01 01:12:45 | -22.78900 | -42.54463 | 102° | 66km/h | 7273m | -9.5m/s | -17.1°C | 54.9% | 417.1hPa | 0V | 08:07:00 | 00:00:00 | 00:00:00 | |
| PU1XMG-16 | 2026-09-01 01:12:38 | -22.78884 | -42.54570 | 99° | 64km/h | 7332m | -9.7m/s | -17.8°C | 57.0% | 414.0hPa | 0V | 08:07:00 | 00:00:00 | 00:00:00 | |
| PU1XMG-16 | 2026-09-01 01:12:30 | -22.78871 | -42.54711 | 91° | 62km/h | 7417m | -11.2m/s | -18.5°C | 73.9% | 409.2hPa | 0V | 08:07:00 | 00:00:00 | 00:00:00 | |
| PU1XMG-16 | 2026-09-01 01:12:25 | -22.78872 | -42.54811 | 88° | 58km/h | 7481m | -10.5m/s | -18.8°C | 78.4% | 405.7hPa | 0V | 08:07:00 | 00:00:00 | 00:00:00 | |
| PU1XMG-16 | 2026-09-01 01:12:18 | -22.78881 | -42.54904 | 80° | 58km/h | 7547m | -11.1m/s | -18.2°C | 88.0% | 402.2hPa | 0V | 00:00:00 | 00:00:00 | 00:00:00 | |
| PU1XMG-16 | 2026-09-01 01:12:11 | -22.78903 | -42.55013 | 77° | 60km/h | 7625m | -11.2m/s | -18.6°C | 87.1% | 398.0hPa | 0V | 00:00:00 | 00:00:00 | 00:00:00 | |
| PU1XMG-16 | 2026-09-01 01:12:05 | -22.78932 | -42.55107 | 72° | 58km/h | 7691m | -11.2m/s | -18.9°C | 86.9% | 394.5hPa | 0V | 00:00:00 | 00:00:00 | 00:00:00 | |
| PU1XMG-16 | 2026-09-01 01:11:57 | -22.78977 | -42.55228 | 68° | 58km/h | 7779m | -10.4m/s | -19.4°C | 88.3% | 389.9hPa | 0V | 00:00:00 | 00:00:00 | 00:00:00 | |
| PU1XMG-16 | 2026-09-01 01:11:51 | -22.79023 | -42.55330 | 62° | 60km/h | 7855m | -10.5m/s | -19.8°C | 88.2% | 386.0hPa | 0V | 00:00:00 | 00:00:00 | 00:00:00 | |
| PU1XMG-16 | 2026-09-01 01:11:09 | -22.79243 | -42.55869 | 74° | 44km/h | 8314m | -10.8m/s | -23.2°C | 86.6% | 362.7hPa | 0V | 08:08:00 | 00:00:00 | 00:00:00 | |
| PU1XMG-16 | 2026-09-01 01:10:44 | -22.79302 | -42.56124 | 82° | 44km/h | 8581m | -11.4m/s | -24.8°C | 80.1% | 349.7hPa | 0V | 08:08:00 | 00:00:00 | 00:00:00 | |
| PU1XMG-16 | 2026-09-01 01:10:39 | -22.79310 | -42.56183 | 82° | 46km/h | 8636m | -11.0m/s | -25.2°C | 79.1% | 347.2hPa | 0V | 08:08:00 | 00:00:00 | 00:00:00 | |
| PU1XMG-16 | 2026-09-01 01:10:34 | -22.79315 | -42.56246 | 88° | 47km/h | 8690m | -10.9m/s | -25.4°C | 77.7% | 344.5hPa | 0V | 00:00:00 | 00:00:00 | 00:00:00 | |
| PU1XMG-16 | 2026-09-01 01:10:27 | -22.79320 | -42.56358 | 88° | 57km/h | 8778m | -11.7m/s | -26.0°C | 79.0% | 340.4hPa | 0V | 00:00:00 | 00:00:00 | 00:00:00 | |
| PU1XMG-16 | 2026-09-01 01:10:20 | -22.79324 | -42.56473 | 92° | 64km/h | 8856m | -10.5m/s | -26.5°C | 80.1% | 336.8hPa | 0V | 00:00:00 | 00:00:00 | 00:00:00 | |
| PU1XMG-16 | 2026-09-01 01:10:14 | -22.79323 | -42.56563 | 92° | 68km/h | 8909m | -11.7m/s | -26.7°C | 75.1% | 334.4hPa | 0V | 00:00:00 | 00:00:00 | 00:00:00 | |
| PU1XMG-16 | 2026-09-01 01:10:09 | -22.79323 | -42.56659 | 87° | 69km/h | 8963m | -10.3m/s | -27.2°C | 77.9% | 331.8hPa | 0V | 00:00:00 | 00:00:00 | 00:00:00 | |
| PU1XMG-16 | 2026-09-01 01:10:04 | -22.79331 | -42.56779 | 87° | 78km/h | 9025m | -12.2m/s | -27.5°C | 73.3% | 329.0hPa | 0V | 00:00:00 | 00:00:00 | 00:00:00 | |
| PU1XMG-16 | 2026-09-01 01:09:57 | -22.79338 | -42.56902 | 87° | 77km/h | 9095m | -12.0m/s | -28.1°C | 74.2% | 325.7hPa | 0V | 00:00:00 | 00:00:00 | 00:00:00 | |
| PU1XMG-16 | 2026-09-01 01:09:52 | -22.79347 | -42.57006 | 87° | 75km/h | 9150m | -11.1m/s | -28.6°C | 72.9% | 323.2hPa | 0V | 00:00:00 | 00:00:00 | 00:00:00 | |
| PU1XMG-16 | 2026-09-01 01:09:48 | -22.79353 | -42.57112 | 87° | 78km/h | 9208m | -10.8m/s | -29.1°C | 73.5% | 320.7hPa | 0V | 00:00:00 | 00:00:00 | 00:00:00 | |
| PU1XMG-16 | 2026-09-01 01:09:41 | -22.79367 | -42.57267 | 85° | 82km/h | 9275m | -9.7m/s | -29.7°C | 76.6% | 317.7hPa | 0V | 00:00:00 | 00:00:00 | 00:00:00 | |
| PU1XMG-16 | 2026-09-01 01:09:35 | -22.79380 | -42.57378 | 85° | 80km/h | 9323m | -9.9m/s | -30.1°C | 76.2% | 315.5hPa | 0V | 00:00:00 | 00:00:00 | 00:00:00 | |
| PU1XMG-16 | 2026-09-01 01:09:22 | -22.79409 | -42.57688 | 85° | 82km/h | 9456m | -10.1m/s | -30.8°C | 72.1% | 309.7hPa | 0V | 00:00:00 | 00:00:00 | 00:00:00 | |
| PU1XMG-16 | 2026-09-01 01:08:55 | -22.79445 | -42.58261 | 89° | 73km/h | 9802m | -16.7m/s | -33.1°C | 67.5% | 295.4hPa | 0V | 00:00:00 | 00:00:00 | 00:00:00 | |
| PU1XMG-16 | 2026-09-01 01:08:40 | -22.79439 | -42.58523 | 98° | 64km/h | 10004m | -12.6m/s | -34.4°C | 63.9% | 286.8hPa | 0V | 00:00:00 | 00:00:00 | 00:00:00 | |
| PU1XMG-16 | 2026-09-01 01:08:31 | -22.79416 | -42.58702 | 102° | 68km/h | 10139m | -14.8m/s | -35.2°C | 60.7% | 281.3hPa | 0V | 00:00:00 | 00:00:00 | 00:00:00 | |
| PU1XMG-16 | 2026-09-01 01:06:11 | -22.79399 | -42.61798 | 70° | 115km/h | 11891m | -12.3m/s | -47.6°C | 29.5% | 217.3hPa | 0V | 00:00:00 | 00:00:00 | 00:00:00 | |
| PU1XMG-16 | 2026-09-01 01:06:05 | -22.79461 | -42.61976 | 71° | 119km/h | 11963m | -13.3m/s | -48.1°C | 31.2% | 215.0hPa | 0V | 00:00:00 | 00:00:00 | 00:00:00 | |
| PU1XMG-16 | 2026-09-01 01:05:50 | -22.79624 | -42.62464 | 70° | 130km/h | 12144m | -12.6m/s | -49.0°C | 32.3% | 209.2hPa | 0V | 00:00:00 | 00:00:00 | 00:00:00 | |
| PU1XMG-16 | 2026-09-01 01:04:35 | -22.80721 | -42.64924 | 60° | 113km/h | 13019m | -10.6m/s | -52.8°C | 4.7% | 182.9hPa | 0V | 08:15:00 | 00:00:00 | 00:00:00 | |
| PU1XMG-16 | 2026-09-01 01:04:04 | -22.81099 | -42.65718 | 68° | 97km/h | 13355m | -13.7m/s | -55.2°C | 5.8% | 173.7hPa | 0V | 08:15:00 | 00:00:00 | 00:00:00 | |
| PU1XMG-16 | 2026-09-01 01:03:58 | -22.81159 | -42.65867 | 66° | 100km/h | 13436m | -12.5m/s | -55.3°C | 4.9% | 171.5hPa | 0V | 08:15:00 | 00:00:00 | 00:00:00 | |
| PU1XMG-16 | 2026-09-01 01:03:52 | -22.81225 | -42.66018 | 65° | 100km/h | 13496m | -8.8m/s | -55.8°C | 4.7% | 169.8hPa | 0V | 08:15:00 | 00:00:00 | 00:00:00 | |
| PU1XMG-16 | 2026-09-01 01:03:46 | -22.81290 | -42.66167 | 66° | 100km/h | 13550m | -9.7m/s | -56.1°C | 4.7% | 168.4hPa | 0V | 08:16:00 | 00:00:00 | 00:00:00 | |
| PU1XMG-16 | 2026-09-01 01:03:40 | -22.81353 | -42.66317 | 66° | 100km/h | 13606m | -9.1m/s | -56.4°C | 4.9% | 166.8hPa | 0V | 08:16:00 | 00:00:00 | 00:00:00 | |
| PU1XMG-16 | 2026-09-01 01:03:34 | -22.81414 | -42.66467 | 68° | 99km/h | 13661m | -9.0m/s | -56.9°C | 5.1% | 165.4hPa | 0V | 08:16:00 | 00:00:00 | 00:00:00 | |
| PU1XMG-16 | 2026-09-01 01:03:29 | -22.81462 | -42.66590 | 69° | 97km/h | 13705m | -9.1m/s | -57.4°C | 5.3% | 164.2hPa | 0V | 08:16:00 | 00:00:00 | 00:00:00 | |
| PU1XMG-16 | 2026-09-01 01:03:23 | -22.81517 | -42.66736 | 69° | 97km/h | 13759m | -9.2m/s | -57.8°C | 5.5% | 162.9hPa | 0V | 08:16:00 | 00:00:00 | 00:00:00 | |
| PU1XMG-16 | 2026-09-01 01:03:18 | -22.81563 | -42.66858 | 69° | 95km/h | 13806m | -9.3m/s | -58.2°C | 5.9% | 161.7hPa | 0V | 08:16:00 | 00:00:00 | 00:00:00 | |
| PU1XMG-16 | 2026-09-01 01:03:12 | -22.81616 | -42.67003 | 70° | 95km/h | 13862m | -9.5m/s | -58.8°C | 6.1% | 160.3hPa | 0V | 08:16:00 | 00:00:00 | 00:00:00 | |
| PU1XMG-16 | 2026-09-01 01:03:04 | -22.81685 | -42.67196 | 71° | 93km/h | 13941m | -10.1m/s | -59.5°C | 6.5% | 158.3hPa | 0V | 08:16:00 | 00:00:00 | 00:00:00 | |
| PU1XMG-16 | 2026-09-01 01:02:59 | -22.81725 | -42.67316 | 71° | 93km/h | 13991m | -10.1m/s | -59.9°C | 6.7% | 157.0hPa | 0V | 08:16:00 | 00:00:00 | 00:00:00 | |
| PU1XMG-16 | 2026-09-01 01:02:53 | -22.81773 | -42.67459 | 72° | 93km/h | 14052m | -10.3m/s | -60.4°C | 7.0% | 155.5hPa | 0V | 00:00:00 | 00:00:00 | 00:00:00 | |
| PU1XMG-16 | 2026-09-01 01:02:42 | -22.81861 | -42.67725 | 72° | 93km/h | 14167m | -10.4m/s | -61.4°C | 7.6% | 152.6hPa | 0V | 00:00:00 | 00:00:00 | 00:00:00 | |
| PU1XMG-16 | 2026-09-01 01:02:37 | -22.81899 | -42.67845 | 72° | 93km/h | 14218m | -10.4m/s | -61.9°C | 7.8% | 151.4hPa | 0V | 00:00:00 | 00:00:00 | 00:00:00 | |
| PU1XMG-16 | 2026-09-01 01:02:31 | -22.81945 | -42.67988 | 72° | 89km/h | 14280m | -10.2m/s | -62.4°C | 8.3% | 149.9hPa | 0V | 00:00:00 | 00:00:00 | 00:00:00 | |
| PU1XMG-16 | 2026-09-01 01:02:25 | -22.81989 | -42.68123 | 71° | 84km/h | 14341m | -10.1m/s | -62.9°C | 8.9% | 148.4hPa | 0V | 00:00:00 | 00:00:00 | 00:00:00 | |
| PU1XMG-16 | 2026-09-01 01:00:39 | -22.82504 | -42.69844 | 92° | 40km/h | 15480m | -11.6m/s | -70.8°C | 15.8% | 123.0hPa | 0V | 00:00:00 | 00:00:00 | 00:00:00 | |
| PU1XMG-16 | 2026-09-01 01:00:32 | -22.82496 | -42.69905 | 105° | 35km/h | 15546m | -10.9m/s | -71.3°C | 16.0% | 121.7hPa | 0V | 00:00:00 | 00:00:00 | 00:00:00 | |
| PU1XMG-16 | 2026-09-01 01:00:21 | -22.82471 | -42.69993 | 111° | 29km/h | 15676m | -11.8m/s | -72.0°C | 15.4% | 119.1hPa | 0V | 08:19:00 | 00:00:00 | 00:00:00 | |
| PU1XMG-16 | 2026-09-01 01:00:18 | -22.82458 | -42.70029 | 114° | 27km/h | 15734m | -11.6m/s | -72.4°C | 15.4% | 117.9hPa | 0V | 08:19:00 | 00:00:00 | 00:00:00 | |
| PU1XMG-16 | 2026-09-01 01:00:08 | -22.82433 | -42.70084 | 124° | 29km/h | 15826m | -11.2m/s | -73.2°C | 15.2% | 116.1hPa | 0V | 08:19:00 | 00:00:00 | 00:00:00 | |
| PU1XMG-16 | 2026-09-01 01:00:01 | -22.82401 | -42.70124 | 135° | 27km/h | 15904m | -10.6m/s | -73.8°C | 15.0% | 114.5hPa | 0V | 08:19:00 | 00:00:00 | 00:00:00 | |
| PU1XMG-16 | 2026-09-01 00:59:54 | -22.82355 | -42.70164 | 148° | 31km/h | 15994m | -11.0m/s | -74.5°C | 14.8% | 112.8hPa | 0V | 08:19:00 | 00:00:00 | 00:00:00 | |
| PU1XMG-16 | 2026-09-01 00:59:48 | -22.82319 | -42.70186 | 155° | 35km/h | 16050m | -11.1m/s | -74.9°C | 14.3% | 111.7hPa | 0V | 08:19:00 | 00:00:00 | 00:00:00 | |
| PU1XMG-16 | 2026-09-01 00:59:42 | -22.82271 | -42.70208 | 161° | 33km/h | 16118m | -11.2m/s | -75.4°C | 13.9% | 110.4hPa | 0V | 08:19:00 | 00:00:00 | 00:00:00 | |
| PU1XMG-16 | 2026-09-01 00:59:37 | -22.82232 | -42.70222 | 164° | 33km/h | 16175m | -11.3m/s | -75.8°C | 13.7% | 109.3hPa | 0V | 08:19:00 | 00:00:00 | 00:00:00 | |
| PU1XMG-16 | 2026-09-01 00:59:31 | -22.82182 | -42.70240 | 162° | 37km/h | 16243m | -11.3m/s | -76.2°C | 13.2% | 108.1hPa | 0V | 08:20:00 | 00:00:00 | 00:00:00 | |
| PU1XMG-16 | 2026-09-01 00:59:25 | -22.82127 | -42.70258 | 165° | 40km/h | 16311m | -11.4m/s | -76.8°C | 12.7% | 106.7hPa | 0V | 08:20:00 | 00:00:00 | 00:00:00 | |
| PU1XMG-16 | 2026-09-01 00:59:20 | -22.82066 | -42.70277 | 164° | 42km/h | 16380m | -11.4m/s | -77.4°C | 12.3% | 105.5hPa | 0V | 08:20:00 | 00:00:00 | 00:00:00 | |
| PU1XMG-16 | 2026-09-01 00:59:13 | -22.82005 | -42.70301 | 158° | 44km/h | 16449m | -11.5m/s | -78.0°C | 12.4% | 104.2hPa | 0V | 08:20:00 | 00:00:00 | 00:00:00 | |
| PU1XMG-16 | 2026-09-01 00:59:08 | -22.81953 | -42.70330 | 149° | 46km/h | 16508m | -11.8m/s | -78.4°C | 12.0% | 103.2hPa | 0V | 08:20:00 | 00:00:00 | 00:00:00 | |
| PU1XMG-16 | 2026-09-01 00:59:02 | -22.81897 | -42.70376 | 142° | 47km/h | 16579m | -11.8m/s | -78.6°C | 11.3% | 101.9hPa | 0V | 08:20:00 | 00:00:00 | 00:00:00 | |
| PU1XMG-16 | 2026-09-01 00:58:57 | -22.81850 | -42.70416 | 143° | 47km/h | 16638m | -11.9m/s | -78.4°C | 10.5% | 100.9hPa | 0V | 08:20:00 | 00:00:00 | 00:00:00 | |
| PU1XMG-16 | 2026-09-01 00:58:51 | -22.81792 | -42.70464 | 144° | 46km/h | 16709m | -11.9m/s | -78.6°C | 9.6% | 99.6hPa | 0V | 08:20:00 | 00:00:00 | 00:00:00 | |
| PU1XMG-16 | 2026-09-01 00:58:45 | -22.81738 | -42.70506 | 148° | 44km/h | 16782m | -12.1m/s | -79.2°C | 9.6% | 98.3hPa | 0V | 08:20:00 | 00:00:00 | 00:00:00 | |
| PU1XMG-16 | 2026-09-01 00:58:40 | -22.81682 | -42.70544 | 144° | 44km/h | 16855m | -12.1m/s | -79.6°C | 9.8% | 97.1hPa | 0V | 08:21:00 | 00:00:00 | 00:00:00 | |
| PU1XMG-16 | 2026-09-01 00:58:34 | -22.81642 | -42.70584 | 133° | 40km/h | 16915m | -12.4m/s | -80.0°C | 10.1% | 96.1hPa | 0V | 08:21:00 | 00:00:00 | 00:00:00 | |
| PU1XMG-16 | 2026-09-01 00:58:27 | -22.81596 | -42.70632 | 138° | 33km/h | 17003m | -12.5m/s | -79.3°C | 10.5% | 94.6hPa | 0V | 08:21:00 | 00:00:00 | 00:00:00 | |
| PU1XMG-16 | 2026-09-01 00:58:22 | -22.81572 | -42.70665 | 119° | 31km/h | 17066m | -12.8m/s | -77.5°C | 8.9% | 93.5hPa | 0V | 08:21:00 | 00:00:00 | 00:00:00 | |
| PU1XMG-16 | 2026-09-01 00:58:16 | -22.81556 | -42.70727 | 98° | 51km/h | 17142m | -12.8m/s | -76.0°C | 7.6% | 92.3hPa | 0V | 08:21:00 | 00:00:00 | 00:00:00 | |
| PU1XMG-16 | 2026-09-01 00:58:03 | -22.81567 | -42.70931 | 79° | 51km/h | 17314m | -13.3m/s | -68.4°C | 4.2% | 89.7hPa | 0V | 08:21:00 | 00:00:00 | 00:00:00 | |
| PU1XMG-16 | 2026-09-01 00:57:57 | -22.81583 | -42.71003 | 78° | 40km/h | 17395m | -13.4m/s | -64.6°C | 2.9% | 88.5hPa | 0V | 08:21:00 | 00:00:00 | 00:00:00 | |
| PU1XMG-16 | 2026-09-01 00:57:51 | -22.81590 | -42.71063 | 85° | 35km/h | 17476m | -13.7m/s | -63.5°C | 2.7% | 87.3hPa | 0V | 00:00:00 | 00:00:00 | 00:00:00 | |
| PU1XMG-16 | 2026-09-01 00:57:40 | -22.81612 | -42.71175 | 89° | 35km/h | 17642m | -14.3m/s | -63.5°C | 2.8% | 84.9hPa | 0V | 00:00:00 | 00:00:00 | 00:00:00 | |
| PU1XMG-16 | 2026-09-01 00:57:34 | -22.81606 | -42.71219 | 106° | 31km/h | 17713m | -14.2m/s | -63.4°C | 2.8% | 84.0hPa | 0V | 00:00:00 | 00:00:00 | 00:00:00 | |
| PU1XMG-16 | 2026-09-01 00:57:26 | -22.81584 | -42.71284 | 109° | 33km/h | 17831m | -15.2m/s | -62.4°C | 2.5% | 82.4hPa | 0V | 00:00:00 | 00:00:00 | 00:00:00 | |
| PU1XMG-16 | 2026-09-01 00:57:18 | -22.81566 | -42.71357 | 102° | 37km/h | 17955m | -16.0m/s | -61.4°C | 2.2% | 80.8hPa | 0V | 00:00:00 | 00:00:00 | 00:00:00 | |
| PU1XMG-16 | 2026-09-01 00:57:13 | -22.81559 | -42.71408 | 95° | 38km/h | 18036m | -14.9m/s | -61.9°C | 2.2% | 79.8hPa | 0V | 00:00:00 | 00:00:00 | 00:00:00 | |
| PU1XMG-16 | 2026-09-01 00:57:03 | -22.81551 | -42.71506 | 99° | 33km/h | 18174m | -13.6m/s | -62.8°C | 2.3% | 77.9hPa | 0V | 00:00:00 | 00:00:00 | 00:00:00 | |
| PU1XMG-16 | 2026-09-01 00:56:58 | -22.81548 | -42.71554 | 93° | 38km/h | 18243m | -13.6m/s | -63.3°C | 2.4% | 77.1hPa | 0V | 08:23:00 | 00:00:00 | 00:00:00 | |
| PU1XMG-16 | 2026-09-01 00:56:44 | -22.81556 | -42.71684 | 69° | 31km/h | 18434m | -13.8m/s | -64.3°C | 2.5% | 74.7hPa | 0V | 08:23:00 | 00:00:00 | 00:00:00 | |
| PU1XMG-16 | 2026-09-01 00:56:39 | -22.81581 | -42.71734 | 59° | 38km/h | 18515m | -13.6m/s | -64.2°C | 2.5% | 73.7hPa | 0V | 08:23:00 | 00:00:00 | 00:00:00 | |
| PU1XMG-16 | 2026-09-01 00:56:27 | -22.81636 | -42.71817 | 49° | 26km/h | 18666m | -14.3m/s | -64.2°C | 2.5% | 71.9hPa | 0V | 08:23:00 | 00:00:00 | 00:00:00 | |
| PU1XMG-16 | 2026-09-01 00:56:22 | -22.81653 | -42.71835 | 37° | 11km/h | 18738m | -15.1m/s | -64.0°C | 2.5% | 71.1hPa | 0V | 08:23:00 | 00:00:00 | 00:00:00 | |
| PU1XMG-16 | 2026-09-01 00:56:11 | -22.81638 | -42.71837 | 181° | 16km/h | 18910m | -16.2m/s | -62.6°C | 2.2% | 69.1hPa | 0V | 08:23:00 | 00:00:00 | 00:00:00 | |
| PU1XMG-16 | 2026-09-01 00:56:06 | -22.81611 | -42.71844 | 150° | 16km/h | 19008m | -17.7m/s | -62.4°C | 2.0% | 68.1hPa | 0V | 00:00:00 | 00:00:00 | 00:00:00 | |
| PU1XMG-16 | 2026-09-01 00:56:00 | -22.81590 | -42.71857 | 148° | 20km/h | 19100m | -18.6m/s | -63.0°C | 2.0% | 67.1hPa | 0V | 00:00:00 | 00:00:00 | 00:00:00 | |
| PU1XMG-16 | 2026-09-01 00:55:55 | -22.81565 | -42.71873 | 148° | 20km/h | 19205m | -17.7m/s | -63.8°C | 2.1% | 65.9hPa | 0V | 00:00:00 | 00:00:00 | 00:00:00 | |
| PU1XMG-16 | 2026-09-01 00:55:49 | -22.81536 | -42.71894 | 137° | 24km/h | 19306m | -18.0m/s | -64.4°C | 2.2% | 64.9hPa | 0V | 00:00:00 | 00:00:00 | 00:00:00 | |
| PU1XMG-16 | 2026-09-01 00:55:43 | -22.81521 | -42.71917 | 105° | 18km/h | 19391m | -17.7m/s | -65.1°C | 2.4% | 64.0hPa | 0V | 00:00:00 | 00:00:00 | 00:00:00 | |
| PU1XMG-16 | 2026-09-01 00:55:37 | -22.81523 | -42.71952 | 79° | 26km/h | 19494m | -17.1m/s | -65.1°C | 2.4% | 62.9hPa | 0V | 00:00:00 | 00:00:00 | 00:00:00 | |
| PU1XMG-16 | 2026-09-01 00:55:33 | -22.81530 | -42.71987 | 75° | 26km/h | 19578m | -16.1m/s | -64.3°C | 2.2% | 62.0hPa | 0V | 00:00:00 | 00:00:00 | 00:00:00 | |
| PU1XMG-16 | 2026-09-01 00:55:26 | -22.81545 | -42.72025 | 56° | 24km/h | 19671m | -15.5m/s | -64.0°C | 2.2% | 61.1hPa | 0V | 00:00:00 | 00:00:00 | 00:00:00 | |
| PU1XMG-16 | 2026-09-01 00:55:12 | -22.81614 | -42.72064 | 3° | 20km/h | 19892m | -17.4m/s | -63.7°C | 2.1% | 59.0hPa | 0V | 00:00:00 | 00:00:00 | 00:00:00 | |
| PU1XMG-16 | 2026-09-01 00:53:09 | -22.81414 | -42.72185 | 113° | 16km/h | 21911m | -21.2m/s | -61.6°C | 1.8% | 42.5hPa | 0V | 00:00:00 | 00:00:00 | 00:00:00 | |
| PU1XMG-16 | 2026-09-01 00:53:04 | -22.81412 | -42.72210 | 78° | 24km/h | 22011m | -20.8m/s | -61.8°C | 1.8% | 41.8hPa | 0V | 00:00:00 | 00:00:00 | 00:00:00 | |
| PU1XMG-16 | 2026-09-01 00:52:58 | -22.81432 | -42.72252 | 65° | 24km/h | 22138m | -22.3m/s | -61.7°C | 1.9% | 41.1hPa | 0V | 00:00:00 | 00:00:00 | 00:00:00 | |
| PU1XMG-16 | 2026-09-01 00:52:48 | -22.81446 | -42.72325 | 86° | 31km/h | 22352m | -16.0m/s | -59.8°C | 1.6% | 39.6hPa | 0V | 00:00:00 | 00:00:00 | 00:00:00 | |
| PU1XMG-16 | 2026-09-01 00:52:39 | -22.81460 | -42.72396 | 67° | 27km/h | 22484m | -14.5m/s | -58.8°C | 1.5% | 38.7hPa | 0V | 00:00:00 | 00:00:00 | 00:00:00 | |
| PU1XMG-16 | 2026-09-01 00:52:30 | -22.81506 | -42.72468 | 57° | 33km/h | 22627m | -13.9m/s | -58.5°C | 1.4% | 37.9hPa | 0V | 00:00:00 | 00:00:00 | 00:00:00 | |
| PU1XMG-16 | 2026-09-01 00:51:58 | -22.81562 | -42.72589 | 100° | 16km/h | 23064m | -14.6m/s | -58.9°C | 1.4% | 35.3hPa | 0V | 00:00:00 | 00:00:00 | 00:00:00 | |
| PU1XMG-16 | 2026-09-01 00:51:53 | -22.81562 | -42.72613 | 59° | 13km/h | 23149m | -14.5m/s | -59.1°C | 1.5% | 34.8hPa | 0V | 00:00:00 | 00:00:00 | 00:00:00 | |
| PU1XMG-16 | 2026-09-01 00:49:41 | -22.81653 | -42.73021 | 139° | 9km/h | 25511m | -22.3m/s | -53.4°C | 1.1% | 24.0hPa | 0V | 00:00:00 | 00:00:00 | 00:00:00 | |
| PU1XMG-16 | 2026-09-01 00:49:35 | -22.81664 | -42.73034 | 38° | 31km/h | 25615m | -10.7m/s | -53.1°C | 1.1% | 23.6hPa | 0V | 00:00:00 | 00:00:00 | 00:00:00 | |
| PU1XMG-16 | 2026-09-01 00:49:30 | -22.81690 | -42.73073 | 78° | 33km/h | 25677m | -15.6m/s | -52.5°C | 1.0% | 23.4hPa | 0V | 00:00:00 | 00:00:00 | 00:00:00 | |
| PU1XMG-16 | 2026-09-01 00:49:24 | -22.81681 | -42.73092 | 267° | 5km/h | 25806m | -15.5m/s | -52.7°C | 1.0% | 22.9hPa | 0V | 00:00:00 | 00:00:00 | 00:00:00 | |
| PU1XMG-16 | 2026-09-01 00:49:18 | -22.81701 | -42.73097 | 38° | 29km/h | 25885m | -17.0m/s | -52.9°C | 1.0% | 22.6hPa | 0V | 00:00:00 | 00:00:00 | 00:00:00 | |
| PU1XMG-16 | 2026-09-01 00:49:12 | -22.81723 | -42.73140 | 82° | 33km/h | 25979m | -12.2m/s | -52.9°C | 1.1% | 22.3hPa | 0V | 00:00:00 | 00:00:00 | 00:00:00 | |
| PU1XMG-16 | 2026-09-01 00:49:05 | -22.81738 | -42.73200 | 66° | 29km/h | 26062m | -13.7m/s | -53.2°C | 1.0% | 22.0hPa | 0V | 00:00:00 | 00:00:00 | 00:00:00 | |
| PU1XMG-16 | 2026-09-01 00:48:59 | -22.81745 | -42.73243 | 101° | 27km/h | 26145m | -11.5m/s | -53.1°C | 1.1% | 21.7hPa | 0V | 00:00:00 | 00:00:00 | 00:00:00 | |
| PU1XMG-16 | 2026-09-01 00:48:53 | -22.81737 | -42.73294 | 88° | 27km/h | 26125m | 7.5m/s | -53.0°C | 1.0% | 21.7hPa | 0V | 00:00:00 | 00:00:00 | 00:00:00 | |
| PU1XMG-16 | 2026-09-01 00:47:57 | -22.81831 | -42.73671 | 69° | 27km/h | 25775m | 6.1m/s | -52.7°C | 1.0% | 22.9hPa | 0V | 00:00:00 | 00:00:00 | 00:00:00 | |
| PU1XMG-16 | 2026-09-01 00:47:48 | -22.81858 | -42.73713 | 61° | 18km/h | 25716m | 5.5m/s | -52.6°C | 1.0% | 23.2hPa | 0V | 00:00:00 | 00:00:00 | 00:00:00 | |
| PU1XMG-16 | 2026-09-01 00:47:42 | -22.81881 | -42.73751 | 42° | 27km/h | 25678m | 6.6m/s | -52.9°C | 1.0% | 23.3hPa | 0V | 00:00:00 | 00:00:00 | 00:00:00 | |
| PU1XMG-16 | 2026-09-01 00:47:36 | -22.81900 | -42.73771 | 0° | 0km/h | 25640m | 5.4m/s | -53.2°C | 1.1% | 23.4hPa | 0V | 00:00:00 | 00:00:00 | 00:00:00 | |
| PU1XMG-16 | 2026-09-01 00:47:31 | -22.81899 | -42.73782 | 69° | 13km/h | 25609m | 7.8m/s | -53.2°C | 1.1% | 23.5hPa | 0V | 00:00:00 | 00:00:00 | 00:00:00 | |
| PU1XMG-16 | 2026-09-01 00:47:26 | -22.81925 | -42.73804 | 33° | 24km/h | 25570m | 6.7m/s | -53.5°C | 1.1% | 23.7hPa | 0V | 00:00:00 | 00:00:00 | 00:00:00 | |
| PU1XMG-16 | 2026-09-01 00:47:18 | -22.81933 | -42.73809 | 144° | 5km/h | 25524m | 6.8m/s | -53.6°C | 1.1% | 23.9hPa | 0V | 00:00:00 | 00:00:00 | 00:00:00 | |
| PU1XMG-16 | 2026-09-01 00:47:11 | -22.81949 | -42.73821 | 353° | 20km/h | 25480m | 5.8m/s | -53.4°C | 1.1% | 24.1hPa | 0V | 00:00:00 | 00:00:00 | 00:00:00 | |
| PU1XMG-16 | 2026-09-01 00:47:03 | -22.81974 | -42.73832 | 64° | 15km/h | 25428m | 8.6m/s | -53.0°C | 1.1% | 24.2hPa | 0V | 00:00:00 | 00:00:00 | 00:00:00 | |
| PU1XMG-16 | 2026-09-01 00:46:58 | -22.81991 | -42.73850 | 30° | 26km/h | 25395m | 6.4m/s | -52.8°C | 1.1% | 24.4hPa | 0V | 00:00:00 | 00:00:00 | 00:00:00 | |
| PU1XMG-16 | 2026-09-01 00:46:52 | -22.82023 | -42.73868 | 35° | 22km/h | 25355m | 7.5m/s | -52.6°C | 1.1% | 24.5hPa | 0V | 00:00:00 | 00:00:00 | 00:00:00 | |
| PU1XMG-16 | 2026-09-01 00:46:46 | -22.82042 | -42.73896 | 53° | 24km/h | 25317m | 5.5m/s | -52.4°C | 1.0% | 24.7hPa | 0V | 00:00:00 | 00:00:00 | 00:00:00 | |
| PU1XMG-16 | 2026-09-01 00:46:40 | -22.82067 | -42.73925 | 43° | 26km/h | 25278m | 7.2m/s | -52.4°C | 1.0% | 24.8hPa | 0V | 00:00:00 | 00:00:00 | 00:00:00 | |
| PU1XMG-16 | 2026-09-01 00:46:30 | -22.82087 | -42.73983 | 72° | 24km/h | 25208m | 5.8m/s | -52.9°C | 1.1% | 25.1hPa | 0V | 00:00:00 | 00:00:00 | 00:00:00 | |
| PU1XMG-16 | 2026-09-01 00:46:25 | -22.82098 | -42.74016 | 64° | 26km/h | 25175m | 6.2m/s | -52.7°C | 1.1% | 25.2hPa | 0V | 00:00:00 | 00:00:00 | 00:00:00 | |
| PU1XMG-16 | 2026-09-01 00:46:13 | -22.82128 | -42.74073 | 40° | 26km/h | 25094m | 6.3m/s | -52.2°C | 1.0% | 25.5hPa | 0V | 00:00:00 | 00:00:00 | 00:00:00 | |
| PU1XMG-16 | 2026-09-01 00:46:04 | -22.82163 | -42.74103 | 56° | 13km/h | 25036m | 5.9m/s | -52.0°C | 1.1% | 25.7hPa | 0V | 00:00:00 | 00:00:00 | 00:00:00 | |
| PU1XMG-16 | 2026-09-01 00:45:58 | -22.82177 | -42.74119 | 26° | 13km/h | 24996m | 6.6m/s | -52.0°C | 1.0% | 25.9hPa | 0V | 00:00:00 | 00:00:00 | 00:00:00 | |
| PU1XMG-16 | 2026-09-01 00:45:52 | -22.82199 | -42.74116 | 336° | 11km/h | 24957m | 6.2m/s | -52.0°C | 1.0% | 26.1hPa | 0V | 00:00:00 | 00:00:00 | 00:00:00 | |
| PU1XMG-16 | 2026-09-01 00:45:43 | -22.82224 | -42.74125 | 45° | 22km/h | 24900m | 5.7m/s | -52.1°C | 1.0% | 26.3hPa | 0V | 00:00:00 | 00:00:00 | 00:00:00 | |
| PU1XMG-16 | 2026-09-01 00:45:38 | -22.82239 | -42.74145 | 34° | 13km/h | 24866m | 6.3m/s | -52.1°C | 1.0% | 26.5hPa | 0V | 00:00:00 | 00:00:00 | 00:00:00 | |
| PU1XMG-16 | 2026-09-01 00:45:32 | -22.82246 | -42.74157 | 71° | 16km/h | 24827m | 7.3m/s | -52.4°C | 1.0% | 26.6hPa | 0V | 00:00:00 | 00:00:00 | 00:00:00 | |
| PU1XMG-16 | 2026-09-01 00:45:18 | -22.82239 | -42.74245 | 139° | 22km/h | 24732m | 5.9m/s | -53.5°C | 1.1% | 27.0hPa | 0V | 00:00:00 | 00:00:00 | 00:00:00 | |
| PU1XMG-16 | 2026-09-01 00:44:55 | -22.82181 | -42.74338 | 108° | 20km/h | 24590m | 5.5m/s | -54.9°C | 1.2% | 0hPa | 0V | 00:00:00 | 00:00:00 | 00:00:00 | |
| PU1XMG-16 | 2026-09-01 00:44:49 | -22.82175 | -42.74356 | 144° | 13km/h | 24552m | 5.5m/s | -54.8°C | 1.1% | 27.8hPa | 0V | 00:00:00 | 00:00:00 | 00:00:00 | |
| PU1XMG-16 | 2026-09-01 00:44:43 | -22.82156 | -42.74374 | 114° | 26km/h | 24514m | 4.6m/s | -55.0°C | 1.2% | 27.9hPa | 0V | 00:00:00 | 00:00:00 | 00:00:00 | |
| PU1XMG-16 | 2026-09-01 00:44:38 | -22.82151 | -42.74400 | 100° | 16km/h | 24482m | 6.9m/s | -55.1°C | 1.2% | 28.1hPa | 0V | 00:00:00 | 00:00:00 | 00:00:00 | |
| PU1XMG-16 | 2026-09-01 00:44:33 | -22.82141 | -42.74416 | 147° | 20km/h | 24452m | 6.3m/s | -55.4°C | 1.2% | 28.2hPa | 0V | 00:00:00 | 00:00:00 | 00:00:00 | |
| PU1XMG-16 | 2026-09-01 00:44:20 | -22.82072 | -42.74482 | 119° | 16km/h | 24369m | 7.1m/s | -55.7°C | 1.2% | 28.6hPa | 0V | 00:00:00 | 00:00:00 | 00:00:00 | |
| PU1XMG-16 | 2026-09-01 00:44:11 | -22.82042 | -42.74506 | 162° | 18km/h | 24311m | 6.9m/s | -56.2°C | 1.3% | 28.8hPa | 0V | 00:00:00 | 00:00:00 | 00:00:00 | |
| PU1XMG-16 | 2026-09-01 00:44:06 | -22.82025 | -42.74514 | 151° | 11km/h | 24281m | 6.2m/s | -56.6°C | 1.3% | 29.0hPa | 0V | 00:00:00 | 00:00:00 | 00:00:00 | |
| PU1XMG-16 | 2026-09-01 00:43:56 | -22.82001 | -42.74513 | 177° | 11km/h | 24217m | 5.9m/s | -56.9°C | 1.3% | 29.3hPa | 0V | 00:00:00 | 00:00:00 | 00:00:00 | |
| PU1XMG-16 | 2026-09-01 00:43:50 | -22.81984 | -42.74516 | 169° | 4km/h | 24180m | 5.6m/s | -57.1°C | 1.3% | 29.5hPa | 0V | 00:00:00 | 00:00:00 | 00:00:00 | |
| PU1XMG-16 | 2026-09-01 00:43:45 | -22.81987 | -42.74505 | 300° | 15km/h | 24147m | 4.9m/s | -57.2°C | 1.3% | 29.6hPa | 0V | 00:00:00 | 00:00:00 | 00:00:00 | |
| PU1XMG-16 | 2026-09-01 00:43:39 | -22.81985 | -42.74487 | 204° | 5km/h | 24112m | 5.4m/s | -57.4°C | 1.4% | 29.8hPa | 0V | 00:00:00 | 00:00:00 | 00:00:00 | |
| PU1XMG-16 | 2026-09-01 00:43:34 | -22.81979 | -42.74487 | 149° | 2km/h | 24080m | 5.0m/s | -57.3°C | 1.4% | 29.9hPa | 0V | 00:00:00 | 00:00:00 | 00:00:00 | |
| PU1XMG-16 | 2026-09-01 00:43:29 | -22.81975 | -42.74478 | 278° | 5km/h | 24044m | 4.6m/s | -57.3°C | 1.4% | 30.1hPa | 0V | 00:00:00 | 00:00:00 | 00:00:00 | |
| PU1XMG-16 | 2026-09-01 00:43:22 | -22.81977 | -42.74473 | 9° | 7km/h | 24007m | 5.3m/s | -57.5°C | 1.3% | 30.3hPa | 0V | 00:00:00 | 00:00:00 | 00:00:00 | |
| PU1XMG-16 | 2026-09-01 00:43:16 | -22.81986 | -42.74469 | 328° | 9km/h | 23969m | 6.4m/s | -57.5°C | 1.3% | 30.5hPa | 0V | 00:00:00 | 00:00:00 | 00:00:00 | |
| PU1XMG-16 | 2026-09-01 00:43:11 | -22.81999 | -42.74462 | 341° | 13km/h | 23938m | 6.1m/s | -57.5°C | 1.3% | 30.6hPa | 0V | 00:00:00 | 00:00:00 | 00:00:00 | |
| PU1XMG-16 | 2026-09-01 00:43:04 | -22.82021 | -42.74457 | 18° | 7km/h | 23896m | 7.2m/s | -58.2°C | 1.4% | 30.8hPa | 0V | 00:00:00 | 00:00:00 | 00:00:00 | |
| PU1XMG-16 | 2026-09-01 00:42:59 | -22.82023 | -42.74465 | 68° | 5km/h | 23867m | 6.4m/s | -58.5°C | 1.4% | 31.0hPa | 0V | 00:00:00 | 00:00:00 | 00:00:00 | |
| PU1XMG-16 | 2026-09-01 00:42:53 | -22.82026 | -42.74467 | 85° | 5km/h | 23828m | 7.4m/s | -58.7°C | 1.4% | 31.2hPa | 0V | 00:00:00 | 00:00:00 | 00:00:00 | |
| PU1XMG-16 | 2026-09-01 00:42:48 | -22.82014 | -42.74496 | 168° | 5km/h | 23760m | 6.9m/s | -59.1°C | 1.5% | 31.5hPa | 0V | 00:00:00 | 00:00:00 | 00:00:00 | |
| PU1XMG-16 | 2026-09-01 00:42:45 | -22.82012 | -42.74506 | 97° | 13km/h | 23723m | 4.0m/s | -59.2°C | 1.5% | 31.7hPa | 0V | 00:00:00 | 00:00:00 | 00:00:00 | |
| PU1XMG-16 | 2026-09-01 00:42:29 | -22.82013 | -42.74529 | 52° | 9km/h | 23681m | 6.5m/s | -59.4°C | 1.5% | 31.9hPa | 0V | 00:00:00 | 00:00:00 | 00:00:00 | |
| PU1XMG-16 | 2026-09-01 00:42:24 | -22.82021 | -42.74542 | 69° | 20km/h | 23651m | 6.8m/s | -59.4°C | 1.5% | 32.1hPa | 0V | 00:00:00 | 00:00:00 | 00:00:00 | |
| PU1XMG-16 | 2026-09-01 00:42:18 | -22.82023 | -42.74591 | 91° | 33km/h | 23613m | 5.3m/s | -59.3°C | 1.5% | 32.3hPa | 0V | 00:00:00 | 00:00:00 | 00:00:00 | |
| PU1XMG-16 | 2026-09-01 00:42:13 | -22.82026 | -42.74616 | 45° | 11km/h | 23584m | 7.3m/s | -59.5°C | 1.5% | 32.4hPa | 0V | 00:00:00 | 00:00:00 | 00:00:00 | |
| PU1XMG-16 | 2026-09-01 00:42:08 | -22.82038 | -42.74638 | 82° | 27km/h | 23554m | 5.4m/s | -59.7°C | 1.5% | 32.6hPa | 0V | 00:00:00 | 00:00:00 | 00:00:00 | |
| PU1XMG-16 | 2026-09-01 00:42:02 | -22.82043 | -42.74702 | 71° | 29km/h | 23509m | 6.2m/s | -59.9°C | 1.5% | 32.8hPa | 0V | 00:00:00 | 00:00:00 | 00:00:00 | |
| PU1XMG-16 | 2026-09-01 00:41:56 | -22.82056 | -42.74726 | 62° | 18km/h | 23478m | 6.8m/s | -60.1°C | 1.6% | 33.0hPa | 0V | 00:00:00 | 00:00:00 | 00:00:00 | |
| PU1XMG-16 | 2026-09-01 00:41:50 | -22.82053 | -42.74766 | 106° | 27km/h | 23443m | 5.3m/s | -60.1°C | 1.5% | 33.2hPa | 0V | 00:00:00 | 00:00:00 | 00:00:00 | |
| PU1XMG-16 | 2026-09-01 00:41:40 | -22.82058 | -42.74817 | 100° | 18km/h | 23380m | 5.3m/s | -59.7°C | 1.5% | 33.5hPa | 0V | 00:00:00 | 00:00:00 | 00:00:00 | |
| PU1XMG-16 | 2026-09-01 00:41:34 | -22.82056 | -42.74848 | 96° | 13km/h | 23342m | 5.4m/s | -59.7°C | 1.5% | 33.7hPa | 0V | 00:00:00 | 00:00:00 | 00:00:00 | |
| PU1XMG-16 | 2026-09-01 00:41:28 | -22.82065 | -42.74863 | 44° | 9km/h | 23305m | 5.8m/s | -59.7°C | 1.5% | 33.9hPa | 0V | 00:00:00 | 00:00:00 | 00:00:00 | |
| PU1XMG-16 | 2026-09-01 00:41:22 | -22.82068 | -42.74884 | 109° | 20km/h | 23268m | 6.9m/s | -59.7°C | 1.5% | 34.1hPa | 0V | 00:00:00 | 00:00:00 | 00:00:00 | |
| PU1XMG-16 | 2026-09-01 00:41:18 | -22.82062 | -42.74907 | 119° | 13km/h | 23236m | 5.1m/s | -59.7°C | 1.5% | 34.3hPa | 0V | 00:00:00 | 00:00:00 | 00:00:00 | |
| PU1XMG-16 | 2026-09-01 00:41:09 | -22.82055 | -42.74932 | 92° | 15km/h | 23188m | 5.7m/s | -59.5°C | 1.5% | 34.6hPa | 0V | 00:00:00 | 00:00:00 | 00:00:00 | |
| PU1XMG-16 | 2026-09-01 00:41:03 | -22.82051 | -42.74955 | 111° | 15km/h | 23150m | 5.3m/s | -59.4°C | 1.5% | 34.8hPa | 0V | 00:00:00 | 00:00:00 | 00:00:00 | |
| PU1XMG-16 | 2026-09-01 00:40:58 | -22.82040 | -42.74970 | 117° | 13km/h | 23117m | 4.8m/s | -59.3°C | 1.5% | 34.9hPa | 0V | 00:00:00 | 00:00:00 | 00:00:00 | |
| PU1XMG-16 | 2026-09-01 00:40:50 | -22.82023 | -42.75000 | 133° | 15km/h | 23065m | 5.9m/s | -59.2°C | 1.5% | 35.2hPa | 0V | 00:00:00 | 00:00:00 | 00:00:00 | |
| PU1XMG-16 | 2026-09-01 00:40:42 | -22.82015 | -42.75006 | 114° | 5km/h | 23012m | 6.0m/s | -59.2°C | 1.5% | 35.5hPa | 0V | 00:00:00 | 00:00:00 | 00:00:00 | |
| PU1XMG-16 | 2026-09-01 00:40:36 | -22.82004 | -42.75027 | 112° | 13km/h | 22974m | 5.3m/s | -59.2°C | 1.5% | 35.7hPa | 0V | 00:00:00 | 00:00:00 | 00:00:00 | |
| PU1XMG-16 | 2026-09-01 00:40:30 | -22.82004 | -42.75035 | 34° | 5km/h | 22937m | 6.9m/s | -59.1°C | 1.5% | 35.9hPa | 0V | 00:00:00 | 00:00:00 | 00:00:00 | |
| PU1XMG-16 | 2026-09-01 00:40:24 | -22.82004 | -42.75054 | 94° | 18km/h | 22898m | 6.3m/s | -59.0°C | 1.5% | 36.2hPa | 0V | 00:00:00 | 00:00:00 | 00:00:00 | |
| PU1XMG-16 | 2026-09-01 00:40:19 | -22.82007 | -42.75077 | 59° | 15km/h | 22866m | 7.4m/s | -58.9°C | 1.5% | 36.4hPa | 0V | 00:00:00 | 00:00:00 | 00:00:00 | |
| PU1XMG-16 | 2026-09-01 00:40:12 | -22.82021 | -42.75095 | 85° | 15km/h | 22822m | 5.4m/s | -58.8°C | 1.5% | 36.7hPa | 0V | 00:00:00 | 00:00:00 | 00:00:00 | |
| PU1XMG-16 | 2026-09-01 00:40:07 | -22.82028 | -42.75121 | 77° | 22km/h | 22790m | 6.2m/s | -58.8°C | 1.5% | 36.8hPa | 0V | 00:00:00 | 00:00:00 | 00:00:00 | |
| PU1XMG-16 | 2026-09-01 00:40:01 | -22.82039 | -42.75147 | 77° | 16km/h | 22752m | 4.4m/s | -58.6°C | 1.5% | 37.0hPa | 0V | 00:00:00 | 00:00:00 | 00:00:00 | |
| PU1XMG-16 | 2026-09-01 00:39:55 | -22.82053 | -42.75183 | 72° | 26km/h | 22716m | 5.8m/s | -58.5°C | 1.4% | 37.2hPa | 0V | 00:00:00 | 00:00:00 | 00:00:00 | |
| PU1XMG-16 | 2026-09-01 00:39:50 | -22.82065 | -42.75213 | 75° | 22km/h | 22685m | 6.6m/s | -58.5°C | 1.5% | 37.4hPa | 0V | 00:00:00 | 00:00:00 | 00:00:00 | |
| PU1XMG-16 | 2026-09-01 00:39:44 | -22.82082 | -42.75250 | 66° | 27km/h | 22648m | 6.4m/s | -58.7°C | 1.5% | 37.7hPa | 0V | 00:00:00 | 00:00:00 | 00:00:00 | |
| PU1XMG-16 | 2026-09-01 00:39:38 | -22.82103 | -42.75294 | 74° | 29km/h | 22612m | 4.4m/s | -58.8°C | 1.5% | 37.9hPa | 0V | 00:00:00 | 00:00:00 | 00:00:00 | |
| PU1XMG-16 | 2026-09-01 00:39:33 | -22.82118 | -42.75327 | 60° | 22km/h | 22583m | 7.3m/s | -58.9°C | 1.5% | 38.1hPa | 0V | 00:00:00 | 00:00:00 | 00:00:00 | |
| PU1XMG-16 | 2026-09-01 00:39:27 | -22.82134 | -42.75361 | 76° | 27km/h | 22546m | 5.8m/s | -59.0°C | 1.5% | 38.3hPa | 0V | 00:00:00 | 00:00:00 | 00:00:00 | |
| PU1XMG-16 | 2026-09-01 00:39:21 | -22.82146 | -42.75406 | 80° | 22km/h | 22510m | 5.4m/s | -58.9°C | 1.5% | 38.5hPa | 0V | 00:00:00 | 00:00:00 | 00:00:00 | |
| PU1XMG-16 | 2026-09-01 00:39:15 | -22.82154 | -42.75436 | 95° | 22km/h | 22472m | 5.5m/s | -59.0°C | 1.4% | 38.7hPa | 0V | 00:00:00 | 00:00:00 | 00:00:00 | |
| PU1XMG-16 | 2026-09-01 00:39:04 | -22.82153 | -42.75533 | 75° | 24km/h | 22406m | 6.9m/s | -59.7°C | 1.5% | 39.2hPa | 0V | 00:00:00 | 00:00:00 | 00:00:00 | |
| PU1XMG-16 | 2026-09-01 00:38:58 | -22.82156 | -42.75566 | 105° | 26km/h | 22372m | 6.6m/s | -60.4°C | 1.6% | 39.4hPa | 0V | 00:00:00 | 00:00:00 | 00:00:00 | |
| PU1XMG-16 | 2026-09-01 00:38:54 | -22.82147 | -42.75607 | 103° | 31km/h | 22342m | 6.1m/s | -60.7°C | 1.6% | 39.5hPa | 0V | 00:00:00 | 00:00:00 | 00:00:00 | |
| PU1XMG-16 | 2026-09-01 00:38:47 | -22.82144 | -42.75647 | 93° | 20km/h | 22307m | 6.2m/s | -60.8°C | 1.6% | 39.8hPa | 0V | 00:00:00 | 00:00:00 | 00:00:00 | |
| PU1XMG-16 | 2026-09-01 00:38:41 | -22.82142 | -42.75684 | 82° | 22km/h | 22277m | 6.3m/s | -61.2°C | 1.6% | 40.0hPa | 0V | 00:00:00 | 00:00:00 | 00:00:00 | |
| PU1XMG-16 | 2026-09-01 00:38:36 | -22.82155 | -42.75713 | 65° | 24km/h | 22248m | 4.9m/s | -61.3°C | 1.6% | 40.2hPa | 0V | 00:00:00 | 00:00:00 | 00:00:00 | |
| PU1XMG-16 | 2026-09-01 00:38:30 | -22.82167 | -42.75756 | 86° | 29km/h | 22212m | 6.5m/s | -61.7°C | 1.7% | 40.4hPa | 0V | 00:00:00 | 00:00:00 | 00:00:00 | |
| PU1XMG-16 | 2026-09-01 00:38:25 | -22.82171 | -42.75789 | 70° | 22km/h | 22183m | 6.9m/s | -62.0°C | 1.7% | 40.6hPa | 0V | 00:00:00 | 00:00:00 | 00:00:00 | |
| PU1XMG-16 | 2026-09-01 00:38:19 | -22.82190 | -42.75816 | 47° | 24km/h | 22149m | 6.2m/s | -62.2°C | 1.8% | 40.8hPa | 0V | 00:00:00 | 00:00:00 | 00:00:00 | |
| PU1XMG-16 | 2026-09-01 00:38:14 | -22.82205 | -42.75844 | 75° | 27km/h | 22121m | 6.2m/s | -62.3°C | 1.8% | 41.0hPa | 0V | 00:00:00 | 00:00:00 | 00:00:00 | |
| PU1XMG-16 | 2026-09-01 00:38:09 | -22.82208 | -42.75879 | 87° | 24km/h | 22093m | 7.0m/s | -62.3°C | 1.8% | 41.2hPa | 0V | 00:00:00 | 00:00:00 | 00:00:00 | |
| PU1XMG-16 | 2026-09-01 00:38:03 | -22.82217 | -42.75911 | 72° | 20km/h | 22059m | 6.0m/s | -62.2°C | 1.8% | 41.4hPa | 0V | 00:00:00 | 00:00:00 | 00:00:00 | |
| PU1XMG-16 | 2026-09-01 00:37:58 | -22.82215 | -42.75949 | 99° | 24km/h | 22025m | 4.1m/s | -62.0°C | 1.8% | 41.6hPa | 0V | 00:00:00 | 00:00:00 | 00:00:00 | |
| PU1XMG-16 | 2026-09-01 00:37:52 | -22.82210 | -42.75973 | 86° | 13km/h | 21997m | 5.2m/s | -61.8°C | 1.7% | 41.8hPa | 0V | 00:00:00 | 00:00:00 | 00:00:00 | |
| PU1XMG-16 | 2026-09-01 00:37:46 | -22.82213 | -42.75999 | 89° | 22km/h | 21963m | 6.2m/s | -61.7°C | 1.7% | 42.1hPa | 0V | 00:00:00 | 00:00:00 | 00:00:00 | |
| PU1XMG-16 | 2026-09-01 00:37:40 | -22.82205 | -42.76038 | 104° | 20km/h | 21932m | 5.9m/s | -61.7°C | 1.7% | 42.3hPa | 0V | 00:00:00 | 00:00:00 | 00:00:00 | |
| PU1XMG-16 | 2026-09-01 00:37:35 | -22.82202 | -42.76056 | 85° | 9km/h | 21904m | 4.7m/s | -61.6°C | 1.7% | 42.5hPa | 0V | 00:00:00 | 00:00:00 | 00:00:00 | |
| PU1XMG-16 | 2026-09-01 00:37:29 | -22.82199 | -42.76078 | 98° | 18km/h | 21871m | 6.2m/s | -61.5°C | 1.7% | 42.7hPa | 0V | 00:00:00 | 00:00:00 | 00:00:00 | |
| PU1XMG-16 | 2026-09-01 00:37:23 | -22.82205 | -42.76113 | 66° | 18km/h | 21833m | 5.1m/s | -61.5°C | 1.7% | 43.0hPa | 0V | 00:00:00 | 00:00:00 | 00:00:00 | |
| PU1XMG-16 | 2026-09-01 00:37:15 | -22.82212 | -42.76151 | 91° | 26km/h | 21795m | 5.9m/s | -61.6°C | 1.7% | 43.2hPa | 0V | 00:00:00 | 00:00:00 | 00:00:00 | |
| PU1XMG-16 | 2026-09-01 00:37:10 | -22.82213 | -42.76184 | 77° | 20km/h | 21767m | 6.7m/s | -61.5°C | 1.7% | 43.4hPa | 0V | 00:00:00 | 00:00:00 | 00:00:00 | |
| PU1XMG-16 | 2026-09-01 00:37:04 | -22.82219 | -42.76206 | 77° | 11km/h | 21734m | 6.9m/s | -61.6°C | 1.7% | 43.7hPa | 0V | 00:00:00 | 00:00:00 | 00:00:00 | |
| PU1XMG-16 | 2026-09-01 00:36:58 | -22.82224 | -42.76231 | 71° | 20km/h | 21701m | 4.2m/s | -61.7°C | 1.8% | 43.9hPa | 0V | 00:00:00 | 00:00:00 | 00:00:00 | |
| PU1XMG-16 | 2026-09-01 00:36:52 | -22.82228 | -42.76261 | 92° | 16km/h | 21667m | 6.9m/s | -61.7°C | 1.7% | 44.1hPa | 0V | 00:00:00 | 00:00:00 | 00:00:00 | |
| PU1XMG-16 | 2026-09-01 00:36:47 | -22.82230 | -42.76283 | 80° | 18km/h | 21640m | 6.6m/s | -61.7°C | 1.7% | 44.3hPa | 0V | 00:00:00 | 00:00:00 | 00:00:00 | |
| PU1XMG-16 | 2026-09-01 00:36:42 | -22.82238 | -42.76323 | 82° | 27km/h | 21608m | 6.3m/s | -61.6°C | 1.7% | 44.6hPa | 0V | 00:00:00 | 00:00:00 | 00:00:00 | |
| PU1XMG-16 | 2026-09-01 00:36:35 | -22.82244 | -42.76359 | 82° | 20km/h | 21577m | 4.3m/s | -61.7°C | 1.8% | 44.8hPa | 0V | 00:00:00 | 00:00:00 | 00:00:00 | |
| PU1XMG-16 | 2026-09-01 00:36:30 | -22.82253 | -42.76396 | 82° | 37km/h | 21550m | 6.1m/s | -61.6°C | 1.7% | 45.0hPa | 0V | 00:00:00 | 00:00:00 | 00:00:00 | |
| PU1XMG-16 | 2026-09-01 00:36:25 | -22.82257 | -42.76442 | 85° | 27km/h | 21524m | 5.7m/s | -61.5°C | 1.7% | 45.2hPa | 0V | 00:00:00 | 00:00:00 | 00:00:00 | |
| PU1XMG-16 | 2026-09-01 00:36:19 | -22.82262 | -42.76480 | 88° | 24km/h | 21490m | 5.8m/s | -61.5°C | 1.7% | 45.4hPa | 0V | 00:00:00 | 00:00:00 | 00:00:00 | |
| PU1XMG-16 | 2026-09-01 00:36:14 | -22.82263 | -42.76516 | 102° | 24km/h | 21461m | 5.2m/s | -61.6°C | 1.7% | 45.6hPa | 0V | 00:00:00 | 00:00:00 | 00:00:00 | |
| PU1XMG-16 | 2026-09-01 00:36:09 | -22.82263 | -42.76539 | 69° | 15km/h | 21434m | 5.5m/s | -61.6°C | 1.8% | 45.8hPa | 0V | 00:00:00 | 00:00:00 | 00:00:00 | |
| PU1XMG-16 | 2026-09-01 00:36:03 | -22.82275 | -42.76566 | 77° | 18km/h | 21401m | 5.2m/s | -61.7°C | 1.7% | 46.1hPa | 0V | 00:00:00 | 00:00:00 | 00:00:00 | |
| PU1XMG-16 | 2026-09-01 00:35:56 | -22.82283 | -42.76589 | 43° | 9km/h | 21362m | 6.1m/s | -61.7°C | 1.7% | 46.3hPa | 0V | 00:00:00 | 00:00:00 | 00:00:00 | |
| PU1XMG-16 | 2026-09-01 00:35:22 | -22.82314 | -42.76762 | 97° | 18km/h | 21171m | 5.9m/s | -61.0°C | 1.7% | 47.8hPa | 0V | 00:00:00 | 00:00:00 | 00:00:00 | |
| PU1XMG-16 | 2026-09-01 00:35:13 | -22.82297 | -42.76808 | 113° | 22km/h | 21120m | 3.7m/s | -60.9°C | 1.7% | 48.2hPa | 0V | 00:00:00 | 00:00:00 | 00:00:00 | |
| PU1XMG-16 | 2026-09-01 00:35:04 | -22.82270 | -42.76871 | 130° | 27km/h | 21071m | 5.1m/s | -61.6°C | 1.8% | 48.6hPa | 0V | 00:00:00 | 00:00:00 | 00:00:00 | |
| PU1XMG-16 | 2026-09-01 00:34:59 | -22.82249 | -42.76898 | 137° | 26km/h | 21042m | 4.7m/s | -61.6°C | 1.8% | 48.8hPa | 0V | 00:00:00 | 00:00:00 | 00:00:00 | |
| PU1XMG-16 | 2026-09-01 00:34:52 | -22.82213 | -42.76934 | 137° | 31km/h | 21000m | 4.8m/s | -61.5°C | 1.8% | 49.1hPa | 0V | 00:00:00 | 00:00:00 | 00:00:00 | |
| PU1XMG-16 | 2026-09-01 00:34:46 | -22.82180 | -42.76961 | 154° | 22km/h | 20964m | 6.5m/s | -61.4°C | 1.7% | 49.4hPa | 0V | 00:00:00 | 00:00:00 | 00:00:00 | |
| PU1XMG-16 | 2026-09-01 00:34:41 | -22.82155 | -42.76973 | 159° | 22km/h | 20934m | 7.3m/s | -61.3°C | 1.8% | 49.7hPa | 0V | 00:00:00 | 00:00:00 | 00:00:00 | |
| PU1XMG-16 | 2026-09-01 00:34:35 | -22.82124 | -42.76989 | 151° | 24km/h | 20900m | 7.1m/s | -61.3°C | 1.8% | 49.9hPa | 0V | 00:00:00 | 00:00:00 | 00:00:00 | |
| PU1XMG-16 | 2026-09-01 00:34:29 | -22.82090 | -42.76996 | 188° | 24km/h | 20864m | 5.0m/s | -61.2°C | 1.7% | 50.3hPa | 0V | 00:00:00 | 00:00:00 | 00:00:00 | |
| PU1XMG-16 | 2026-09-01 00:34:24 | -22.82066 | -42.76993 | 181° | 18km/h | 20836m | 5.3m/s | -61.2°C | 1.8% | 50.5hPa | 0V | 00:00:00 | 00:00:00 | 00:00:00 | |
| PU1XMG-16 | 2026-09-01 00:34:19 | -22.82043 | -42.76994 | 174° | 24km/h | 20806m | 5.5m/s | -61.2°C | 1.8% | 50.7hPa | 0V | 00:00:00 | 00:00:00 | 00:00:00 | |
| PU1XMG-16 | 2026-09-01 00:34:13 | -22.82015 | -42.76989 | 227° | 18km/h | 20769m | 6.5m/s | -61.1°C | 1.8% | 51.0hPa | 0V | 00:00:00 | 00:00:00 | 00:00:00 | |
| PU1XMG-16 | 2026-09-01 00:34:07 | -22.81999 | -42.76979 | 164° | 9km/h | 20736m | 6.2m/s | -61.2°C | 1.8% | 51.3hPa | 0V | 00:00:00 | 00:00:00 | 00:00:00 | |
| PU1XMG-16 | 2026-09-01 00:34:02 | -22.81984 | -42.76979 | 223° | 15km/h | 20707m | 6.0m/s | -61.3°C | 1.8% | 51.5hPa | 0V | 00:00:00 | 00:00:00 | 00:00:00 | |
| PU1XMG-16 | 2026-09-01 00:33:56 | -22.81963 | -42.76949 | 237° | 18km/h | 20672m | 4.2m/s | -61.1°C | 1.8% | 51.8hPa | 0V | 00:00:00 | 00:00:00 | 00:00:00 | |
| PU1XMG-16 | 2026-09-01 00:33:51 | -22.81947 | -42.76937 | 215° | 13km/h | 20646m | 5.9m/s | -60.9°C | 1.7% | 52.0hPa | 0V | 00:00:00 | 00:00:00 | 00:00:00 | |
| PU1XMG-16 | 2026-09-01 00:33:45 | -22.81932 | -42.76913 | 261° | 20km/h | 20612m | 5.4m/s | -60.9°C | 1.7% | 52.3hPa | 0V | 00:00:00 | 00:00:00 | 00:00:00 | |
| PU1XMG-16 | 2026-09-01 00:33:39 | -22.81924 | -42.76894 | 207° | 7km/h | 20578m | 5.2m/s | -61.0°C | 1.7% | 52.6hPa | 0V | 00:00:00 | 00:00:00 | 00:00:00 | |
| PU1XMG-16 | 2026-09-01 00:33:34 | -22.81909 | -42.76883 | 249° | 20km/h | 20551m | 5.6m/s | -61.4°C | 1.8% | 52.9hPa | 0V | 00:00:00 | 00:00:00 | 00:00:00 | |
| PU1XMG-16 | 2026-09-01 00:33:28 | -22.81906 | -42.76857 | 300° | 4km/h | 20516m | 5.3m/s | -61.9°C | 1.9% | 53.2hPa | 0V | 00:00:00 | 00:00:00 | 00:00:00 | |
| PU1XMG-16 | 2026-09-01 00:33:23 | -22.81902 | -42.76862 | 205° | 7km/h | 20483m | 5.8m/s | -62.2°C | 1.9% | 53.4hPa | 0V | 00:00:00 | 00:00:00 | 00:00:00 | |
| PU1XMG-16 | 2026-09-01 00:32:41 | -22.81898 | -42.76785 | 248° | 7km/h | 20254m | 5.0m/s | -62.4°C | 1.9% | 55.5hPa | 0V | 00:00:00 | 00:00:00 | 00:00:00 | |
| PU1XMG-16 | 2026-09-01 00:32:32 | -22.81890 | -42.76757 | 251° | 20km/h | 20201m | 6.8m/s | -62.8°C | 2.0% | 55.9hPa | 0V | 00:00:00 | 00:00:00 | 00:00:00 | |
| PU1XMG-16 | 2026-09-01 00:32:27 | -22.81862 | -42.76726 | 215° | 20km/h | 20163m | 5.7m/s | -63.2°C | 2.1% | 56.3hPa | 0V | 00:00:00 | 00:00:00 | 00:00:00 | |
| PU1XMG-16 | 2026-09-01 00:32:19 | -22.81843 | -42.76700 | 253° | 24km/h | 20131m | 4.5m/s | -63.0°C | 2.1% | 56.6hPa | 0V | 00:00:00 | 00:00:00 | 00:00:00 | |
| PU1XMG-16 | 2026-09-01 00:32:14 | -22.81831 | -42.76665 | 245° | 20km/h | 20096m | 5.5m/s | -62.8°C | 2.1% | 56.9hPa | 0V | 00:00:00 | 00:00:00 | 00:00:00 | |
| PU1XMG-16 | 2026-09-01 00:32:07 | -22.81828 | -42.76638 | 282° | 20km/h | 20062m | 5.2m/s | -62.7°C | 2.1% | 57.2hPa | 0V | 00:00:00 | 00:00:00 | 00:00:00 | |
| PU1XMG-16 | 2026-09-01 00:32:02 | -22.81834 | -42.76613 | 280° | 15km/h | 20032m | 4.7m/s | -62.7°C | 2.0% | 57.5hPa | 0V | 00:00:00 | 00:00:00 | 00:00:00 | |
| PU1XMG-16 | 2026-09-01 00:31:56 | -22.81841 | -42.76591 | 303° | 15km/h | 19994m | 6.3m/s | -62.8°C | 2.1% | 57.8hPa | 0V | 00:00:00 | 00:00:00 | 00:00:00 | |
| PU1XMG-16 | 2026-09-01 00:31:51 | -22.81854 | -42.76572 | 329° | 18km/h | 19965m | 5.4m/s | -62.9°C | 2.1% | 58.1hPa | 0V | 00:00:00 | 00:00:00 | 00:00:00 | |
| PU1XMG-16 | 2026-09-01 00:31:46 | -22.81872 | -42.76559 | 342° | 15km/h | 19937m | 5.9m/s | -62.8°C | 2.1% | 58.4hPa | 0V | 00:00:00 | 00:00:00 | 00:00:00 | |
| PU1XMG-16 | 2026-09-01 00:31:40 | -22.81896 | -42.76555 | 350° | 22km/h | 19905m | 4.9m/s | -62.8°C | 2.1% | 58.7hPa | 0V | 00:00:00 | 00:00:00 | 00:00:00 | |
| PU1XMG-16 | 2026-09-01 00:31:33 | -22.81936 | -42.76549 | 359° | 22km/h | 19867m | 5.2m/s | -63.0°C | 2.2% | 59.1hPa | 0V | 00:00:00 | 00:00:00 | 00:00:00 | |
| PU1XMG-16 | 2026-09-01 00:31:28 | -22.81969 | -42.76547 | 359° | 26km/h | 19841m | 6.1m/s | -63.0°C | 2.2% | 59.3hPa | 0V | 00:00:00 | 00:00:00 | 00:00:00 | |
| PU1XMG-16 | 2026-09-01 00:31:23 | -22.82009 | -42.76555 | 19° | 24km/h | 19808m | 5.1m/s | -62.9°C | 2.2% | 59.6hPa | 0V | 00:00:00 | 00:00:00 | 00:00:00 | |
| PU1XMG-16 | 2026-09-01 00:31:17 | -22.82039 | -42.76568 | 22° | 24km/h | 19780m | 4.1m/s | -63.0°C | 2.1% | 59.9hPa | 0V | 00:00:00 | 00:00:00 | 00:00:00 | |
| PU1XMG-16 | 2026-09-01 00:31:11 | -22.82070 | -42.76580 | 26° | 22km/h | 19747m | 6.2m/s | -63.1°C | 2.2% | 60.2hPa | 0V | 00:00:00 | 00:00:00 | 00:00:00 | |
| PU1XMG-16 | 2026-09-01 00:31:04 | -22.82106 | -42.76608 | 41° | 27km/h | 19709m | 6.2m/s | -63.1°C | 2.2% | 60.6hPa | 0V | 00:00:00 | 00:00:00 | 00:00:00 | |
| PU1XMG-16 | 2026-09-01 00:30:57 | -22.82138 | -42.76641 | 51° | 20km/h | 19671m | 5.2m/s | -63.3°C | 2.2% | 61.0hPa | 0V | 00:00:00 | 00:00:00 | 00:00:00 | |
| PU1XMG-16 | 2026-09-01 00:30:51 | -22.82162 | -42.76670 | 50° | 24km/h | 19639m | 5.0m/s | -63.5°C | 2.3% | 61.3hPa | 0V | 00:00:00 | 00:00:00 | 00:00:00 | |
| PU1XMG-16 | 2026-09-01 00:30:35 | -22.82201 | -42.76801 | 65° | 31km/h | 19547m | 6.7m/s | -63.8°C | 2.3% | 62.2hPa | 0V | 00:00:00 | 00:00:00 | 00:00:00 | |
| PU1XMG-16 | 2026-09-01 00:29:06 | -22.82062 | -42.77283 | 155° | 18km/h | 19080m | 5.3m/s | -62.8°C | 2.3% | 67.1hPa | 0V | 00:00:00 | 00:00:00 | 00:00:00 | |
| PU1XMG-16 | 2026-09-01 00:28:53 | -22.82000 | -42.77314 | 169° | 18km/h | 19007m | 5.1m/s | -62.2°C | 2.3% | 67.9hPa | 0V | 00:00:00 | 00:00:00 | 00:00:00 | |
| PU1XMG-16 | 2026-09-01 00:28:46 | -22.81972 | -42.77326 | 160° | 22km/h | 18975m | 4.4m/s | -62.0°C | 2.2% | 68.3hPa | 0V | 00:00:00 | 00:00:00 | 00:00:00 | |
| PU1XMG-16 | 2026-09-01 00:28:42 | -22.81949 | -42.77330 | 189° | 16km/h | 18949m | 6.1m/s | -61.8°C | 2.3% | 68.6hPa | 0V | 00:00:00 | 00:00:00 | 00:00:00 | |
| PU1XMG-16 | 2026-09-01 00:28:35 | -22.81925 | -42.77329 | 165° | 15km/h | 18920m | 5.0m/s | -61.7°C | 2.2% | 68.9hPa | 0V | 00:00:00 | 00:00:00 | 00:00:00 | |
| PU1XMG-16 | 2026-09-01 00:28:29 | -22.81899 | -42.77336 | 175° | 18km/h | 18888m | 6.3m/s | -62.1°C | 2.2% | 69.2hPa | 0V | 00:00:00 | 00:00:00 | 00:00:00 | |
| PU1XMG-16 | 2026-09-01 00:28:23 | -22.81876 | -42.77332 | 197° | 13km/h | 18856m | 4.4m/s | -62.2°C | 2.3% | 69.6hPa | 0V | 00:00:00 | 00:00:00 | 00:00:00 | |
| PU1XMG-16 | 2026-09-01 00:28:18 | -22.81867 | -42.77330 | 185° | 9km/h | 18830m | 4.5m/s | -62.1°C | 2.3% | 69.9hPa | 0V | 00:00:00 | 00:00:00 | 00:00:00 | |
| PU1XMG-16 | 2026-09-01 00:28:13 | -22.81859 | -42.77324 | 242° | 9km/h | 18803m | 4.8m/s | -62.3°C | 2.4% | 70.2hPa | 0V | 00:00:00 | 00:00:00 | 00:00:00 | |
| PU1XMG-16 | 2026-09-01 00:28:07 | -22.81855 | -42.77312 | 291° | 4km/h | 18771m | 5.8m/s | -62.4°C | 2.4% | 70.6hPa | 0V | 00:00:00 | 00:00:00 | 00:00:00 | |
| PU1XMG-16 | 2026-09-01 00:28:02 | -22.81858 | -42.77310 | 11° | 5km/h | 18744m | 4.7m/s | -62.3°C | 2.4% | 70.9hPa | 0V | 00:00:00 | 00:00:00 | 00:00:00 | |
| PU1XMG-16 | 2026-09-01 00:27:57 | -22.81865 | -42.77309 | 343° | 5km/h | 18717m | 4.3m/s | -62.5°C | 2.4% | 71.2hPa | 0V | 00:00:00 | 00:00:00 | 00:00:00 | |
| PU1XMG-16 | 2026-09-01 00:27:52 | -22.81873 | -42.77307 | 5° | 5km/h | 18685m | 5.2m/s | -62.9°C | 2.5% | 71.6hPa | 0V | 00:00:00 | 00:00:00 | 00:00:00 | |
| PU1XMG-16 | 2026-09-01 00:27:46 | -22.81886 | -42.77311 | 35° | 13km/h | 18658m | 4.9m/s | -63.3°C | 2.6% | 71.9hPa | 0V | 00:00:00 | 00:00:00 | 00:00:00 | |
| PU1XMG-16 | 2026-09-01 00:27:40 | -22.81907 | -42.77329 | 39° | 18km/h | 18627m | 6.2m/s | -63.6°C | 2.7% | 72.2hPa | 0V | 00:00:00 | 00:00:00 | 00:00:00 | |
| PU1XMG-16 | 2026-09-01 00:27:34 | -22.81931 | -42.77346 | 37° | 27km/h | 18594m | 5.1m/s | -63.4°C | 2.6% | 72.7hPa | 0V | 00:00:00 | 00:00:00 | 00:00:00 | |
| PU1XMG-16 | 2026-09-01 00:27:29 | -22.81962 | -42.77377 | 46° | 37km/h | 18565m | 6.8m/s | -63.2°C | 2.6% | 73.0hPa | 0V | 00:00:00 | 00:00:00 | 00:00:00 | |
| PU1XMG-16 | 2026-09-01 00:27:24 | -22.81995 | -42.77413 | 50° | 24km/h | 18533m | 4.6m/s | -63.2°C | 2.6% | 73.3hPa | 0V | 00:00:00 | 00:00:00 | 00:00:00 | |
| PU1XMG-16 | 2026-09-01 00:27:18 | -22.82021 | -42.77438 | 48° | 31km/h | 18506m | 5.0m/s | -63.7°C | 2.7% | 73.7hPa | 0V | 00:00:00 | 00:00:00 | 00:00:00 | |
| PU1XMG-16 | 2026-09-01 00:27:12 | -22.82058 | -42.77484 | 53° | 38km/h | 18473m | 6.1m/s | -63.9°C | 2.8% | 74.0hPa | 0V | 00:00:00 | 00:00:00 | 00:00:00 | |
| PU1XMG-16 | 2026-09-01 00:27:07 | -22.82082 | -42.77518 | 62° | 24km/h | 18446m | 5.0m/s | -63.9°C | 2.8% | 74.4hPa | 0V | 00:00:00 | 00:00:00 | 00:00:00 | |
| PU1XMG-16 | 2026-09-01 00:27:01 | -22.82101 | -42.77555 | 62° | 29km/h | 18412m | 4.5m/s | -63.9°C | 2.9% | 74.8hPa | 0V | 00:00:00 | 00:00:00 | 00:00:00 | |
| PU1XMG-16 | 2026-09-01 00:26:56 | -22.82115 | -42.77591 | 67° | 26km/h | 18387m | 5.1m/s | -63.9°C | 2.9% | 75.1hPa | 0V | 00:00:00 | 00:00:00 | 00:00:00 | |
| PU1XMG-16 | 2026-09-01 00:26:50 | -22.82125 | -42.77629 | 81° | 27km/h | 18355m | 5.3m/s | -63.8°C | 2.9% | 75.5hPa | 0V | 00:00:00 | 00:00:00 | 00:00:00 | |
| PU1XMG-16 | 2026-09-01 00:26:45 | -22.82130 | -42.77670 | 84° | 33km/h | 18329m | 5.3m/s | -63.7°C | 2.9% | 75.8hPa | 0V | 00:00:00 | 00:00:00 | 00:00:00 | |
| PU1XMG-16 | 2026-09-01 00:26:39 | -22.82135 | -42.77722 | 86° | 33km/h | 18296m | 4.9m/s | -63.7°C | 3.0% | 76.2hPa | 0V | 00:00:00 | 00:00:00 | 00:00:00 | |
| PU1XMG-16 | 2026-09-01 00:26:34 | -22.82140 | -42.77765 | 92° | 35km/h | 18271m | 5.3m/s | -63.5°C | 3.0% | 76.5hPa | 0V | 00:00:00 | 00:00:00 | 00:00:00 | |
| PU1XMG-16 | 2026-09-01 00:26:29 | -22.82138 | -42.77815 | 93° | 27km/h | 18239m | 6.0m/s | -63.4°C | 3.1% | 76.9hPa | 0V | 00:00:00 | 00:00:00 | 00:00:00 | |
| PU1XMG-16 | 2026-09-01 00:26:23 | -22.82140 | -42.77853 | 84° | 27km/h | 18215m | 6.2m/s | -63.2°C | 3.1% | 77.2hPa | 0V | 00:00:00 | 00:00:00 | 00:00:00 | |
| PU1XMG-16 | 2026-09-01 00:26:18 | -22.82142 | -42.77893 | 89° | 27km/h | 18189m | 5.1m/s | -63.0°C | 3.2% | 77.6hPa | 0V | 00:00:00 | 00:00:00 | 00:00:00 | |
| PU1XMG-16 | 2026-09-01 00:26:13 | -22.82137 | -42.77931 | 103° | 27km/h | 18163m | 4.1m/s | -62.9°C | 3.3% | 77.9hPa | 0V | 00:00:00 | 00:00:00 | 00:00:00 | |
| PU1XMG-16 | 2026-09-01 00:26:07 | -22.82129 | -42.77982 | 97° | 35km/h | 18131m | 6.3m/s | -62.8°C | 3.2% | 78.3hPa | 0V | 00:00:00 | 00:00:00 | 00:00:00 | |
| PU1XMG-16 | 2026-09-01 00:26:02 | -22.82125 | -42.78036 | 98° | 29km/h | 18102m | 3.4m/s | -62.5°C | 3.3% | 78.7hPa | 0V | 00:00:00 | 00:00:00 | 00:00:00 | |
| PU1XMG-16 | 2026-09-01 00:25:56 | -22.82120 | -42.78078 | 100° | 31km/h | 18076m | 4.4m/s | -62.3°C | 3.3% | 79.0hPa | 0V | 00:00:00 | 00:00:00 | 00:00:00 | |
| PU1XMG-16 | 2026-09-01 00:25:50 | -22.82113 | -42.78130 | 98° | 33km/h | 18046m | 6.0m/s | -62.1°C | 3.4% | 79.4hPa | 0V | 00:00:00 | 00:00:00 | 00:00:00 | |
| PU1XMG-16 | 2026-09-01 00:25:45 | -22.82109 | -42.78182 | 98° | 31km/h | 18014m | 2.9m/s | -62.2°C | 3.5% | 79.8hPa | 0V | 00:00:00 | 00:00:00 | 00:00:00 | |
| PU1XMG-16 | 2026-09-01 00:25:39 | -22.82105 | -42.78225 | 96° | 29km/h | 17991m | 3.6m/s | -62.3°C | 3.5% | 80.2hPa | 0V | 00:00:00 | 00:00:00 | 00:00:00 | |
| PU1XMG-16 | 2026-09-01 00:25:33 | -22.82104 | -42.78273 | 96° | 29km/h | 17960m | 5.6m/s | -62.9°C | 3.7% | 80.6hPa | 0V | 00:00:00 | 00:00:00 | 00:00:00 | |
| PU1XMG-16 | 2026-09-01 00:24:44 | -22.82026 | -42.78636 | 66° | 35km/h | 17717m | 4.0m/s | -64.7°C | 6.9% | 83.8hPa | 0V | 00:00:00 | 00:00:00 | 00:00:00 | |
| PU1XMG-16 | 2026-09-01 00:24:37 | -22.82037 | -42.78700 | 92° | 38km/h | 17681m | 5.3m/s | -64.5°C | 7.7% | 84.3hPa | 0V | 00:00:00 | 00:00:00 | 00:00:00 | |
| PU1XMG-16 | 2026-09-01 00:24:25 | -22.82033 | -42.78807 | 91° | 35km/h | 17624m | 5.8m/s | -64.0°C | 9.0% | 85.0hPa | 0V | 00:00:00 | 00:00:00 | 00:00:00 | |
| PU1XMG-16 | 2026-09-01 00:24:19 | -22.82038 | -42.78862 | 83° | 29km/h | 17596m | 4.9m/s | -63.9°C | 9.6% | 85.5hPa | 0V | 00:00:00 | 00:00:00 | 00:00:00 | |
| PU1XMG-16 | 2026-09-01 00:24:14 | -22.82039 | -42.78899 | 90° | 29km/h | 17571m | 4.0m/s | -64.0°C | 10.5% | 85.8hPa | 0V | 00:00:00 | 00:00:00 | 00:00:00 | |
| PU1XMG-16 | 2026-09-01 00:24:08 | -22.82040 | -42.78954 | 85° | 37km/h | 17543m | 5.7m/s | -64.3°C | 11.9% | 86.2hPa | 0V | 00:00:00 | 00:00:00 | 00:00:00 | |
| PU1XMG-16 | 2026-09-01 00:24:01 | -22.82051 | -42.79021 | 78° | 27km/h | 17506m | 5.3m/s | -65.4°C | 13.9% | 86.7hPa | 0V | 00:00:00 | 00:00:00 | 00:00:00 | |
| PU1XMG-16 | 2026-09-01 00:23:53 | -22.82064 | -42.79103 | 76° | 47km/h | 17462m | 4.9m/s | -65.6°C | 14.7% | 87.3hPa | 0V | 00:00:00 | 00:00:00 | 00:00:00 | |
| PU1XMG-16 | 2026-09-01 00:23:47 | -22.82082 | -42.79161 | 72° | 46km/h | 17437m | 4.9m/s | -65.9°C | 14.4% | 87.7hPa | 0V | 00:00:00 | 00:00:00 | 00:00:00 | |
| PU1XMG-16 | 2026-09-01 00:23:42 | -22.82101 | -42.79239 | 77° | 55km/h | 17407m | 4.0m/s | -67.9°C | 16.1% | 88.1hPa | 0V | 00:00:00 | 00:00:00 | 00:00:00 | |
| PU1XMG-16 | 2026-09-01 00:23:36 | -22.82116 | -42.79315 | 81° | 57km/h | 17383m | 5.3m/s | -69.1°C | 17.0% | 88.5hPa | 0V | 00:00:00 | 00:00:00 | 00:00:00 | |
| PU1XMG-16 | 2026-09-01 00:23:30 | -22.82125 | -42.79407 | 86° | 60km/h | 17351m | 6.1m/s | -71.2°C | 19.3% | 89.0hPa | 0V | 00:00:00 | 00:00:00 | 00:00:00 | |
| PU1XMG-16 | 2026-09-01 00:23:25 | -22.82131 | -42.79497 | 88° | 73km/h | 17325m | 6.9m/s | -72.9°C | 22.8% | 89.3hPa | 0V | 00:00:00 | 00:00:00 | 00:00:00 | |
| PU1XMG-16 | 2026-09-01 00:23:04 | -22.82122 | -42.79844 | 98° | 42km/h | 17190m | 5.3m/s | -76.9°C | 28.4% | 91.4hPa | 0V | 00:00:00 | 00:00:00 | 00:00:00 | |
| PU1XMG-16 | 2026-09-01 00:22:36 | -22.82002 | -42.80053 | 119° | 33km/h | 17019m | 4.8m/s | -77.6°C | 30.1% | 94.2hPa | 0V | 00:00:00 | 00:00:00 | 00:00:00 | |
| PU1XMG-16 | 2026-09-01 00:22:31 | -22.81982 | -42.80090 | 126° | 31km/h | 16991m | 4.5m/s | -78.5°C | 32.0% | 94.7hPa | 0V | 00:00:00 | 00:00:00 | 00:00:00 | |
| PU1XMG-16 | 2026-09-01 00:22:27 | -22.81961 | -42.80126 | 121° | 35km/h | 16962m | 6.8m/s | -78.8°C | 32.6% | 95.1hPa | 0V | 00:00:00 | 00:00:00 | 00:00:00 | |
| PU1XMG-16 | 2026-09-01 00:22:20 | -22.81932 | -42.80179 | 124° | 38km/h | 16928m | 4.7m/s | -78.9°C | 32.4% | 95.7hPa | 0V | 00:00:00 | 00:00:00 | 00:00:00 | |
| PU1XMG-16 | 2026-09-01 00:22:15 | -22.81903 | -42.80217 | 129° | 35km/h | 16901m | 3.5m/s | -79.2°C | 32.8% | 96.2hPa | 0V | 00:00:00 | 00:00:00 | 00:00:00 | |
| PU1XMG-16 | 2026-09-01 00:22:10 | -22.81872 | -42.80255 | 137° | 42km/h | 16875m | 5.5m/s | -79.3°C | 33.8% | 96.6hPa | 0V | 00:00:00 | 00:00:00 | 00:00:00 | |
| PU1XMG-16 | 2026-09-01 00:22:05 | -22.81834 | -42.80291 | 143° | 37km/h | 16850m | 6.3m/s | -79.1°C | 32.8% | 97.0hPa | 0V | 00:00:00 | 00:00:00 | 00:00:00 | |
| PU1XMG-16 | 2026-09-01 00:21:59 | -22.81790 | -42.80323 | 147° | 40km/h | 16819m | 5.6m/s | -78.9°C | 32.2% | 97.5hPa | 0V | 00:00:00 | 00:00:00 | 00:00:00 | |
| PU1XMG-16 | 2026-09-01 00:21:53 | -22.81734 | -42.80364 | 148° | 40km/h | 16789m | 4.1m/s | -78.8°C | 32.0% | 98.1hPa | 0V | 00:00:00 | 00:00:00 | 00:00:00 | |
| PU1XMG-16 | 2026-09-01 00:21:46 | -22.81676 | -42.80396 | 155° | 37km/h | 16754m | 6.1m/s | -78.6°C | 31.1% | 98.7hPa | 0V | 00:00:00 | 00:00:00 | 00:00:00 | |
| PU1XMG-16 | 2026-09-01 00:21:42 | -22.81633 | -42.80422 | 147° | 42km/h | 16727m | 4.7m/s | -78.4°C | 31.0% | 99.2hPa | 0V | 00:00:00 | 00:00:00 | 00:00:00 | |
| PU1XMG-16 | 2026-09-01 00:21:35 | -22.81578 | -42.80460 | 152° | 38km/h | 16698m | 5.7m/s | -78.1°C | 30.0% | 99.7hPa | 0V | 00:00:00 | 00:00:00 | 00:00:00 | |
| PU1XMG-16 | 2026-09-01 00:21:29 | -22.81529 | -42.80492 | 146° | 40km/h | 16667m | 4.6m/s | -77.8°C | 29.3% | 100.2hPa | 0V | 00:00:00 | 00:00:00 | 00:00:00 | |
| PU1XMG-16 | 2026-09-01 00:21:24 | -22.81485 | -42.80524 | 151° | 42km/h | 16641m | 5.9m/s | -77.6°C | 28.5% | 100.6hPa | 0V | 00:00:00 | 00:00:00 | 00:00:00 | |
| PU1XMG-16 | 2026-09-01 00:21:19 | -22.81432 | -42.80557 | 143° | 40km/h | 16611m | 4.3m/s | -77.4°C | 28.0% | 101.2hPa | 0V | 00:00:00 | 00:00:00 | 00:00:00 | |
| PU1XMG-16 | 2026-09-01 00:21:17 | -22.81392 | -42.80592 | 144° | 44km/h | 16587m | 5.7m/s | -77.1°C | 27.2% | 101.6hPa | 0V | 00:00:00 | 00:00:00 | 00:00:00 | |
| PU1XMG-16 | 2026-09-01 00:21:07 | -22.81335 | -42.80630 | 152° | 44km/h | 16559m | 2.8m/s | -76.9°C | 26.4% | 102.1hPa | 0V | 00:00:00 | 00:00:00 | 00:00:00 | |
| PU1XMG-16 | 2026-09-01 00:21:02 | -22.81289 | -42.80660 | 144° | 42km/h | 16534m | 4.0m/s | -76.9°C | 26.2% | 102.5hPa | 0V | 00:00:00 | 00:00:00 | 00:00:00 | |
| PU1XMG-16 | 2026-09-01 00:20:57 | -22.81249 | -42.80696 | 139° | 42km/h | 16507m | 6.1m/s | -76.8°C | 25.7% | 103.0hPa | 0V | 00:00:00 | 00:00:00 | 00:00:00 | |
| PU1XMG-16 | 2026-09-01 00:20:51 | -22.81199 | -42.80735 | 150° | 42km/h | 16476m | 4.7m/s | -76.8°C | 25.4% | 103.5hPa | 0V | 00:00:00 | 00:00:00 | 00:00:00 | |
| PU1XMG-16 | 2026-09-01 00:20:45 | -22.81145 | -42.80780 | 141° | 46km/h | 16448m | 2.9m/s | -76.6°C | 25.2% | 104.1hPa | 0V | 00:00:00 | 00:00:00 | 00:00:00 | |
| PU1XMG-16 | 2026-09-01 00:20:40 | -22.81101 | -42.80820 | 142° | 46km/h | 16425m | 6.2m/s | -76.5°C | 24.3% | 104.5hPa | 0V | 00:00:00 | 00:00:00 | 00:00:00 | |
| PU1XMG-16 | 2026-09-01 00:20:35 | -22.81046 | -42.80867 | 144° | 46km/h | 16392m | 5.4m/s | -76.4°C | 24.3% | 105.1hPa | 0V | 00:00:00 | 00:00:00 | 00:00:00 | |
| PU1XMG-16 | 2026-09-01 00:20:28 | -22.80990 | -42.80911 | 147° | 44km/h | 16363m | 3.0m/s | -76.3°C | 24.0% | 105.6hPa | 0V | 00:00:00 | 00:00:00 | 00:00:00 | |
| PU1XMG-16 | 2026-09-01 00:20:22 | -22.80936 | -42.80951 | 142° | 42km/h | 16331m | 4.3m/s | -76.1°C | 23.6% | 106.2hPa | 0V | 00:00:00 | 00:00:00 | 00:00:00 | |
| PU1XMG-16 | 2026-09-01 00:20:16 | -22.80880 | -42.80992 | 150° | 42km/h | 16301m | 5.4m/s | -76.2°C | 22.8% | 106.7hPa | 0V | 00:00:00 | 00:00:00 | 00:00:00 | |
| PU1XMG-16 | 2026-09-01 00:20:11 | -22.80835 | -42.81020 | 151° | 40km/h | 16275m | 6.2m/s | -76.0°C | 22.7% | 107.2hPa | 0V | 00:00:00 | 00:00:00 | 00:00:00 | |
| PU1XMG-16 | 2026-09-01 00:20:05 | -22.80786 | -42.81046 | 151° | 37km/h | 16245m | 5.6m/s | -75.8°C | 22.4% | 107.8hPa | 0V | 00:00:00 | 00:00:00 | 00:00:00 | |
| PU1XMG-16 | 2026-09-01 00:20:00 | -22.80740 | -42.81075 | 152° | 31km/h | 16212m | 5.9m/s | -75.7°C | 22.7% | 108.4hPa | 0V | 00:00:00 | 00:00:00 | 00:00:00 | |
| PU1XMG-16 | 2026-09-01 00:19:53 | -22.80695 | -42.81099 | 144° | 33km/h | 16182m | 4.1m/s | -75.6°C | 21.7% | 109.0hPa | 0V | 00:00:00 | 00:00:00 | 00:00:00 | |
| PU1XMG-16 | 2026-09-01 00:19:48 | -22.80666 | -42.81123 | 138° | 26km/h | 16152m | 5.0m/s | -75.4°C | 21.5% | 109.5hPa | 0V | 00:00:00 | 00:00:00 | 00:00:00 | |
| PU1XMG-16 | 2026-09-01 00:19:42 | -22.80633 | -42.81151 | 146° | 29km/h | 16120m | 6.1m/s | -75.0°C | 21.2% | 110.2hPa | 0V | 00:00:00 | 00:00:00 | 00:00:00 | |
| PU1XMG-16 | 2026-09-01 00:19:37 | -22.80602 | -42.81177 | 146° | 29km/h | 16094m | 5.0m/s | -74.8°C | 21.3% | 110.7hPa | 0V | 00:00:00 | 00:00:00 | 00:00:00 | |
| PU1XMG-16 | 2026-09-01 00:19:31 | -22.80572 | -42.81206 | 140° | 26km/h | 16064m | 6.1m/s | -74.5°C | 20.5% | 111.2hPa | 0V | 00:00:00 | 00:00:00 | 00:00:00 | |
| PU1XMG-16 | 2026-09-01 00:19:26 | -22.80546 | -42.81229 | 140° | 27km/h | 16036m | 5.6m/s | -74.2°C | 20.2% | 111.8hPa | 0V | 00:00:00 | 00:00:00 | 00:00:00 | |
| PU1XMG-16 | 2026-09-01 00:19:21 | -22.80519 | -42.81253 | 141° | 29km/h | 16009m | 4.0m/s | -74.0°C | 20.0% | 112.3hPa | 0V | 00:00:00 | 00:00:00 | 00:00:00 | |
| PU1XMG-16 | 2026-09-01 00:19:16 | -22.80486 | -42.81283 | 140° | 27km/h | 15977m | 5.2m/s | -73.7°C | 19.7% | 112.9hPa | 0V | 00:00:00 | 00:00:00 | 00:00:00 | |
| PU1XMG-16 | 2026-09-01 00:19:10 | -22.80460 | -42.81308 | 143° | 27km/h | 15950m | 4.8m/s | -73.5°C | 19.3% | 113.4hPa | 0V | 00:00:00 | 00:00:00 | 00:00:00 | |
| PU1XMG-16 | 2026-09-01 00:18:53 | -22.80373 | -42.81387 | 149° | 26km/h | 15856m | 5.7m/s | -72.6°C | 18.5% | 115.3hPa | 0V | 00:00:00 | 00:00:00 | 00:00:00 | |
| PU1XMG-16 | 2026-09-01 00:18:47 | -22.80333 | -42.81412 | 133° | 22km/h | 15817m | 7.3m/s | -72.3°C | 18.0% | 116.0hPa | 0V | 00:00:00 | 00:00:00 | 00:00:00 | |
| PU1XMG-16 | 2026-09-01 00:18:42 | -22.80318 | -42.81436 | 137° | 26km/h | 15791m | 2.1m/s | -72.2°C | 19.2% | 116.6hPa | 0V | 00:00:00 | 00:00:00 | 00:00:00 | |
| PU1XMG-16 | 2026-09-01 00:18:36 | -22.80282 | -42.81451 | 170° | 33km/h | 15763m | 5.5m/s | -72.2°C | 18.6% | 117.1hPa | 0V | 00:00:00 | 00:00:00 | 00:00:00 | |
| PU1XMG-16 | 2026-09-01 00:18:30 | -22.80256 | -42.81468 | 77° | 18km/h | 15731m | 5.9m/s | -71.8°C | 17.0% | 117.8hPa | 0V | 00:00:00 | 00:00:00 | 00:00:00 | |
| PU1XMG-16 | 2026-09-01 00:18:25 | -22.80243 | -42.81498 | 145° | 31km/h | 15690m | 6.6m/s | -71.5°C | 16.4% | 118.6hPa | 0V | 00:00:00 | 00:00:00 | 00:00:00 | |
| PU1XMG-16 | 2026-09-01 00:18:19 | -22.80214 | -42.81515 | 158° | 26km/h | 15662m | 6.5m/s | -71.2°C | 16.3% | 119.2hPa | 0V | 00:00:00 | 00:00:00 | 00:00:00 | |
| PU1XMG-16 | 2026-09-01 00:18:14 | -22.80186 | -42.81535 | 126° | 27km/h | 15628m | 5.9m/s | -70.9°C | 15.7% | 119.9hPa | 0V | 00:00:00 | 00:00:00 | 00:00:00 | |
| PU1XMG-16 | 2026-09-01 00:18:08 | -22.80162 | -42.81567 | 139° | 29km/h | 15599m | 6.5m/s | -70.6°C | 14.6% | 120.5hPa | 0V | 00:00:00 | 00:00:00 | 00:00:00 | |
| PU1XMG-16 | 2026-09-01 00:18:01 | -22.80130 | -42.81597 | 128° | 33km/h | 15559m | 7.3m/s | -70.2°C | 13.9% | 121.4hPa | 0V | 00:00:00 | 00:00:00 | 00:00:00 | |
| PU1XMG-16 | 2026-09-01 00:17:55 | -22.80106 | -42.81636 | 120° | 27km/h | 15526m | 10.9m/s | -69.8°C | 13.6% | 122.2hPa | 0V | 00:00:00 | 00:00:00 | 00:00:00 | |
| PU1XMG-16 | 2026-09-01 00:17:50 | -22.80087 | -42.81668 | 123° | 13km/h | 15498m | 8.9m/s | -69.5°C | 13.3% | 123.0hPa | 0V | 00:00:00 | 00:00:00 | 00:00:00 | |
| PU1XMG-16 | 2026-09-01 00:17:44 | -22.80069 | -42.81677 | 150° | 37km/h | 15481m | 11.7m/s | -69.0°C | 11.2% | 123.8hPa | 0V | 00:00:00 | 00:00:00 | 00:00:00 | |
| PU1XMG-16 | 2026-09-01 00:17:34 | -22.80032 | -42.81742 | 169° | 55km/h | 15341m | 27.8m/s | -68.6°C | 9.7% | 125.8hPa | 0V | 00:00:00 | 00:00:00 | 00:00:00 | |
| PU1XMG-16 | 2026-09-01 00:17:29 | -22.80027 | -42.81805 | 83° | 38km/h | 15288m | 4.4m/s | -68.3°C | 9.7% | 126.8hPa | 0V | 00:00:00 | 00:00:00 | 00:00:00 | |
| PU1XMG-16 | 2026-09-01 00:17:23 | -22.80026 | -42.81858 | 103° | 40km/h | 15261m | 5.2m/s | -68.2°C | 9.3% | 127.3hPa | 0V | 00:00:00 | 00:00:00 | 00:00:00 | |
| PU1XMG-16 | 2026-09-01 00:17:18 | -22.80017 | -42.81914 | 86° | 44km/h | 15234m | 4.8m/s | -67.9°C | 9.3% | 127.9hPa | 0V | 00:00:00 | 00:00:00 | 00:00:00 | |
| PU1XMG-16 | 2026-09-01 00:17:14 | -22.80019 | -42.81977 | 94° | 51km/h | 15205m | 6.8m/s | -67.7°C | 9.0% | 128.5hPa | 0V | 00:00:00 | 00:00:00 | 00:00:00 | |
| PU1XMG-16 | 2026-09-01 00:17:07 | -22.80021 | -42.82059 | 80° | 47km/h | 15171m | 3.7m/s | -67.5°C | 8.7% | 129.2hPa | 0V | 00:00:00 | 00:00:00 | 00:00:00 | |
| PU1XMG-16 | 2026-09-01 00:17:02 | -22.80025 | -42.82123 | 89° | 46km/h | 15144m | 6.8m/s | -67.3°C | 8.3% | 129.8hPa | 0V | 00:00:00 | 00:00:00 | 00:00:00 | |
| PU1XMG-16 | 2026-09-01 00:16:56 | -22.80032 | -42.82207 | 87° | 55km/h | 15111m | 4.3m/s | -67.0°C | 8.2% | 130.6hPa | 0V | 00:00:00 | 00:00:00 | 00:00:00 | |
| PU1XMG-16 | 2026-09-01 00:16:50 | -22.80037 | -42.82295 | 86° | 49km/h | 15083m | 5.8m/s | -66.7°C | 8.0% | 131.1hPa | 0V | 00:00:00 | 00:00:00 | 00:00:00 | |
| PU1XMG-16 | 2026-09-01 00:16:44 | -22.80046 | -42.82381 | 85° | 57km/h | 15053m | 3.9m/s | -66.5°C | 7.9% | 131.8hPa | 0V | 00:00:00 | 00:00:00 | 00:00:00 | |
| PU1XMG-16 | 2026-09-01 00:16:34 | -22.80064 | -42.82530 | 78° | 58km/h | 14999m | 6.4m/s | -66.1°C | 7.5% | 133.0hPa | 0V | 00:00:00 | 00:00:00 | 00:00:00 | |
| PU1XMG-16 | 2026-09-01 00:16:28 | -22.80077 | -42.82625 | 89° | 53km/h | 14969m | 3.9m/s | -65.8°C | 7.2% | 133.6hPa | 0V | 00:00:00 | 00:00:00 | 00:00:00 | |
| PU1XMG-16 | 2026-09-01 00:16:23 | -22.80081 | -42.82692 | 82° | 47km/h | 14945m | 5.5m/s | -65.5°C | 7.2% | 134.2hPa | 0V | 00:00:00 | 00:00:00 | 00:00:00 | |
| PU1XMG-16 | 2026-09-01 00:16:18 | -22.80097 | -42.82784 | 79° | 68km/h | 14913m | 4.9m/s | -65.3°C | 7.0% | 134.8hPa | 0V | 00:00:00 | 00:00:00 | 00:00:00 | |
| PU1XMG-16 | 2026-09-01 00:16:11 | -22.80108 | -42.82880 | 86° | 53km/h | 14884m | 3.4m/s | -65.0°C | 6.8% | 135.5hPa | 0V | 00:00:00 | 00:00:00 | 00:00:00 | |
| PU1XMG-16 | 2026-09-01 00:16:06 | -22.80120 | -42.82953 | 76° | 53km/h | 14856m | 4.4m/s | -64.9°C | 6.8% | 136.1hPa | 0V | 00:00:00 | 00:00:00 | 00:00:00 | |
| PU1XMG-16 | 2026-09-01 00:16:00 | -22.80142 | -42.83035 | 75° | 49km/h | 14827m | 6.9m/s | -64.7°C | 6.7% | 136.7hPa | 0V | 00:00:00 | 00:00:00 | 00:00:00 | |
| PU1XMG-16 | 2026-09-01 00:15:54 | -22.80163 | -42.83124 | 78° | 58km/h | 14797m | 6.1m/s | -64.4°C | 6.3% | 137.4hPa | 0V | 00:00:00 | 00:00:00 | 00:00:00 | |
| PU1XMG-16 | 2026-09-01 00:15:49 | -22.80178 | -42.83204 | 77° | 60km/h | 14768m | 6.2m/s | -64.3°C | 6.3% | 138.0hPa | 0V | 00:00:00 | 00:00:00 | 00:00:00 | |
| PU1XMG-16 | 2026-09-01 00:15:43 | -22.80209 | -42.83295 | 68° | 58km/h | 14736m | 3.1m/s | -64.3°C | 6.3% | 138.8hPa | 0V | 00:00:00 | 00:00:00 | 00:00:00 | |
| PU1XMG-16 | 2026-09-01 00:15:38 | -22.80236 | -42.83373 | 70° | 64km/h | 14714m | 3.9m/s | -64.1°C | 6.1% | 139.3hPa | 0V | 00:00:00 | 00:00:00 | 00:00:00 | |
| PU1XMG-16 | 2026-09-01 00:15:32 | -22.80273 | -42.83471 | 67° | 64km/h | 14684m | 4.7m/s | -63.9°C | 6.3% | 140.0hPa | 0V | 00:00:00 | 00:00:00 | 00:00:00 | |
| PU1XMG-16 | 2026-09-01 00:15:27 | -22.80310 | -42.83549 | 69° | 64km/h | 14662m | 4.3m/s | -63.7°C | 6.1% | 140.5hPa | 0V | 00:00:00 | 00:00:00 | 00:00:00 | |
| PU1XMG-16 | 2026-09-01 00:15:22 | -22.80341 | -42.83670 | 77° | 77km/h | 14634m | 4.0m/s | -63.5°C | 5.9% | 141.2hPa | 0V | 00:00:00 | 00:00:00 | 00:00:00 | |
| PU1XMG-16 | 2026-09-01 00:15:16 | -22.80379 | -42.83784 | 69° | 71km/h | 14597m | 6.4m/s | -63.4°C | 5.9% | 142.0hPa | 0V | 00:00:00 | 00:00:00 | 00:00:00 | |
| PU1XMG-16 | 2026-09-01 00:15:10 | -22.80414 | -42.83872 | 64° | 69km/h | 14567m | 8.5m/s | -63.2°C | 5.9% | 142.7hPa | 0V | 00:00:00 | 00:00:00 | 00:00:00 | |
| PU1XMG-16 | 2026-09-01 00:15:04 | -22.80462 | -42.83984 | 71° | 75km/h | 14529m | 4.2m/s | -62.9°C | 5.9% | 143.6hPa | 0V | 00:00:00 | 00:00:00 | 00:00:00 | |
| PU1XMG-16 | 2026-09-01 00:15:00 | -22.80502 | -42.84078 | 62° | 75km/h | 14502m | 7.0m/s | -62.7°C | 5.8% | 144.2hPa | 0V | 00:00:00 | 00:00:00 | 00:00:00 | |
| PU1XMG-16 | 2026-09-01 00:14:53 | -22.80551 | -42.84186 | 79° | 73km/h | 14467m | 6.6m/s | -62.4°C | 5.6% | 145.0hPa | 0V | 00:00:00 | 00:00:00 | 00:00:00 | |
| PU1XMG-16 | 2026-09-01 00:14:48 | -22.80564 | -42.84293 | 78° | 77km/h | 14445m | 3.9m/s | -62.3°C | 5.8% | 145.5hPa | 0V | 00:00:00 | 00:00:00 | 00:00:00 | |
| PU1XMG-16 | 2026-09-01 00:14:42 | -22.80608 | -42.84399 | 60° | 64km/h | 14396m | 4.8m/s | -62.0°C | 5.6% | 146.6hPa | 0V | 00:00:00 | 00:00:00 | 00:00:00 | |
| PU1XMG-16 | 2026-09-01 00:14:37 | -22.80632 | -42.84482 | 75° | 71km/h | 14369m | 7.6m/s | -62.0°C | 5.4% | 147.2hPa | 0V | 00:00:00 | 00:00:00 | 00:00:00 | |
| PU1XMG-16 | 2026-09-01 00:14:33 | -22.80692 | -42.84593 | 61° | 108km/h | 14324m | 8.9m/s | -62.5°C | 5.6% | 148.3hPa | 0V | 00:00:00 | 00:00:00 | 00:00:00 | |
| PU1XMG-16 | 2026-09-01 00:14:26 | -22.80757 | -42.84745 | 64° | 100km/h | 14287m | 4.8m/s | -62.2°C | 5.5% | 149.3hPa | 0V | 00:00:00 | 00:00:00 | 00:00:00 | |
| PU1XMG-16 | 2026-09-01 00:14:22 | -22.80816 | -42.84868 | 65° | 106km/h | 14263m | 2.8m/s | -62.0°C | 5.5% | 149.8hPa | 0V | 00:00:00 | 00:00:00 | 00:00:00 | |
| PU1XMG-16 | 2026-09-01 00:14:16 | -22.80866 | -42.84998 | 69° | 100km/h | 14239m | 4.8m/s | -61.8°C | 5.5% | 150.4hPa | 0V | 00:00:00 | 00:00:00 | 00:00:00 | |
| PU1XMG-16 | 2026-09-01 00:14:11 | -22.80914 | -42.85125 | 70° | 99km/h | 14215m | 4.0m/s | -61.5°C | 5.4% | 151.0hPa | 0V | 00:00:00 | 00:00:00 | 00:00:00 | |
| PU1XMG-16 | 2026-09-01 00:14:06 | -22.80962 | -42.85251 | 68° | 100km/h | 14192m | 3.7m/s | -61.3°C | 5.3% | 151.6hPa | 0V | 00:00:00 | 00:00:00 | 00:00:00 | |
| PU1XMG-16 | 2026-09-01 00:14:00 | -22.81018 | -42.85396 | 71° | 93km/h | 14164m | 5.0m/s | -61.0°C | 5.1% | 152.2hPa | 0V | 00:00:00 | 00:00:00 | 00:00:00 | |
| PU1XMG-16 | 2026-09-01 00:13:55 | -22.81062 | -42.85522 | 69° | 104km/h | 14143m | 6.5m/s | -60.8°C | 5.0% | 152.7hPa | 0V | 00:00:00 | 00:00:00 | 00:00:00 | |
| PU1XMG-16 | 2026-09-01 00:13:50 | -22.81123 | -42.85682 | 69° | 104km/h | 14115m | 4.8m/s | -60.5°C | 5.1% | 153.5hPa | 0V | 00:00:00 | 00:00:00 | 00:00:00 | |
| PU1XMG-16 | 2026-09-01 00:13:44 | -22.81184 | -42.85834 | 67° | 104km/h | 14088m | 6.1m/s | -60.3°C | 5.2% | 154.2hPa | 0V | 00:00:00 | 00:00:00 | 00:00:00 | |
| PU1XMG-16 | 2026-09-01 00:13:39 | -22.81238 | -42.85969 | 67° | 111km/h | 14062m | 5.5m/s | -60.0°C | 5.1% | 154.8hPa | 0V | 00:00:00 | 00:00:00 | 00:00:00 | |
| PU1XMG-16 | 2026-09-01 00:13:33 | -22.81288 | -42.86108 | 69° | 106km/h | 14033m | 7.3m/s | -59.8°C | 4.9% | 155.5hPa | 0V | 00:00:00 | 00:00:00 | 00:00:00 | |
| PU1XMG-16 | 2026-09-01 00:13:28 | -22.81341 | -42.86238 | 65° | 106km/h | 14003m | 5.1m/s | -59.5°C | 5.0% | 156.3hPa | 0V | 00:00:00 | 00:00:00 | 00:00:00 | |
| PU1XMG-16 | 2026-09-01 00:13:22 | -22.81404 | -42.86396 | 71° | 108km/h | 13972m | 5.2m/s | -59.4°C | 5.0% | 157.0hPa | 0V | 00:00:00 | 00:00:00 | 00:00:00 | |
| PU1XMG-16 | 2026-09-01 00:13:18 | -22.81451 | -42.86535 | 71° | 106km/h | 13945m | 4.6m/s | -59.3°C | 5.2% | 157.7hPa | 0V | 00:00:00 | 00:00:00 | 00:00:00 | |
| PU1XMG-16 | 2026-09-01 00:13:12 | -22.81499 | -42.86673 | 70° | 108km/h | 13921m | 4.2m/s | -59.2°C | 5.2% | 158.2hPa | 0V | 00:00:00 | 00:00:00 | 00:00:00 | |
| PU1XMG-16 | 2026-09-01 00:13:06 | -22.81558 | -42.86843 | 73° | 111km/h | 13892m | 4.3m/s | -59.0°C | 5.2% | 158.9hPa | 0V | 00:00:00 | 00:00:00 | 00:00:00 | |
| PU1XMG-16 | 2026-09-01 00:13:01 | -22.81601 | -42.86988 | 72° | 111km/h | 13870m | 5.3m/s | -58.8°C | 5.3% | 159.6hPa | 0V | 00:00:00 | 00:00:00 | 00:00:00 | |
| PU1XMG-16 | 2026-09-01 00:12:55 | -22.81659 | -42.87154 | 70° | 104km/h | 13839m | 3.2m/s | -58.6°C | 5.4% | 160.3hPa | 0V | 00:00:00 | 00:00:00 | 00:00:00 | |
| PU1XMG-16 | 2026-09-01 00:12:50 | -22.81705 | -42.87291 | 71° | 106km/h | 13814m | 4.5m/s | -58.4°C | 5.5% | 160.9hPa | 0V | 00:00:00 | 00:00:00 | 00:00:00 | |
| PU1XMG-16 | 2026-09-01 00:12:45 | -22.81754 | -42.87429 | 69° | 108km/h | 13789m | 6.4m/s | -58.3°C | 5.5% | 161.6hPa | 0V | 00:00:00 | 00:00:00 | 00:00:00 | |
| PU1XMG-16 | 2026-09-01 00:12:39 | -22.81814 | -42.87593 | 70° | 106km/h | 13758m | 6.8m/s | -58.1°C | 5.6% | 162.3hPa | 0V | 00:00:00 | 00:00:00 | 00:00:00 | |
| PU1XMG-16 | 2026-09-01 00:12:33 | -22.81876 | -42.87756 | 68° | 108km/h | 13727m | 3.4m/s | -58.1°C | 5.9% | 163.2hPa | 0V | 00:00:00 | 00:00:00 | 00:00:00 | |
| PU1XMG-16 | 2026-09-01 00:12:28 | -22.81932 | -42.87890 | 66° | 108km/h | 13702m | 6.4m/s | -58.0°C | 6.1% | 163.8hPa | 0V | 00:00:00 | 00:00:00 | 00:00:00 | |
| PU1XMG-16 | 2026-09-01 00:12:23 | -22.82002 | -42.88047 | 64° | 104km/h | 13672m | 3.6m/s | -57.7°C | 6.0% | 164.6hPa | 0V | 00:00:00 | 00:00:00 | 00:00:00 | |
| PU1XMG-16 | 2026-09-01 00:12:18 | -22.82060 | -42.88173 | 66° | 102km/h | 13647m | 5.4m/s | -57.6°C | 5.9% | 165.2hPa | 0V | 00:00:00 | 00:00:00 | 00:00:00 | |
| PU1XMG-16 | 2026-09-01 00:12:13 | -22.82114 | -42.88302 | 67° | 104km/h | 13622m | 4.5m/s | -57.5°C | 5.9% | 165.9hPa | 0V | 00:00:00 | 00:00:00 | 00:00:00 | |
| PU1XMG-16 | 2026-09-01 00:12:06 | -22.82185 | -42.88459 | 64° | 106km/h | 13592m | 4.5m/s | -57.2°C | 6.0% | 166.7hPa | 0V | 00:00:00 | 00:00:00 | 00:00:00 | |
| PU1XMG-16 | 2026-09-01 00:12:01 | -22.82255 | -42.88614 | 65° | 102km/h | 13561m | 5.8m/s | -56.9°C | 6.0% | 167.6hPa | 0V | 00:00:00 | 00:00:00 | 00:00:00 | |
| PU1XMG-16 | 2026-09-01 00:11:56 | -22.82314 | -42.88738 | 64° | 102km/h | 13535m | 4.9m/s | -56.7°C | 6.0% | 168.2hPa | 0V | 00:00:00 | 00:00:00 | 00:00:00 | |
| PU1XMG-16 | 2026-09-01 00:11:51 | -22.82373 | -42.88867 | 65° | 106km/h | 13509m | 6.5m/s | -56.5°C | 6.2% | 168.9hPa | 0V | 00:00:00 | 00:00:00 | 00:00:00 | |
| PU1XMG-16 | 2026-09-01 00:11:44 | -22.82446 | -42.89016 | 62° | 104km/h | 13480m | 4.5m/s | -56.2°C | 6.3% | 169.7hPa | 0V | 00:00:00 | 00:00:00 | 00:00:00 | |
| PU1XMG-16 | 2026-09-01 00:11:38 | -22.82519 | -42.89166 | 64° | 102km/h | 13447m | 4.9m/s | -56.0°C | 6.7% | 170.6hPa | 0V | 00:00:00 | 00:00:00 | 00:00:00 | |
| PU1XMG-16 | 2026-09-01 00:11:34 | -22.82581 | -42.89292 | 62° | 104km/h | 13420m | 5.5m/s | -55.8°C | 7.2% | 171.2hPa | 0V | 00:00:00 | 00:00:00 | 00:00:00 | |
| PU1XMG-16 | 2026-09-01 00:11:28 | -22.82657 | -42.89440 | 64° | 104km/h | 13390m | 2.9m/s | -55.6°C | 7.9% | 172.1hPa | 0V | 00:00:00 | 00:00:00 | 00:00:00 | |
| PU1XMG-16 | 2026-09-01 00:11:20 | -22.82740 | -42.89623 | 63° | 104km/h | 13355m | 6.6m/s | -55.4°C | 8.9% | 173.1hPa | 0V | 00:00:00 | 00:00:00 | 00:00:00 | |
| PU1XMG-16 | 2026-09-01 00:11:15 | -22.82809 | -42.89748 | 60° | 110km/h | 13327m | 6.1m/s | -55.2°C | 10.0% | 173.8hPa | 0V | 00:00:00 | 00:00:00 | 00:00:00 | |
| PU1XMG-16 | 2026-09-01 00:11:05 | -22.82966 | -42.90040 | 62° | 117km/h | 13260m | 6.3m/s | -55.0°C | 14.0% | 175.6hPa | 0V | 00:00:00 | 00:00:00 | 00:00:00 | |
| PU1XMG-16 | 2026-09-01 00:10:55 | -22.83092 | -42.90284 | 63° | 115km/h | 13216m | 5.1m/s | -55.2°C | 10.9% | 176.8hPa | 0V | 00:00:00 | 00:00:00 | 00:00:00 | |
| PU1XMG-16 | 2026-09-01 00:10:49 | -22.83179 | -42.90462 | 63° | 126km/h | 13178m | 8.4m/s | -55.0°C | 8.0% | 177.9hPa | 0V | 00:00:00 | 00:00:00 | 00:00:00 | |
| PU1XMG-16 | 2026-09-01 00:10:44 | -22.83256 | -42.90619 | 63° | 131km/h | 13152m | 5.4m/s | -54.8°C | 6.8% | 178.7hPa | 0V | 00:00:00 | 00:00:00 | 00:00:00 | |
| PU1XMG-16 | 2026-09-01 00:10:40 | -22.83333 | -42.90775 | 63° | 131km/h | 13125m | 5.4m/s | -54.7°C | 6.2% | 179.4hPa | 0V | 00:00:00 | 00:00:00 | 00:00:00 | |
| PU1XMG-16 | 2026-09-01 00:10:35 | -22.83416 | -42.90937 | 61° | 137km/h | 13098m | 6.3m/s | -54.7°C | 6.0% | 180.1hPa | 0V | 00:00:00 | 00:00:00 | 00:00:00 | |
| PU1XMG-16 | 2026-09-01 00:10:28 | -22.83519 | -42.91134 | 61° | 141km/h | 13070m | 5.5m/s | -54.5°C | 6.2% | 180.9hPa | 0V | 00:00:00 | 00:00:00 | 00:00:00 | |
| PU1XMG-16 | 2026-09-01 00:10:22 | -22.83625 | -42.91332 | 61° | 137km/h | 13041m | 3.6m/s | -54.3°C | 6.4% | 181.7hPa | 0V | 00:00:00 | 00:00:00 | 00:00:00 | |
| PU1XMG-16 | 2026-09-01 00:10:17 | -22.83730 | -42.91527 | 60° | 141km/h | 13012m | 4.4m/s | -54.0°C | 6.8% | 182.5hPa | 0V | 00:00:00 | 00:00:00 | 00:00:00 | |
| PU1XMG-16 | 2026-09-01 00:10:12 | -22.83822 | -42.91697 | 61° | 144km/h | 12985m | 6.0m/s | -53.8°C | 7.4% | 183.2hPa | 0V | 00:00:00 | 00:00:00 | 00:00:00 | |
| PU1XMG-16 | 2026-09-01 00:10:06 | -22.83909 | -42.91868 | 64° | 141km/h | 12961m | 4.7m/s | -53.6°C | 8.2% | 184.0hPa | 0V | 00:00:00 | 00:00:00 | 00:00:00 | |
| PU1XMG-16 | 2026-09-01 00:10:00 | -22.84015 | -42.92071 | 60° | 142km/h | 12932m | 6.4m/s | -53.5°C | 9.4% | 184.8hPa | 0V | 00:00:00 | 00:00:00 | 00:00:00 | |
| PU1XMG-16 | 2026-09-01 00:09:55 | -22.84105 | -42.92238 | 62° | 139km/h | 12909m | 5.1m/s | -53.4°C | 11.9% | 185.5hPa | 0V | 00:00:00 | 00:00:00 | 00:00:00 | |
| PU1XMG-16 | 2026-09-01 00:09:49 | -22.84203 | -42.92445 | 63° | 142km/h | 12883m | 5.2m/s | -53.2°C | 16.9% | 186.3hPa | 0V | 00:00:00 | 00:00:00 | 00:00:00 | |
| PU1XMG-16 | 2026-09-01 00:09:41 | -22.84364 | -42.92701 | 56° | 133km/h | 12842m | 5.8m/s | -53.5°C | 17.8% | 187.4hPa | 0V | 00:00:00 | 00:00:00 | 00:00:00 | |
| PU1XMG-16 | 2026-09-01 00:09:37 | -22.84434 | -42.92847 | 67° | 120km/h | 12798m | 11.4m/s | -53.8°C | 10.5% | 188.7hPa | 0V | 00:00:00 | 00:00:00 | 00:00:00 | |
| PU1XMG-16 | 2026-09-01 00:09:30 | -22.84514 | -42.93040 | 68° | 126km/h | 12760m | 4.9m/s | -53.7°C | 10.3% | 189.8hPa | 0V | 00:00:00 | 00:00:00 | 00:00:00 | |
| PU1XMG-16 | 2026-09-01 00:09:24 | -22.84584 | -42.93225 | 69° | 124km/h | 12731m | 5.4m/s | -53.5°C | 9.8% | 190.7hPa | 0V | 00:00:00 | 00:00:00 | 00:00:00 | |
| PU1XMG-16 | 2026-09-01 00:09:18 | -22.84660 | -42.93415 | 68° | 122km/h | 12703m | 4.5m/s | -53.3°C | 9.0% | 191.5hPa | 0V | 00:00:00 | 00:00:00 | 00:00:00 | |
| PU1XMG-16 | 2026-09-01 00:09:14 | -22.84716 | -42.93568 | 71° | 122km/h | 12678m | 6.0m/s | -53.1°C | 9.0% | 192.3hPa | 0V | 00:00:00 | 00:00:00 | 00:00:00 | |
| PU1XMG-16 | 2026-09-01 00:09:08 | -22.84791 | -42.93763 | 67° | 131km/h | 12648m | 6.0m/s | -52.9°C | 9.0% | 193.2hPa | 0V | 00:00:00 | 00:00:00 | 00:00:00 | |
| PU1XMG-16 | 2026-09-01 00:09:02 | -22.84873 | -42.93958 | 66° | 131km/h | 12616m | 3.8m/s | -52.9°C | 9.1% | 194.2hPa | 0V | 00:00:00 | 00:00:00 | 00:00:00 | |
| PU1XMG-16 | 2026-09-01 00:08:57 | -22.84940 | -42.94123 | 68° | 133km/h | 12590m | 6.8m/s | -52.7°C | 9.0% | 195.0hPa | 0V | 00:00:00 | 00:00:00 | 00:00:00 | |
| PU1XMG-16 | 2026-09-01 00:08:51 | -22.85010 | -42.94292 | 66° | 137km/h | 12562m | 5.1m/s | -52.5°C | 9.3% | 195.8hPa | 0V | 00:00:00 | 00:00:00 | 00:00:00 | |
| PU1XMG-16 | 2026-09-01 00:08:46 | -22.85096 | -42.94493 | 67° | 133km/h | 12533m | 5.8m/s | -52.3°C | 9.1% | 196.6hPa | 0V | 00:00:00 | 00:00:00 | 00:00:00 | |
| PU1XMG-16 | 2026-09-01 00:08:40 | -22.85177 | -42.94697 | 68° | 137km/h | 12501m | 5.3m/s | -52.1°C | 9.1% | 197.6hPa | 0V | 00:00:00 | 00:00:00 | 00:00:00 | |
| PU1XMG-16 | 2026-09-01 00:08:33 | -22.85263 | -42.94899 | 66° | 133km/h | 12471m | 4.3m/s | -51.9°C | 9.3% | 198.5hPa | 0V | 00:00:00 | 00:00:00 | 00:00:00 | |
| PU1XMG-16 | 2026-09-01 00:08:27 | -22.85344 | -42.95102 | 69° | 135km/h | 12441m | 5.8m/s | -51.6°C | 9.5% | 199.4hPa | 0V | 00:00:00 | 00:00:00 | 00:00:00 | |
| PU1XMG-16 | 2026-09-01 00:08:23 | -22.85412 | -42.95275 | 67° | 137km/h | 12415m | 4.3m/s | -51.5°C | 9.9% | 200.1hPa | 0V | 00:00:00 | 00:00:00 | 00:00:00 | |
| PU1XMG-16 | 2026-09-01 00:08:17 | -22.85485 | -42.95444 | 67° | 133km/h | 12392m | 5.1m/s | -51.3°C | 10.8% | 200.8hPa | 0V | 00:00:00 | 00:00:00 | 00:00:00 | |
| PU1XMG-16 | 2026-09-01 00:08:12 | -22.85564 | -42.95647 | 69° | 135km/h | 12366m | 8.4m/s | -51.1°C | 12.3% | 201.7hPa | 0V | 00:00:00 | 00:00:00 | 00:00:00 | |
| PU1XMG-16 | 2026-09-01 00:08:07 | -22.85630 | -42.95817 | 68° | 133km/h | 12342m | 6.2m/s | -50.9°C | 14.7% | 202.5hPa | 0V | 00:00:00 | 00:00:00 | 00:00:00 | |
| PU1XMG-16 | 2026-09-01 00:08:00 | -22.85708 | -42.96017 | 68° | 131km/h | 12311m | 6.4m/s | -50.8°C | 20.0% | 203.4hPa | 0V | 00:00:00 | 00:00:00 | 00:00:00 | |
| PU1XMG-16 | 2026-09-01 00:07:56 | -22.85773 | -42.96182 | 68° | 130km/h | 12288m | 4.5m/s | -50.7°C | 25.1% | 204.1hPa | 0V | 00:00:00 | 00:00:00 | 00:00:00 | |
| PU1XMG-16 | 2026-09-01 00:07:51 | -22.85837 | -42.96345 | 68° | 128km/h | 12264m | 5.5m/s | -50.5°C | 30.1% | 204.8hPa | 0V | 00:00:00 | 00:00:00 | 00:00:00 | |
| PU1XMG-16 | 2026-09-01 00:07:44 | -22.85908 | -42.96537 | 69° | 124km/h | 12235m | 3.8m/s | -50.4°C | 35.4% | 205.8hPa | 0V | 00:00:00 | 00:00:00 | 00:00:00 | |
| PU1XMG-16 | 2026-09-01 00:07:39 | -22.85977 | -42.96723 | 70° | 120km/h | 12204m | 5.1m/s | -50.2°C | 38.3% | 206.8hPa | 0V | 00:00:00 | 00:00:00 | 00:00:00 | |
| PU1XMG-16 | 2026-09-01 00:07:34 | -22.86031 | -42.96878 | 71° | 120km/h | 12177m | 6.5m/s | -50.0°C | 39.8% | 207.6hPa | 0V | 00:00:00 | 00:00:00 | 00:00:00 | |
| PU1XMG-16 | 2026-09-01 00:07:28 | -22.86083 | -42.97031 | 71° | 120km/h | 12151m | 5.5m/s | -49.9°C | 41.5% | 208.4hPa | 0V | 00:00:00 | 00:00:00 | 00:00:00 | |
| PU1XMG-16 | 2026-09-01 00:07:23 | -22.86145 | -42.97214 | 72° | 115km/h | 12123m | 6.2m/s | -49.7°C | 44.1% | 209.3hPa | 0V | 00:00:00 | 00:00:00 | 00:00:00 | |
| PU1XMG-16 | 2026-09-01 00:07:16 | -22.86197 | -42.97391 | 73° | 113km/h | 12092m | 5.9m/s | -49.5°C | 46.8% | 210.3hPa | 0V | 00:00:00 | 00:00:00 | 00:00:00 | |
| PU1XMG-16 | 2026-09-01 00:07:11 | -22.86253 | -42.97568 | 73° | 115km/h | 12065m | 4.3m/s | -49.4°C | 47.6% | 211.2hPa | 0V | 00:00:00 | 00:00:00 | 00:00:00 | |
| PU1XMG-16 | 2026-09-01 00:07:05 | -22.86303 | -42.97743 | 77° | 106km/h | 12034m | 6.8m/s | -49.3°C | 52.2% | 212.2hPa | 0V | 00:00:00 | 00:00:00 | 00:00:00 | |
| PU1XMG-16 | 2026-09-01 00:07:00 | -22.86332 | -42.97882 | 78° | 102km/h | 12008m | 3.8m/s | -49.0°C | 51.8% | 213.0hPa | 0V | 00:00:00 | 00:00:00 | 00:00:00 | |
| PU1XMG-16 | 2026-09-01 00:06:55 | -22.86365 | -42.98019 | 77° | 108km/h | 11981m | 6.7m/s | -48.8°C | 50.7% | 213.9hPa | 0V | 00:00:00 | 00:00:00 | 00:00:00 | |
| PU1XMG-16 | 2026-09-01 00:06:48 | -22.86396 | -42.98193 | 82° | 108km/h | 11949m | 5.8m/s | -48.5°C | 51.6% | 214.9hPa | 0V | 00:00:00 | 00:00:00 | 00:00:00 | |
| PU1XMG-16 | 2026-09-01 00:06:44 | -22.86416 | -42.98338 | 81° | 106km/h | 11925m | 3.7m/s | -48.3°C | 52.5% | 215.8hPa | 0V | 00:00:00 | 00:00:00 | 00:00:00 | |
| PU1XMG-16 | 2026-09-01 00:06:37 | -22.86443 | -42.98512 | 81° | 108km/h | 11894m | 4.8m/s | -48.1°C | 54.0% | 216.7hPa | 0V | 00:00:00 | 00:00:00 | 00:00:00 | |
| PU1XMG-16 | 2026-09-01 00:06:31 | -22.86472 | -42.98681 | 80° | 102km/h | 11863m | 5.4m/s | -47.8°C | 56.0% | 217.8hPa | 0V | 00:00:00 | 00:00:00 | 00:00:00 | |
| PU1XMG-16 | 2026-09-01 00:06:25 | -22.86498 | -42.98850 | 82° | 106km/h | 11834m | 3.0m/s | -47.6°C | 57.9% | 218.8hPa | 0V | 00:00:00 | 00:00:00 | 00:00:00 | |
| PU1XMG-16 | 2026-09-01 00:06:21 | -22.86519 | -42.98993 | 82° | 104km/h | 11809m | 4.4m/s | -47.5°C | 58.0% | 219.6hPa | 0V | 00:00:00 | 00:00:00 | 00:00:00 | |
| PU1XMG-16 | 2026-09-01 00:06:15 | -22.86544 | -42.99161 | 82° | 104km/h | 11781m | 3.5m/s | -47.3°C | 58.9% | 220.5hPa | 0V | 00:00:00 | 00:00:00 | 00:00:00 | |
| PU1XMG-16 | 2026-09-01 00:06:08 | -22.86563 | -42.99332 | 85° | 108km/h | 11749m | 4.8m/s | -47.0°C | 57.8% | 221.6hPa | 0V | 00:00:00 | 00:00:00 | 00:00:00 | |
| PU1XMG-16 | 2026-09-01 00:06:04 | -22.86577 | -42.99479 | 86° | 108km/h | 11720m | 6.3m/s | -46.8°C | 58.3% | 222.4hPa | 0V | 00:00:00 | 00:00:00 | 00:00:00 | |
| PU1XMG-16 | 2026-09-01 00:05:59 | -22.86589 | -42.99624 | 85° | 104km/h | 11694m | 5.1m/s | -46.6°C | 59.4% | 223.4hPa | 0V | 00:00:00 | 00:00:00 | 00:00:00 | |
| PU1XMG-16 | 2026-09-01 00:05:52 | -22.86604 | -42.99797 | 85° | 108km/h | 11663m | 4.9m/s | -46.3°C | 60.3% | 224.4hPa | 0V | 00:00:00 | 00:00:00 | 00:00:00 | |
| PU1XMG-16 | 2026-09-01 00:05:47 | -22.86623 | -42.99970 | 85° | 102km/h | 11632m | 6.9m/s | -46.1°C | 60.7% | 225.4hPa | 0V | 00:00:00 | 00:00:00 | 00:00:00 | |
| PU1XMG-16 | 2026-09-01 00:05:42 | -22.86632 | -43.00110 | 87° | 102km/h | 11606m | 3.9m/s | -46.0°C | 62.4% | 226.3hPa | 0V | 00:00:00 | 00:00:00 | 00:00:00 | |
| PU1XMG-16 | 2026-09-01 00:05:37 | -22.86647 | -43.00281 | 84° | 102km/h | 11578m | 4.6m/s | -45.9°C | 64.6% | 227.4hPa | 0V | 00:00:00 | 00:00:00 | 00:00:00 | |
| PU1XMG-16 | 2026-09-01 00:05:31 | -22.86668 | -43.00426 | 83° | 110km/h | 11550m | 4.2m/s | -45.8°C | 64.7% | 228.2hPa | 0V | 00:00:00 | 00:00:00 | 00:00:00 | |
| PU1XMG-16 | 2026-09-01 00:05:25 | -22.86683 | -43.00602 | 86° | 102km/h | 11524m | 6.4m/s | -45.6°C | 66.9% | 229.2hPa | 0V | 00:00:00 | 00:00:00 | 00:00:00 | |
| PU1XMG-16 | 2026-09-01 00:05:21 | -22.86703 | -43.00746 | 80° | 108km/h | 11499m | 5.5m/s | -45.4°C | 64.1% | 230.0hPa | 0V | 00:00:00 | 00:00:00 | 00:00:00 | |
| PU1XMG-16 | 2026-09-01 00:05:14 | -22.86729 | -43.00913 | 87° | 97km/h | 11462m | 7.5m/s | -45.1°C | 64.5% | 231.3hPa | 0V | 00:00:00 | 00:00:00 | 00:00:00 | |
| PU1XMG-16 | 2026-09-01 00:05:08 | -22.86733 | -43.01058 | 84° | 88km/h | 11431m | 5.4m/s | -44.9°C | 67.9% | 232.4hPa | 0V | 00:00:00 | 00:00:00 | 00:00:00 | |
| PU1XMG-16 | 2026-09-01 00:04:58 | -22.86786 | -43.01313 | 83° | 88km/h | 11371m | 9.2m/s | -44.6°C | 65.0% | 234.4hPa | 0V | 00:00:00 | 00:00:00 | 00:00:00 | |
| PU1XMG-16 | 2026-09-01 00:04:53 | -22.86798 | -43.01457 | 86° | 89km/h | 11338m | 6.3m/s | -44.3°C | 66.2% | 235.6hPa | 0V | 00:00:00 | 00:00:00 | 00:00:00 | |
| PU1XMG-16 | 2026-09-01 00:04:48 | -22.86809 | -43.01602 | 89° | 86km/h | 11311m | 5.1m/s | -44.1°C | 68.9% | 236.6hPa | 0V | 00:00:00 | 00:00:00 | 00:00:00 | |
| PU1XMG-16 | 2026-09-01 00:04:41 | -22.86815 | -43.01725 | 86° | 86km/h | 11286m | 6.3m/s | -44.0°C | 67.4% | 237.5hPa | 0V | 00:00:00 | 00:00:00 | 00:00:00 | |
| PU1XMG-16 | 2026-09-01 00:04:36 | -22.86827 | -43.01834 | 88° | 75km/h | 11259m | 5.8m/s | -43.8°C | 69.1% | 238.5hPa | 0V | 00:00:00 | 00:00:00 | 00:00:00 | |
| PU1XMG-16 | 2026-09-01 00:04:31 | -22.86822 | -43.01979 | 97° | 93km/h | 11222m | 7.5m/s | -43.4°C | 68.5% | 239.7hPa | 0V | 00:00:00 | 00:00:00 | 00:00:00 | |
| PU1XMG-16 | 2026-09-01 00:04:23 | -22.86826 | -43.02121 | 90° | 82km/h | 11173m | 7.0m/s | -43.1°C | 69.8% | 241.4hPa | 0V | 00:00:00 | 00:00:00 | 00:00:00 | |
| PU1XMG-16 | 2026-09-01 00:04:18 | -22.86836 | -43.02244 | 84° | 77km/h | 11140m | 5.6m/s | -43.0°C | 67.9% | 242.6hPa | 0V | 00:00:00 | 00:00:00 | 00:00:00 | |
| PU1XMG-16 | 2026-09-01 00:04:11 | -22.86837 | -43.02381 | 93° | 91km/h | 11105m | 6.8m/s | -42.7°C | 66.9% | 243.8hPa | 0V | 00:00:00 | 00:00:00 | 00:00:00 | |
| PU1XMG-16 | 2026-09-01 00:04:05 | -22.86829 | -43.02520 | 93° | 82km/h | 11074m | 3.9m/s | -42.4°C | 68.0% | 245.0hPa | 0V | 00:00:00 | 00:00:00 | 00:00:00 | |
| PU1XMG-16 | 2026-09-01 00:04:00 | -22.86818 | -43.02634 | 101° | 84km/h | 11045m | 8.1m/s | -42.3°C | 68.0% | 246.0hPa | 0V | 00:00:00 | 00:00:00 | 00:00:00 | |
| PU1XMG-16 | 2026-09-01 00:03:55 | -22.86802 | -43.02762 | 93° | 75km/h | 11011m | 7.8m/s | -42.0°C | 68.6% | 247.3hPa | 0V | 00:00:00 | 00:00:00 | 00:00:00 | |
| PU1XMG-16 | 2026-09-01 00:03:51 | -22.86796 | -43.02868 | 94° | 77km/h | 10981m | 7.0m/s | -41.8°C | 68.9% | 248.4hPa | 0V | 00:00:00 | 00:00:00 | 00:00:00 | |
| PU1XMG-16 | 2026-09-01 00:03:48 | -22.86786 | -43.02988 | 97° | 71km/h | 10947m | 7.4m/s | -41.5°C | 68.5% | 249.7hPa | 0V | 00:00:00 | 00:00:00 | 00:00:00 | |
| PU1XMG-16 | 2026-09-01 00:03:43 | -22.86772 | -43.03112 | 101° | 78km/h | 10912m | 7.7m/s | -41.1°C | 67.8% | 250.8hPa | 0V | 00:00:00 | 00:00:00 | 00:00:00 | |
| PU1XMG-16 | 2026-09-01 00:03:41 | -22.86754 | -43.03230 | 100° | 71km/h | 10880m | 4.4m/s | -40.9°C | 69.0% | 252.1hPa | 0V | 00:00:00 | 00:00:00 | 00:00:00 | |
| PU1XMG-16 | 2026-09-01 00:03:38 | -22.86741 | -43.03332 | 100° | 77km/h | 10855m | 5.3m/s | -40.8°C | 68.7% | 253.0hPa | 0V | 00:00:00 | 00:00:00 | 00:00:00 | |
| PU1XMG-16 | 2026-09-01 00:03:35 | -22.86725 | -43.03451 | 99° | 69km/h | 10822m | 6.1m/s | -40.5°C | 67.9% | 254.3hPa | 0V | 00:00:00 | 00:00:00 | 00:00:00 | |
| PU1XMG-16 | 2026-09-01 00:03:33 | -22.86713 | -43.03549 | 98° | 73km/h | 10798m | 6.0m/s | -40.3°C | 67.8% | 255.2hPa | 0V | 00:00:00 | 00:00:00 | 00:00:00 | |
| PU1XMG-16 | 2026-09-01 00:03:28 | -22.86701 | -43.03662 | 95° | 64km/h | 10766m | 5.9m/s | -40.0°C | 68.5% | 256.4hPa | 0V | 00:00:00 | 00:00:00 | 00:00:00 | |
| PU1XMG-16 | 2026-09-01 00:03:24 | -22.86691 | -43.03770 | 98° | 69km/h | 10733m | 4.6m/s | -39.7°C | 68.4% | 257.6hPa | 0V | 00:00:00 | 00:00:00 | 00:00:00 | |
| PU1XMG-16 | 2026-09-01 00:03:18 | -22.86681 | -43.03863 | 97° | 68km/h | 10709m | 6.6m/s | -39.5°C | 68.2% | 258.5hPa | 0V | 00:00:00 | 00:00:00 | 00:00:00 | |
| PU1XMG-16 | 2026-09-01 00:03:14 | -22.86672 | -43.03958 | 97° | 69km/h | 10681m | 3.8m/s | -39.4°C | 68.7% | 259.5hPa | 0V | 00:00:00 | 00:00:00 | 00:00:00 | |
| PU1XMG-16 | 2026-09-01 00:03:09 | -22.86658 | -43.04067 | 98° | 66km/h | 10652m | 3.2m/s | -39.2°C | 69.4% | 260.6hPa | 0V | 00:00:00 | 00:00:00 | 00:00:00 | |
| PU1XMG-16 | 2026-09-01 00:03:00 | -22.86650 | -43.04162 | 93° | 71km/h | 10628m | 5.8m/s | -38.9°C | 69.3% | 261.5hPa | 0V | 00:00:00 | 00:00:00 | 00:00:00 | |
| PU1XMG-16 | 2026-09-01 00:02:48 | -22.86647 | -43.04273 | 95° | 64km/h | 10595m | 6.5m/s | -38.7°C | 69.2% | 262.7hPa | 0V | 00:00:00 | 00:00:00 | 00:00:00 | |
| PU1XMG-16 | 2026-09-01 00:02:45 | -22.86640 | -43.04360 | 97° | 64km/h | 10569m | 5.0m/s | -38.5°C | 68.9% | 263.8hPa | 0V | 00:00:00 | 00:00:00 | 00:00:00 | |
| PU1XMG-16 | 2026-09-01 00:02:34 | -22.86634 | -43.04465 | 91° | 62km/h | 10538m | 4.2m/s | -38.2°C | 69.1% | 264.9hPa | 0V | 00:00:00 | 00:00:00 | 00:00:00 | |
| PU1XMG-16 | 2026-09-01 00:02:27 | -22.86634 | -43.04551 | 92° | 64km/h | 10514m | 5.9m/s | -38.1°C | 69.3% | 265.9hPa | 0V | 00:00:00 | 00:00:00 | 00:00:00 | |
| PU1XMG-16 | 2026-09-01 00:02:17 | -22.86629 | -43.04656 | 94° | 66km/h | 10483m | 4.9m/s | -37.8°C | 70.0% | 267.1hPa | 0V | 00:00:00 | 00:00:00 | 00:00:00 | |
| PU1XMG-16 | 2026-09-01 00:02:13 | -22.86628 | -43.04745 | 91° | 66km/h | 10459m | 4.3m/s | -37.6°C | 69.8% | 268.0hPa | 0V | 00:00:00 | 00:00:00 | 00:00:00 | |
| PU1XMG-16 | 2026-09-01 00:02:04 | -22.86626 | -43.04853 | 92° | 66km/h | 10429m | 4.9m/s | -37.4°C | 70.1% | 269.2hPa | 0V | 00:00:00 | 00:00:00 | 00:00:00 | |
| PU1XMG-16 | 2026-09-01 00:01:58 | -22.86629 | -43.05267 | 92° | 69km/h | 10318m | 4.8m/s | -36.5°C | 71.1% | 273.6hPa | 0V | 00:00:00 | 00:00:00 | 00:00:00 | |
| PU1XMG-16 | 2026-09-01 00:01:48 | -22.86630 | -43.05365 | 90° | 71km/h | 10292m | 6.4m/s | -36.3°C | 70.1% | 274.5hPa | 0V | 00:00:00 | 00:00:00 | 00:00:00 | |
| PU1XMG-16 | 2026-09-01 00:01:40 | -22.86632 | -43.05484 | 89° | 71km/h | 10262m | 6.2m/s | -36.1°C | 70.4% | 275.8hPa | 0V | 00:00:00 | 00:00:00 | 00:00:00 | |
| PU1XMG-16 | 2026-09-01 00:01:34 | -22.86636 | -43.05592 | 90° | 66km/h | 10233m | 3.9m/s | -35.9°C | 70.7% | 276.9hPa | 0V | 00:00:00 | 00:00:00 | 00:00:00 | |
| PU1XMG-16 | 2026-09-01 00:01:26 | -22.86638 | -43.05682 | 89° | 66km/h | 10207m | 4.8m/s | -35.7°C | 70.4% | 277.9hPa | 0V | 00:00:00 | 00:00:00 | 00:00:00 | |
| PU1XMG-16 | 2026-09-01 00:01:20 | -22.86640 | -43.05774 | 91° | 69km/h | 10184m | 5.7m/s | -35.6°C | 71.8% | 278.9hPa | 0V | 00:00:00 | 00:00:00 | 00:00:00 | |
| PU1XMG-16 | 2026-09-01 00:01:12 | -22.86638 | -43.05885 | 90° | 64km/h | 10156m | 4.6m/s | -35.4°C | 73.1% | 280.0hPa | 0V | 00:00:00 | 00:00:00 | 00:00:00 | |
| PU1XMG-16 | 2026-09-01 00:01:05 | -22.86639 | -43.05977 | 90° | 68km/h | 10129m | 5.3m/s | -35.1°C | 73.0% | 281.0hPa | 0V | 00:00:00 | 00:00:00 | 00:00:00 | |
| PU1XMG-16 | 2026-09-01 00:00:58 | -22.86643 | -43.06211 | 85° | 71km/h | 10065m | 4.5m/s | -34.6°C | 72.5% | 283.5hPa | 0V | 00:00:00 | 00:00:00 | 00:00:00 | |
| PU1XMG-16 | 2026-09-01 00:00:51 | -22.86651 | -43.06307 | 89° | 71km/h | 10043m | 4.3m/s | -34.4°C | 73.4% | 284.5hPa | 0V | 00:00:00 | 00:00:00 | 00:00:00 | |
| PU1XMG-16 | 2026-09-01 00:00:43 | -22.86654 | -43.06407 | 89° | 71km/h | 10018m | 5.1m/s | -34.3°C | 73.5% | 285.6hPa | 0V | 00:00:00 | 00:00:00 | 00:00:00 | |
| PU1XMG-16 | 2026-09-01 00:00:37 | -22.86654 | -43.06526 | 92° | 77km/h | 9990m | 7.4m/s | -34.1°C | 73.3% | 286.7hPa | 0V | 00:00:00 | 00:00:00 | 00:00:00 | |
| PU1XMG-16 | 2026-09-01 00:00:32 | -22.86657 | -43.06626 | 88° | 69km/h | 9962m | 5.9m/s | -34.0°C | 74.0% | 287.7hPa | 0V | 00:00:00 | 00:00:00 | 00:00:00 | |
| PU1XMG-16 | 2026-09-01 00:00:28 | -22.86664 | -43.06754 | 87° | 68km/h | 9925m | 5.1m/s | -33.7°C | 75.5% | 289.2hPa | 0V | 00:00:00 | 00:00:00 | 00:00:00 | |
| PU1XMG-16 | 2026-08-31 23:59:38 | -22.86655 | -43.07553 | 95° | 69km/h | 9676m | 7.9m/s | -31.7°C | 76.8% | 299.8hPa | 0V | 00:00:00 | 00:00:00 | 00:00:00 | |
| PU1XMG-16 | 2026-08-31 23:59:30 | -22.86642 | -43.07708 | 103° | 55km/h | 9631m | 6.0m/s | -31.3°C | 76.7% | 301.7hPa | 0V | 00:00:00 | 00:00:00 | 00:00:00 | |
| PU1XMG-16 | 2026-08-31 23:59:25 | -22.86628 | -43.07789 | 95° | 57km/h | 9595m | 9.4m/s | -31.0°C | 75.7% | 303.2hPa | 0V | 00:00:00 | 00:00:00 | 00:00:00 | |
| PU1XMG-16 | 2026-08-31 23:59:19 | -22.86634 | -43.07871 | 95° | 51km/h | 9558m | 5.8m/s | -30.8°C | 78.1% | 304.9hPa | 0V | 00:00:00 | 00:00:00 | 00:00:00 | |
| PU1XMG-16 | 2026-08-31 23:59:13 | -22.86618 | -43.07967 | 102° | 49km/h | 9517m | 8.3m/s | -30.5°C | 77.3% | 306.6hPa | 0V | 00:00:00 | 00:00:00 | 00:00:00 | |
| PU1XMG-16 | 2026-08-31 23:59:08 | -22.86608 | -43.08051 | 109° | 66km/h | 9478m | 9.0m/s | -30.2°C | 77.0% | 308.2hPa | 0V | 00:00:00 | 00:00:00 | 00:00:00 | |
| PU1XMG-16 | 2026-08-31 23:59:02 | -22.86602 | -43.08164 | 81° | 71km/h | 9442m | 6.0m/s | -30.0°C | 77.4% | 309.7hPa | 0V | 00:00:00 | 00:00:00 | 00:00:00 | |
| PU1XMG-16 | 2026-08-31 23:58:54 | -22.86590 | -43.08288 | 99° | 75km/h | 9391m | 6.7m/s | -29.6°C | 77.3% | 312.0hPa | 0V | 00:00:00 | 00:00:00 | 00:00:00 | |
| PU1XMG-16 | 2026-08-31 23:58:49 | -22.86588 | -43.08390 | 85° | 68km/h | 9359m | 5.7m/s | -29.4°C | 77.4% | 313.4hPa | 0V | 00:00:00 | 00:00:00 | 00:00:00 | |
| PU1XMG-16 | 2026-08-31 23:58:43 | -22.86589 | -43.08489 | 89° | 58km/h | 9317m | 4.7m/s | -29.1°C | 77.0% | 315.2hPa | 0V | 00:00:00 | 00:00:00 | 00:00:00 | |
| PU1XMG-16 | 2026-08-31 23:58:37 | -22.86591 | -43.08586 | 90° | 69km/h | 9283m | 4.2m/s | -28.9°C | 77.1% | 316.8hPa | 0V | 00:00:00 | 00:00:00 | 00:00:00 | |
| PU1XMG-16 | 2026-08-31 23:58:32 | -22.86586 | -43.08681 | 92° | 69km/h | 9252m | 8.0m/s | -28.7°C | 77.5% | 318.1hPa | 0V | 00:00:00 | 00:00:00 | 00:00:00 | |
| PU1XMG-16 | 2026-08-31 23:58:27 | -22.86587 | -43.08772 | 101° | 68km/h | 9221m | 4.2m/s | -28.5°C | 78.6% | 319.6hPa | 0V | 00:00:00 | 00:00:00 | 00:00:00 | |
| PU1XMG-16 | 2026-08-31 23:58:21 | -22.86575 | -43.08894 | 95° | 69km/h | 9176m | 8.8m/s | -28.2°C | 79.1% | 321.6hPa | 0V | 00:00:00 | 00:00:00 | 00:00:00 | |
| PU1XMG-16 | 2026-08-31 23:58:16 | -22.86577 | -43.08989 | 83° | 69km/h | 9137m | 5.7m/s | -27.9°C | 78.6% | 323.3hPa | 0V | 00:00:00 | 00:00:00 | 00:00:00 | |
| PU1XMG-16 | 2026-08-31 23:58:10 | -22.86581 | -43.09100 | 89° | 57km/h | 9100m | 8.0m/s | -27.8°C | 81.0% | 325.1hPa | 0V | 00:00:00 | 00:00:00 | 00:00:00 | |
| PU1XMG-16 | 2026-08-31 23:58:03 | -22.86571 | -43.09200 | 110° | 53km/h | 9059m | 8.9m/s | -27.5°C | 80.1% | 326.9hPa | 0V | 00:00:00 | 00:00:00 | 00:00:00 | |
| PU1XMG-16 | 2026-08-31 23:57:58 | -22.86568 | -43.09266 | 87° | 62km/h | 9025m | 7.1m/s | -27.3°C | 79.3% | 328.4hPa | 0V | 00:00:00 | 00:00:00 | 00:00:00 | |
| PU1XMG-16 | 2026-08-31 23:57:52 | -22.86559 | -43.09370 | 102° | 47km/h | 8986m | 7.8m/s | -27.0°C | 78.8% | 330.1hPa | 0V | 00:00:00 | 00:00:00 | 00:00:00 | |
| PU1XMG-16 | 2026-08-31 23:57:47 | -22.86549 | -43.09427 | 89° | 51km/h | 8950m | 6.3m/s | -26.8°C | 79.4% | 331.7hPa | 0V | 00:00:00 | 00:00:00 | 00:00:00 | |
| PU1XMG-16 | 2026-08-31 23:57:42 | -22.86551 | -43.09509 | 94° | 53km/h | 8914m | 5.8m/s | -26.6°C | 79.6% | 333.2hPa | 0V | 00:00:00 | 00:00:00 | 00:00:00 | |
| PU1XMG-16 | 2026-08-31 23:57:37 | -22.86548 | -43.09601 | 102° | 60km/h | 8880m | 7.0m/s | -26.4°C | 80.1% | 335.0hPa | 0V | 00:00:00 | 00:00:00 | 00:00:00 | |
| PU1XMG-16 | 2026-08-31 23:57:30 | -22.86542 | -43.09668 | 110° | 35km/h | 8840m | 8.5m/s | -26.2°C | 81.5% | 336.8hPa | 0V | 00:00:00 | 00:00:00 | 00:00:00 | |
| PU1XMG-16 | 2026-08-31 23:57:25 | -22.86514 | -43.09718 | 110° | 42km/h | 8810m | 7.7m/s | -26.1°C | 82.9% | 338.2hPa | 0V | 00:00:00 | 00:00:00 | 00:00:00 | |
| PU1XMG-16 | 2026-08-31 23:57:19 | -22.86518 | -43.09788 | 100° | 37km/h | 8770m | 6.1m/s | -25.9°C | 85.3% | 340.2hPa | 0V | 00:00:00 | 00:00:00 | 00:00:00 | |
| PU1XMG-16 | 2026-08-31 23:57:14 | -22.86499 | -43.09846 | 106° | 47km/h | 8737m | 6.6m/s | -25.7°C | 88.1% | 341.8hPa | 0V | 00:00:00 | 00:00:00 | 00:00:00 | |
| PU1XMG-16 | 2026-08-31 23:57:08 | -22.86482 | -43.09921 | 87° | 47km/h | 8697m | 7.5m/s | -25.4°C | 87.2% | 343.6hPa | 0V | 00:00:00 | 00:00:00 | 00:00:00 | |
| PU1XMG-16 | 2026-08-31 23:57:03 | -22.86493 | -43.09964 | 103° | 16km/h | 8665m | 5.7m/s | -25.1°C | 86.9% | 345.1hPa | 0V | 00:00:00 | 00:00:00 | 00:00:00 | |
| PU1XMG-16 | 2026-08-31 23:56:57 | -22.86469 | -43.10003 | 111° | 42km/h | 8633m | 7.0m/s | -24.9°C | 85.7% | 346.6hPa | 0V | 00:00:00 | 00:00:00 | 00:00:00 | |
| PU1XMG-16 | 2026-08-31 23:56:52 | -22.86468 | -43.10056 | 80° | 27km/h | 8602m | 7.7m/s | -24.6°C | 85.4% | 348.0hPa | 0V | 00:00:00 | 00:00:00 | 00:00:00 | |
| PU1XMG-16 | 2026-08-31 23:56:46 | -22.86462 | -43.10101 | 89° | 35km/h | 8563m | 7.2m/s | -24.3°C | 85.7% | 349.9hPa | 0V | 00:00:00 | 00:00:00 | 00:00:00 | |
| PU1XMG-16 | 2026-08-31 23:56:41 | -22.86456 | -43.10155 | 96° | 47km/h | 8520m | 7.2m/s | -24.0°C | 86.2% | 352.0hPa | 0V | 00:00:00 | 00:00:00 | 00:00:00 | |
| PU1XMG-16 | 2026-08-31 23:56:35 | -22.86462 | -43.10210 | 87° | 26km/h | 8490m | 7.2m/s | -23.8°C | 85.7% | 353.4hPa | 0V | 00:00:00 | 00:00:00 | 00:00:00 | |
| PU1XMG-16 | 2026-08-31 23:56:29 | -22.86445 | -43.10264 | 96° | 51km/h | 8454m | 7.8m/s | -23.5°C | 85.1% | 355.0hPa | 0V | 00:00:00 | 00:00:00 | 00:00:00 | |
| PU1XMG-16 | 2026-08-31 23:56:24 | -22.86444 | -43.10327 | 114° | 31km/h | 8413m | 7.8m/s | -23.1°C | 85.9% | 356.9hPa | 0V | 00:00:00 | 00:00:00 | 00:00:00 | |
| PU1XMG-16 | 2026-08-31 23:56:18 | -22.86426 | -43.10375 | 105° | 29km/h | 8381m | 7.0m/s | -22.8°C | 86.6% | 358.5hPa | 0V | 00:00:00 | 00:00:00 | 00:00:00 | |
| PU1XMG-16 | 2026-08-31 23:56:13 | -22.86423 | -43.10410 | 109° | 37km/h | 8351m | 5.8m/s | -22.6°C | 86.1% | 360.1hPa | 0V | 00:00:00 | 00:00:00 | 00:00:00 | |
| PU1XMG-16 | 2026-08-31 23:56:07 | -22.86412 | -43.10456 | 81° | 22km/h | 8314m | 9.0m/s | -22.3°C | 82.7% | 362.0hPa | 0V | 00:00:00 | 00:00:00 | 00:00:00 | |
| PU1XMG-16 | 2026-08-31 23:56:01 | -22.86423 | -43.10505 | 74° | 27km/h | 8275m | 9.8m/s | -22.0°C | 81.1% | 363.9hPa | 0V | 00:00:00 | 00:00:00 | 00:00:00 | |
| PU1XMG-16 | 2026-08-31 23:55:55 | -22.86403 | -43.10553 | 103° | 44km/h | 8238m | 4.5m/s | -21.8°C | 83.2% | 365.9hPa | 0V | 00:00:00 | 00:00:00 | 00:00:00 | |
| PU1XMG-16 | 2026-08-31 23:55:49 | -22.86412 | -43.10616 | 76° | 20km/h | 8200m | 8.7m/s | -21.5°C | 83.4% | 367.6hPa | 0V | 00:00:00 | 00:00:00 | 00:00:00 | |
| PU1XMG-16 | 2026-08-31 23:55:44 | -22.86398 | -43.10656 | 101° | 46km/h | 8169m | 7.1m/s | -21.3°C | 85.1% | 369.2hPa | 0V | 00:00:00 | 00:00:00 | 00:00:00 | |
| PU1XMG-16 | 2026-08-31 23:55:38 | -22.86412 | -43.10720 | 83° | 29km/h | 8133m | 6.2m/s | -21.1°C | 86.5% | 370.8hPa | 0V | 00:00:00 | 00:00:00 | 00:00:00 | |
| PU1XMG-16 | 2026-08-31 23:55:33 | -22.86402 | -43.10764 | 100° | 33km/h | 8106m | 6.7m/s | -21.0°C | 87.3% | 372.3hPa | 0V | 00:00:00 | 00:00:00 | 00:00:00 | |
| PU1XMG-16 | 2026-08-31 23:55:28 | -22.86425 | -43.10814 | 48° | 31km/h | 8063m | 7.2m/s | -20.8°C | 87.3% | 374.2hPa | 0V | 00:00:00 | 00:00:00 | 00:00:00 | |
| PU1XMG-16 | 2026-08-31 23:55:23 | -22.86437 | -43.10845 | 104° | 27km/h | 8035m | 6.3m/s | -20.6°C | 87.4% | 375.6hPa | 0V | 00:00:00 | 00:00:00 | 00:00:00 | |
| PU1XMG-16 | 2026-08-31 23:55:16 | -22.86429 | -43.10906 | 76° | 47km/h | 8002m | 5.9m/s | -20.4°C | 89.0% | 377.5hPa | 0V | 00:00:00 | 00:00:00 | 00:00:00 | |
| PU1XMG-16 | 2026-08-31 23:55:11 | -22.86444 | -43.10968 | 90° | 40km/h | 7970m | 5.8m/s | -20.3°C | 91.2% | 379.1hPa | 0V | 00:00:00 | 00:00:00 | 00:00:00 | |
| PU1XMG-16 | 2026-08-31 23:55:06 | -22.86458 | -43.11045 | 72° | 60km/h | 7929m | 9.7m/s | -20.1°C | 89.8% | 381.1hPa | 0V | 00:00:00 | 00:00:00 | 00:00:00 | |
| PU1XMG-16 | 2026-08-31 23:54:59 | -22.86490 | -43.11123 | 80° | 51km/h | 7889m | 7.2m/s | -19.9°C | 89.9% | 383.3hPa | 0V | 00:00:00 | 00:00:00 | 00:00:00 | |
| PU1XMG-16 | 2026-08-31 23:54:54 | -22.86496 | -43.11183 | 82° | 42km/h | 7855m | 6.7m/s | -19.7°C | 88.1% | 385.0hPa | 0V | 00:00:00 | 00:00:00 | 00:00:00 | |
| PU1XMG-16 | 2026-08-31 23:54:50 | -22.86499 | -43.11251 | 83° | 49km/h | 7821m | 9.1m/s | -19.5°C | 87.4% | 386.8hPa | 0V | 00:00:00 | 00:00:00 | 00:00:00 | |
| PU1XMG-16 | 2026-08-31 23:54:43 | -22.86512 | -43.11330 | 79° | 37km/h | 7779m | 9.1m/s | -19.2°C | 86.4% | 389.0hPa | 0V | 00:00:00 | 00:00:00 | 00:00:00 | |
| PU1XMG-16 | 2026-08-31 23:54:39 | -22.86516 | -43.11379 | 105° | 47km/h | 7750m | 8.1m/s | -19.1°C | 86.5% | 390.6hPa | 0V | 00:00:00 | 00:00:00 | 00:00:00 | |
| PU1XMG-16 | 2026-08-31 23:54:33 | -22.86511 | -43.11486 | 79° | 68km/h | 7713m | 7.5m/s | -18.8°C | 85.4% | 392.6hPa | 0V | 00:00:00 | 00:00:00 | 00:00:00 | |
| PU1XMG-16 | 2026-08-31 23:54:28 | -22.86534 | -43.11560 | 71° | 49km/h | 7679m | 7.3m/s | -18.5°C | 84.3% | 394.1hPa | 0V | 00:00:00 | 00:00:00 | 00:00:00 | |
| PU1XMG-16 | 2026-08-31 23:54:22 | -22.86540 | -43.11640 | 98° | 64km/h | 7641m | 5.2m/s | -18.2°C | 83.7% | 396.2hPa | 0V | 00:00:00 | 00:00:00 | 00:00:00 | |
| PU1XMG-16 | 2026-08-31 23:54:17 | -22.86547 | -43.11736 | 78° | 64km/h | 7604m | 9.5m/s | -17.8°C | 81.9% | 398.1hPa | 0V | 00:00:00 | 00:00:00 | 00:00:00 | |
| PU1XMG-16 | 2026-08-31 23:54:12 | -22.86564 | -43.11808 | 78° | 58km/h | 7571m | 7.4m/s | -17.6°C | 81.6% | 399.7hPa | 0V | 00:00:00 | 00:00:00 | 00:00:00 | |
| PU1XMG-16 | 2026-08-31 23:54:05 | -22.86559 | -43.11922 | 100° | 60km/h | 7534m | 5.3m/s | -17.4°C | 80.7% | 401.9hPa | 0V | 00:00:00 | 00:00:00 | 00:00:00 | |
| PU1XMG-16 | 2026-08-31 23:54:01 | -22.86565 | -43.12003 | 78° | 73km/h | 7508m | 5.5m/s | -17.3°C | 80.0% | 403.3hPa | 0V | 00:00:00 | 00:00:00 | 00:00:00 | |
| PU1XMG-16 | 2026-08-31 23:53:56 | -22.86579 | -43.12114 | 91° | 77km/h | 7483m | 6.8m/s | -17.0°C | 80.2% | 404.8hPa | 0V | 00:00:00 | 00:00:00 | 00:00:00 | |
| PU1XMG-16 | 2026-08-31 23:53:49 | -22.86574 | -43.12223 | 103° | 77km/h | 7437m | 6.8m/s | -16.7°C | 77.8% | 407.1hPa | 0V | 00:00:00 | 00:00:00 | 00:00:00 | |
| PU1XMG-16 | 2026-08-31 23:53:45 | -22.86560 | -43.12341 | 88° | 82km/h | 7404m | 7.1m/s | -16.4°C | 76.4% | 408.9hPa | 0V | 00:00:00 | 00:00:00 | 00:00:00 | |
| PU1XMG-16 | 2026-08-31 23:53:40 | -22.86577 | -43.12445 | 80° | 78km/h | 7371m | 6.5m/s | -16.2°C | 74.2% | 410.6hPa | 0V | 00:00:00 | 00:00:00 | 00:00:00 | |
| PU1XMG-16 | 2026-08-31 23:53:35 | -22.86584 | -43.12559 | 93° | 78km/h | 7343m | 6.0m/s | -16.0°C | 73.7% | 412.4hPa | 0V | 00:00:00 | 00:00:00 | 00:00:00 | |
| PU1XMG-16 | 2026-08-31 23:53:29 | -22.86593 | -43.12690 | 86° | 95km/h | 7309m | 5.9m/s | -16.0°C | 70.6% | 414.3hPa | 0V | 00:00:00 | 00:00:00 | 00:00:00 | |
| PU1XMG-16 | 2026-08-31 23:53:23 | -22.86585 | -43.12820 | 105° | 84km/h | 7282m | 6.2m/s | -15.8°C | 69.6% | 415.6hPa | 0V | 00:00:00 | 00:00:00 | 00:00:00 | |
| PU1XMG-16 | 2026-08-31 23:53:18 | -22.86565 | -43.12912 | 97° | 66km/h | 7251m | 4.0m/s | -15.7°C | 67.1% | 417.2hPa | 0V | 00:00:00 | 00:00:00 | 00:00:00 | |
| PU1XMG-16 | 2026-08-31 23:53:12 | -22.86556 | -43.13036 | 100° | 77km/h | 7221m | 8.7m/s | -15.3°C | 65.3% | 418.9hPa | 0V | 00:00:00 | 00:00:00 | 00:00:00 | |
| PU1XMG-16 | 2026-08-31 23:53:08 | -22.86545 | -43.13140 | 100° | 89km/h | 7194m | 5.0m/s | -15.0°C | 65.1% | 420.5hPa | 0V | 00:00:00 | 00:00:00 | 00:00:00 | |
| PU1XMG-16 | 2026-08-31 23:53:02 | -22.86515 | -43.13251 | 104° | 71km/h | 7158m | 6.4m/s | -15.1°C | 60.7% | 422.2hPa | 0V | 00:00:00 | 00:00:00 | 00:00:00 | |
| PU1XMG-16 | 2026-08-31 23:52:56 | -22.86502 | -43.13378 | 101° | 82km/h | 7120m | 8.4m/s | -15.2°C | 56.1% | 424.2hPa | 0V | 00:00:00 | 00:00:00 | 00:00:00 | |
| PU1XMG-16 | 2026-08-31 23:52:50 | -22.86473 | -43.13514 | 113° | 82km/h | 7083m | 2.9m/s | -15.4°C | 49.7% | 426.5hPa | 0V | 00:00:00 | 00:00:00 | 00:00:00 | |
| PU1XMG-16 | 2026-08-31 23:52:44 | -22.86406 | -43.13651 | 118° | 102km/h | 7055m | 6.2m/s | -15.4°C | 40.2% | 428.4hPa | 0V | 00:00:00 | 00:00:00 | 00:00:00 | |
| PU1XMG-16 | 2026-08-31 23:52:40 | -22.86355 | -43.13782 | 108° | 99km/h | 7031m | 6.0m/s | -15.4°C | 32.6% | 429.8hPa | 0V | 00:00:00 | 00:00:00 | 00:00:00 | |
| PU1XMG-16 | 2026-08-31 23:52:33 | -22.86324 | -43.13923 | 114° | 77km/h | 6999m | 6.2m/s | -15.2°C | 33.1% | 431.3hPa | 0V | 00:00:00 | 00:00:00 | 00:00:00 | |
| PU1XMG-16 | 2026-08-31 23:52:28 | -22.86258 | -43.14042 | 118° | 99km/h | 6967m | 4.8m/s | -14.9°C | 28.8% | 433.1hPa | 0V | 00:00:00 | 00:00:00 | 00:00:00 | |
| PU1XMG-16 | 2026-08-31 23:52:23 | -22.86209 | -43.14163 | 113° | 88km/h | 6937m | 7.2m/s | -14.6°C | 27.3% | 434.7hPa | 0V | 00:00:00 | 00:00:00 | 00:00:00 | |
| PU1XMG-16 | 2026-08-31 23:52:18 | -22.86173 | -43.14270 | 114° | 89km/h | 6907m | 5.6m/s | -14.3°C | 28.7% | 436.5hPa | 0V | 00:00:00 | 00:00:00 | 00:00:00 | |
| PU1XMG-16 | 2026-08-31 23:52:12 | -22.86127 | -43.14397 | 106° | 91km/h | 6869m | 7.6m/s | -14.0°C | 26.2% | 438.7hPa | 0V | 00:00:00 | 00:00:00 | 00:00:00 | |
| PU1XMG-16 | 2026-08-31 23:52:06 | -22.86071 | -43.14534 | 117° | 75km/h | 6835m | 6.2m/s | -13.6°C | 26.2% | 440.7hPa | 0V | 00:00:00 | 00:00:00 | 00:00:00 | |
| PU1XMG-16 | 2026-08-31 23:52:00 | -22.86045 | -43.14638 | 106° | 93km/h | 6814m | 5.9m/s | -13.4°C | 24.6% | 441.9hPa | 0V | 00:00:00 | 00:00:00 | 00:00:00 | |
| PU1XMG-16 | 2026-08-31 23:51:56 | -22.85994 | -43.14752 | 125° | 84km/h | 6788m | 5.9m/s | -13.2°C | 23.0% | 443.4hPa | 0V | 00:00:00 | 00:00:00 | 00:00:00 | |
| PU1XMG-16 | 2026-08-31 23:51:50 | -22.85942 | -43.14865 | 105° | 89km/h | 6756m | 5.9m/s | -12.9°C | 21.2% | 445.3hPa | 0V | 00:00:00 | 00:00:00 | 00:00:00 | |
| PU1XMG-16 | 2026-08-31 23:51:44 | -22.85918 | -43.14993 | 109° | 71km/h | 6718m | 5.1m/s | -12.6°C | 22.9% | 447.6hPa | 0V | 00:00:00 | 00:00:00 | 00:00:00 | |
| PU1XMG-16 | 2026-08-31 23:51:39 | -22.85886 | -43.15111 | 99° | 100km/h | 6688m | 4.5m/s | -12.3°C | 20.7% | 449.2hPa | 0V | 00:00:00 | 00:00:00 | 00:00:00 | |
| PU1XMG-16 | 2026-08-31 23:51:33 | -22.85877 | -43.15251 | 100° | 71km/h | 6662m | 4.9m/s | -12.1°C | 20.0% | 450.6hPa | 0V | 00:00:00 | 00:00:00 | 00:00:00 | |
| PU1XMG-16 | 2026-08-31 23:51:26 | -22.85828 | -43.15372 | 117° | 95km/h | 6633m | 4.1m/s | -11.7°C | 20.1% | 452.4hPa | 0V | 00:00:00 | 00:00:00 | 00:00:00 | |
| PU1XMG-16 | 2026-08-31 23:51:21 | -22.85786 | -43.15485 | 112° | 75km/h | 6613m | 6.2m/s | -11.5°C | 19.4% | 453.6hPa | 0V | 00:00:00 | 00:00:00 | 00:00:00 | |
| PU1XMG-16 | 2026-08-31 23:51:16 | -22.85730 | -43.15603 | 115° | 93km/h | 6579m | 5.6m/s | -11.2°C | 18.6% | 455.6hPa | 0V | 00:00:00 | 00:00:00 | 00:00:00 | |
| PU1XMG-16 | 2026-08-31 23:51:10 | -22.85687 | -43.15714 | 115° | 77km/h | 6551m | 6.9m/s | -11.1°C | 18.8% | 457.3hPa | 0V | 00:00:00 | 00:00:00 | 00:00:00 | |
| PU1XMG-16 | 2026-08-31 23:51:05 | -22.85653 | -43.15830 | 108° | 80km/h | 6513m | 5.9m/s | -10.7°C | 18.3% | 459.5hPa | 0V | 00:00:00 | 00:00:00 | 00:00:00 | |
| PU1XMG-16 | 2026-08-31 23:51:00 | -22.85631 | -43.15931 | 97° | 80km/h | 6478m | 4.0m/s | -10.3°C | 18.0% | 461.5hPa | 0V | 00:00:00 | 00:00:00 | 00:00:00 | |
| PU1XMG-16 | 2026-08-31 23:50:54 | -22.85606 | -43.16040 | 111° | 75km/h | 6451m | 5.5m/s | -10.1°C | 17.8% | 463.3hPa | 0V | 00:00:00 | 00:00:00 | 00:00:00 | |
| PU1XMG-16 | 2026-08-31 23:50:49 | -22.85573 | -43.16159 | 113° | 80km/h | 6411m | 6.3m/s | -9.8°C | 18.3% | 465.7hPa | 0V | 00:00:00 | 00:00:00 | 00:00:00 | |
| PU1XMG-16 | 2026-08-31 23:50:43 | -22.85547 | -43.16270 | 93° | 77km/h | 6373m | 6.5m/s | -9.4°C | 18.3% | 468.1hPa | 0V | 00:00:00 | 00:00:00 | 00:00:00 | |
| PU1XMG-16 | 2026-08-31 23:50:38 | -22.85538 | -43.16408 | 101° | 78km/h | 6337m | 5.8m/s | -9.4°C | 21.1% | 470.2hPa | 0V | 00:00:00 | 00:00:00 | 00:00:00 | |
| PU1XMG-16 | 2026-08-31 23:50:37 | -22.85503 | -43.16526 | 112° | 78km/h | 6294m | 8.1m/s | -9.2°C | 19.0% | 472.7hPa | 0V | 00:00:00 | 00:00:00 | 00:00:00 | |
| PU1XMG-16 | 2026-08-31 23:50:34 | -22.85469 | -43.16650 | 106° | 78km/h | 6257m | 5.9m/s | -8.9°C | 16.1% | 475.1hPa | 0V | 00:00:00 | 00:00:00 | 00:00:00 | |
| PU1XMG-16 | 2026-08-31 23:50:20 | -22.85445 | -43.16749 | 105° | 77km/h | 6233m | 6.2m/s | -8.7°C | 16.8% | 476.6hPa | 0V | 00:00:00 | 00:00:00 | 00:00:00 | |
| PU1XMG-16 | 2026-08-31 23:50:14 | -22.85423 | -43.16886 | 104° | 86km/h | 6198m | 5.7m/s | -8.7°C | 13.4% | 478.7hPa | 0V | 00:00:00 | 00:00:00 | 00:00:00 | |
| PU1XMG-16 | 2026-08-31 23:50:07 | -22.85395 | -43.17012 | 96° | 68km/h | 6173m | 7.1m/s | -8.9°C | 15.6% | 480.4hPa | 0V | 00:00:00 | 00:00:00 | 00:00:00 | |
| PU1XMG-16 | 2026-08-31 23:50:02 | -22.85388 | -43.17101 | 100° | 75km/h | 6140m | 5.8m/s | -8.8°C | 13.9% | 482.5hPa | 0V | 00:00:00 | 00:00:00 | 00:00:00 | |
| PU1XMG-16 | 2026-08-31 23:49:57 | -22.85382 | -43.17245 | 92° | 95km/h | 6105m | 7.6m/s | -8.5°C | 12.7% | 484.7hPa | 0V | 00:00:00 | 00:00:00 | 00:00:00 | |
| PU1XMG-16 | 2026-08-31 23:49:51 | -22.85381 | -43.17360 | 88° | 75km/h | 6076m | 7.4m/s | -8.2°C | 12.6% | 486.5hPa | 0V | 00:00:00 | 00:00:00 | 00:00:00 | |
| PU1XMG-16 | 2026-08-31 23:49:45 | -22.85386 | -43.17478 | 101° | 69km/h | 6031m | 5.8m/s | -7.9°C | 12.3% | 489.1hPa | 0V | 00:00:00 | 00:00:00 | 00:00:00 | |
| PU1XMG-16 | 2026-08-31 23:49:40 | -22.85375 | -43.17568 | 85° | 64km/h | 6003m | 4.6m/s | -7.7°C | 11.6% | 490.8hPa | 0V | 00:00:00 | 00:00:00 | 00:00:00 | |
| PU1XMG-16 | 2026-08-31 23:49:34 | -22.85379 | -43.17696 | 96° | 82km/h | 5972m | 4.5m/s | -7.8°C | 12.8% | 492.8hPa | 0V | 00:00:00 | 00:00:00 | 00:00:00 | |
| PU1XMG-16 | 2026-08-31 23:49:29 | -22.85376 | -43.17804 | 94° | 82km/h | 5944m | 9.3m/s | -7.9°C | 13.3% | 494.7hPa | 0V | 00:00:00 | 00:00:00 | 00:00:00 | |
| PU1XMG-16 | 2026-08-31 23:49:23 | -22.85361 | -43.17924 | 91° | 68km/h | 5908m | 4.5m/s | -7.8°C | 14.5% | 497.0hPa | 0V | 00:00:00 | 00:00:00 | 00:00:00 | |
| PU1XMG-16 | 2026-08-31 23:49:19 | -22.85356 | -43.18024 | 98° | 77km/h | 5888m | 4.8m/s | -7.7°C | 15.7% | 498.5hPa | 0V | 00:00:00 | 00:00:00 | 00:00:00 | |
| PU1XMG-16 | 2026-08-31 23:49:13 | -22.85338 | -43.18140 | 100° | 62km/h | 5863m | 6.9m/s | -7.6°C | 18.0% | 500.0hPa | 0V | 00:00:00 | 00:00:00 | 00:00:00 | |
| PU1XMG-16 | 2026-08-31 23:49:08 | -22.85319 | -43.18225 | 99° | 64km/h | 5828m | 3.4m/s | -7.3°C | 18.1% | 502.3hPa | 0V | 00:00:00 | 00:00:00 | 00:00:00 | |
| PU1XMG-16 | 2026-08-31 23:49:01 | -22.85305 | -43.18336 | 107° | 66km/h | 5797m | 5.2m/s | -7.1°C | 18.3% | 504.0hPa | 0V | 00:00:00 | 00:00:00 | 00:00:00 | |
| PU1XMG-16 | 2026-08-31 23:48:55 | -22.85288 | -43.18438 | 99° | 68km/h | 5762m | 4.6m/s | -6.8°C | 18.3% | 506.3hPa | 0V | 00:00:00 | 00:00:00 | 00:00:00 | |
| PU1XMG-16 | 2026-08-31 23:48:51 | -22.85273 | -43.18524 | 106° | 58km/h | 5743m | 4.3m/s | -6.7°C | 18.4% | 507.6hPa | 0V | 00:00:00 | 00:00:00 | 00:00:00 | |
| PU1XMG-16 | 2026-08-31 23:48:45 | -22.85260 | -43.18619 | 91° | 55km/h | 5718m | 4.3m/s | -6.4°C | 18.3% | 509.2hPa | 0V | 00:00:00 | 00:00:00 | 00:00:00 | |
| PU1XMG-16 | 2026-08-31 23:48:40 | -22.85256 | -43.18695 | 100° | 55km/h | 5697m | 5.6m/s | -6.2°C | 18.8% | 510.5hPa | 0V | 00:00:00 | 00:00:00 | 00:00:00 | |
| PU1XMG-16 | 2026-08-31 23:48:34 | -22.85242 | -43.18772 | 102° | 62km/h | 5673m | 5.3m/s | -6.0°C | 19.6% | 512.2hPa | 0V | 00:00:00 | 00:00:00 | 00:00:00 | |
| PU1XMG-16 | 2026-08-31 23:48:29 | -22.85226 | -43.18856 | 103° | 58km/h | 5651m | 4.1m/s | -5.9°C | 20.3% | 513.6hPa | 0V | 00:00:00 | 00:00:00 | 00:00:00 | |
| PU1XMG-16 | 2026-08-31 23:48:23 | -22.85213 | -43.18944 | 94° | 53km/h | 5626m | 4.0m/s | -5.7°C | 21.7% | 515.2hPa | 0V | 00:00:00 | 00:00:00 | 00:00:00 | |
| PU1XMG-16 | 2026-08-31 23:48:18 | -22.85205 | -43.19045 | 102° | 66km/h | 5602m | 2.7m/s | -6.2°C | 37.5% | 516.9hPa | 0V | 00:00:00 | 00:00:00 | 00:00:00 | |
| PU1XMG-16 | 2026-08-31 23:48:12 | -22.85190 | -43.19158 | 94° | 68km/h | 5576m | 5.1m/s | -6.7°C | 56.1% | 518.4hPa | 0V | 00:00:00 | 00:00:00 | 00:00:00 | |
| PU1XMG-16 | 2026-08-31 23:48:06 | -22.85181 | -43.19245 | 106° | 57km/h | 5553m | 5.6m/s | -6.7°C | 60.8% | 520.2hPa | 0V | 00:00:00 | 00:00:00 | 00:00:00 | |
| PU1XMG-16 | 2026-08-31 23:48:00 | -22.85164 | -43.19329 | 100° | 64km/h | 5521m | 6.5m/s | -7.0°C | 75.6% | 522.2hPa | 0V | 00:00:00 | 00:00:00 | 00:00:00 | |
| PU1XMG-16 | 2026-08-31 23:47:55 | -22.85136 | -43.19414 | 122° | 62km/h | 5490m | 8.2m/s | -7.0°C | 83.2% | 524.3hPa | 0V | 00:00:00 | 00:00:00 | 00:00:00 | |
| PU1XMG-16 | 2026-08-31 23:47:49 | -22.85081 | -43.19501 | 114° | 68km/h | 5454m | 5.4m/s | -6.7°C | 82.2% | 526.8hPa | 0V | 00:00:00 | 00:00:00 | 00:00:00 | |
| PU1XMG-16 | 2026-08-31 23:47:44 | -22.85058 | -43.19584 | 111° | 55km/h | 5427m | 7.1m/s | -6.5°C | 82.0% | 528.5hPa | 0V | 00:00:00 | 00:00:00 | 00:00:00 | |
| PU1XMG-16 | 2026-08-31 23:47:40 | -22.85018 | -43.19645 | 131° | 58km/h | 5397m | 5.7m/s | -6.3°C | 82.1% | 530.5hPa | 0V | 00:00:00 | 00:00:00 | 00:00:00 | |
| PU1XMG-16 | 2026-08-31 23:47:35 | -22.84980 | -43.19711 | 119° | 58km/h | 5367m | 8.2m/s | -6.0°C | 81.7% | 532.4hPa | 0V | 00:00:00 | 00:00:00 | 00:00:00 | |
| PU1XMG-16 | 2026-08-31 23:47:22 | -22.84925 | -43.19877 | 122° | 60km/h | 5296m | 4.4m/s | -5.8°C | 88.8% | 537.3hPa | 0V | 00:00:00 | 00:00:00 | 00:00:00 | |
| PU1XMG-16 | 2026-08-31 23:47:17 | -22.84879 | -43.19945 | 122° | 62km/h | 5265m | 5.7m/s | -5.5°C | 87.6% | 539.4hPa | 0V | 00:00:00 | 00:00:00 | 00:00:00 | |
| PU1XMG-16 | 2026-08-31 23:47:13 | -22.84852 | -43.20012 | 119° | 46km/h | 5238m | 7.0m/s | -5.6°C | 94.0% | 541.3hPa | 0V | 00:00:00 | 00:00:00 | 00:00:00 | |
| PU1XMG-16 | 2026-08-31 23:47:06 | -22.84813 | -43.20089 | 104° | 51km/h | 5201m | 7.3m/s | -5.3°C | 94.4% | 543.9hPa | 0V | 00:00:00 | 00:00:00 | 00:00:00 | |
| PU1XMG-16 | 2026-08-31 23:47:00 | -22.84793 | -43.20160 | 122° | 46km/h | 5168m | 4.8m/s | -5.1°C | 95.0% | 546.0hPa | 0V | 00:00:00 | 00:00:00 | 00:00:00 | |
| PU1XMG-16 | 2026-08-31 23:46:55 | -22.84768 | -43.20203 | 109° | 40km/h | 5141m | 3.9m/s | -4.8°C | 93.0% | 548.1hPa | 0V | 00:00:00 | 00:00:00 | 00:00:00 | |
| PU1XMG-16 | 2026-08-31 23:46:51 | -22.84741 | -43.20263 | 128° | 51km/h | 5112m | 6.4m/s | -4.5°C | 91.3% | 550.1hPa | 0V | 00:00:00 | 00:00:00 | 00:00:00 | |
| PU1XMG-16 | 2026-08-31 23:46:45 | -22.84712 | -43.20317 | 117° | 51km/h | 5086m | 5.4m/s | -4.3°C | 90.7% | 552.1hPa | 0V | 00:00:00 | 00:00:00 | 00:00:00 | |
| PU1XMG-16 | 2026-08-31 23:46:39 | -22.84673 | -43.20377 | 110° | 37km/h | 5047m | 5.9m/s | -3.9°C | 87.9% | 554.5hPa | 0V | 00:00:00 | 00:00:00 | 00:00:00 | |
| PU1XMG-16 | 2026-08-31 23:46:34 | -22.84651 | -43.20440 | 123° | 53km/h | 5020m | 6.7m/s | -3.6°C | 86.4% | 556.4hPa | 0V | 00:00:00 | 00:00:00 | 00:00:00 | |
| PU1XMG-16 | 2026-08-31 23:46:29 | -22.84617 | -43.20501 | 112° | 40km/h | 4984m | 5.9m/s | -3.3°C | 85.1% | 559.0hPa | 0V | 00:00:00 | 00:00:00 | 00:00:00 | |
| PU1XMG-16 | 2026-08-31 23:46:23 | -22.84582 | -43.20582 | 114° | 57km/h | 4954m | 2.4m/s | -3.2°C | 87.3% | 561.1hPa | 0V | 00:00:00 | 00:00:00 | 00:00:00 | |
| PU1XMG-16 | 2026-08-31 23:46:16 | -22.84547 | -43.20650 | 128° | 47km/h | 4926m | 3.7m/s | -3.0°C | 85.2% | 563.0hPa | 0V | 00:00:00 | 00:00:00 | 00:00:00 | |
| PU1XMG-16 | 2026-08-31 23:46:11 | -22.84521 | -43.20704 | 112° | 42km/h | 4904m | 6.9m/s | -2.9°C | 79.2% | 564.7hPa | 0V | 00:00:00 | 00:00:00 | 00:00:00 | |
| PU1XMG-16 | 2026-08-31 23:46:06 | -22.84492 | -43.20786 | 109° | 60km/h | 4867m | 8.5m/s | -2.7°C | 81.8% | 567.4hPa | 0V | 00:00:00 | 00:00:00 | 00:00:00 | |
| PU1XMG-16 | 2026-08-31 23:46:00 | -22.84468 | -43.20842 | 112° | 37km/h | 4840m | 5.5m/s | -2.5°C | 81.3% | 569.5hPa | 0V | 00:00:00 | 00:00:00 | 00:00:00 | |
| PU1XMG-16 | 2026-08-31 23:45:54 | -22.84451 | -43.20907 | 99° | 44km/h | 4806m | 5.1m/s | -2.3°C | 83.7% | 571.7hPa | 0V | 00:00:00 | 00:00:00 | 00:00:00 | |
| PU1XMG-16 | 2026-08-31 23:45:49 | -22.84438 | -43.20977 | 101° | 58km/h | 4782m | 5.5m/s | -2.1°C | 84.3% | 573.4hPa | 0V | 00:00:00 | 00:00:00 | 00:00:00 | |
| PU1XMG-16 | 2026-08-31 23:45:44 | -22.84411 | -43.21060 | 123° | 49km/h | 4752m | 5.8m/s | -1.9°C | 84.8% | 575.3hPa | 0V | 00:00:00 | 00:00:00 | 00:00:00 | |
| PU1XMG-16 | 2026-08-31 23:45:38 | -22.84384 | -43.21140 | 99° | 57km/h | 4727m | 3.8m/s | -1.7°C | 84.9% | 577.4hPa | 0V | 00:00:00 | 00:00:00 | 00:00:00 | |
| PU1XMG-16 | 2026-08-31 23:45:31 | -22.84371 | -43.21215 | 120° | 44km/h | 4701m | 6.4m/s | -1.6°C | 88.7% | 579.2hPa | 0V | 00:00:00 | 00:00:00 | 00:00:00 | |
| PU1XMG-16 | 2026-08-31 23:45:26 | -22.84335 | -43.21275 | 123° | 55km/h | 4673m | 5.9m/s | -1.4°C | 89.1% | 581.2hPa | 0V | 00:00:00 | 00:00:00 | 00:00:00 | |
| PU1XMG-16 | 2026-08-31 23:45:20 | -22.84302 | -43.21354 | 112° | 47km/h | 4643m | 7.4m/s | -1.2°C | 91.4% | 583.7hPa | 0V | 00:00:00 | 00:00:00 | 00:00:00 | |
| PU1XMG-16 | 2026-08-31 23:45:17 | -22.84289 | -43.21403 | 94° | 35km/h | 4615m | 5.0m/s | -1.1°C | 91.5% | 585.3hPa | 0V | 00:00:00 | 00:00:00 | 00:00:00 | |
| PU1XMG-16 | 2026-08-31 23:45:10 | -22.84269 | -43.21479 | 123° | 53km/h | 4586m | 5.7m/s | -0.9°C | 91.8% | 587.3hPa | 0V | 00:00:00 | 00:00:00 | 00:00:00 | |
| PU1XMG-16 | 2026-08-31 23:45:04 | -22.84247 | -43.21529 | 103° | 35km/h | 4554m | 6.6m/s | -0.6°C | 91.6% | 589.6hPa | 0V | 00:00:00 | 00:00:00 | 00:00:00 | |
| PU1XMG-16 | 2026-08-31 23:44:59 | -22.84238 | -43.21584 | 93° | 46km/h | 4528m | 5.8m/s | -0.4°C | 91.8% | 591.6hPa | 0V | 00:00:00 | 00:00:00 | 00:00:00 | |
| PU1XMG-16 | 2026-08-31 23:44:48 | -22.84221 | -43.21717 | 100° | 40km/h | 4468m | 2.3m/s | 0.1°C | 90.5% | 596.1hPa | 0V | 00:00:00 | 00:00:00 | 00:00:00 | |
| PU1XMG-16 | 2026-08-31 23:44:44 | -22.84203 | -43.21766 | 119° | 40km/h | 4449m | 4.8m/s | 0.3°C | 89.7% | 597.8hPa | 0V | 00:00:00 | 00:00:00 | 00:00:00 | |
| PU1XMG-16 | 2026-08-31 23:44:37 | -22.84193 | -43.21826 | 97° | 49km/h | 4421m | 5.9m/s | 0.6°C | 88.6% | 599.9hPa | 0V | 00:00:00 | 00:00:00 | 00:00:00 | |
| PU1XMG-16 | 2026-08-31 23:44:32 | -22.84182 | -43.21885 | 111° | 35km/h | 4387m | 8.2m/s | 0.9°C | 87.1% | 602.4hPa | 0V | 00:00:00 | 00:00:00 | 00:00:00 | |
| PU1XMG-16 | 2026-08-31 23:44:26 | -22.84167 | -43.21948 | 98° | 49km/h | 4357m | 4.2m/s | 1.2°C | 86.3% | 604.8hPa | 0V | 00:00:00 | 00:00:00 | 00:00:00 | |
| PU1XMG-16 | 2026-08-31 23:44:21 | -22.84162 | -43.22031 | 100° | 42km/h | 4334m | 4.8m/s | 1.2°C | 88.9% | 606.4hPa | 0V | 00:00:00 | 00:00:00 | 00:00:00 | |
| PU1XMG-16 | 2026-08-31 23:44:15 | -22.84142 | -43.22084 | 113° | 51km/h | 4307m | 7.5m/s | 1.5°C | 87.9% | 608.4hPa | 0V | 00:00:00 | 00:00:00 | 00:00:00 | |
| PU1XMG-16 | 2026-08-31 23:44:10 | -22.84126 | -43.22164 | 108° | 46km/h | 4259m | 7.9m/s | 1.7°C | 92.0% | 611.8hPa | 0V | 00:00:00 | 00:00:00 | 00:00:00 | |
| PU1XMG-16 | 2026-08-31 23:44:04 | -22.84115 | -43.22222 | 96° | 33km/h | 4226m | 6.9m/s | 1.9°C | 91.0% | 614.1hPa | 0V | 00:00:00 | 00:00:00 | 00:00:00 | |
| PU1XMG-16 | 2026-08-31 23:43:59 | -22.84085 | -43.22281 | 119° | 53km/h | 4192m | 6.2m/s | 2.1°C | 93.6% | 617.1hPa | 0V | 00:00:00 | 00:00:00 | 00:00:00 | |
| PU1XMG-16 | 2026-08-31 23:43:48 | -22.84063 | -43.22392 | 90° | 44km/h | 4125m | 5.8m/s | 2.7°C | 91.7% | 622.0hPa | 0V | 00:00:00 | 00:00:00 | 00:00:00 | |
| PU1XMG-16 | 2026-08-31 23:43:42 | -22.84044 | -43.22464 | 119° | 35km/h | 4091m | 7.1m/s | 3.0°C | 90.0% | 624.6hPa | 0V | 00:00:00 | 00:00:00 | 00:00:00 | |
| PU1XMG-16 | 2026-08-31 23:43:38 | -22.84030 | -43.22507 | 110° | 42km/h | 4056m | 4.1m/s | 3.4°C | 88.0% | 627.3hPa | 0V | 00:00:00 | 00:00:00 | 00:00:00 | |
| PU1XMG-16 | 2026-08-31 23:43:32 | -22.84012 | -43.22573 | 107° | 38km/h | 4014m | 7.6m/s | 3.6°C | 90.3% | 630.5hPa | 0V | 00:00:00 | 00:00:00 | 00:00:00 | |
| PU1XMG-16 | 2026-08-31 23:43:26 | -22.83992 | -43.22622 | 109° | 46km/h | 3983m | 5.4m/s | 3.8°C | 89.9% | 633.1hPa | 0V | 00:00:00 | 00:00:00 | 00:00:00 | |
| PU1XMG-16 | 2026-08-31 23:43:11 | -22.83952 | -43.22792 | 110° | 44km/h | 3872m | 8.4m/s | 4.6°C | 88.4% | 641.6hPa | 0V | 00:00:00 | 00:00:00 | 00:00:00 | |
| PU1XMG-16 | 2026-08-31 23:43:05 | -22.83947 | -43.22840 | 85° | 31km/h | 3838m | 5.9m/s | 4.8°C | 89.8% | 644.1hPa | 0V | 00:00:00 | 00:00:00 | 00:00:00 | |
| PU1XMG-16 | 2026-08-31 23:42:59 | -22.83948 | -43.22901 | 102° | 47km/h | 3811m | 4.3m/s | 5.0°C | 90.6% | 646.5hPa | 0V | 00:00:00 | 00:00:00 | 00:00:00 | |
| PU1XMG-16 | 2026-08-31 23:42:53 | -22.83927 | -43.22968 | 114° | 42km/h | 3773m | 8.9m/s | 5.4°C | 88.8% | 649.4hPa | 0V | 00:00:00 | 00:00:00 | 00:00:00 | |
| PU1XMG-16 | 2026-08-31 23:42:48 | -22.83904 | -43.23029 | 118° | 42km/h | 3733m | 7.1m/s | 5.7°C | 87.8% | 652.8hPa | 0V | 00:00:00 | 00:00:00 | 00:00:00 | |
| PU1XMG-16 | 2026-08-31 23:42:42 | -22.83882 | -43.23076 | 122° | 40km/h | 3700m | 7.0m/s | 6.0°C | 87.1% | 655.4hPa | 0V | 00:00:00 | 00:00:00 | 00:00:00 | |
| PU1XMG-16 | 2026-08-31 23:42:37 | -22.83862 | -43.23123 | 112° | 46km/h | 3669m | 8.1m/s | 6.2°C | 87.5% | 657.8hPa | 0V | 00:00:00 | 00:00:00 | 00:00:00 | |
| PU1XMG-16 | 2026-08-31 23:42:31 | -22.83835 | -43.23182 | 105° | 38km/h | 3631m | 6.3m/s | 6.5°C | 86.3% | 660.7hPa | 0V | 00:00:00 | 00:00:00 | 00:00:00 | |
| PU1XMG-16 | 2026-08-31 23:42:27 | -22.83819 | -43.23238 | 105° | 42km/h | 3603m | 8.7m/s | 6.7°C | 85.0% | 663.1hPa | 0V | 00:00:00 | 00:00:00 | 00:00:00 | |
| PU1XMG-16 | 2026-08-31 23:42:21 | -22.83793 | -43.23289 | 125° | 38km/h | 3566m | 7.1m/s | 7.0°C | 83.8% | 666.1hPa | 0V | 00:00:00 | 00:00:00 | 00:00:00 | |
| PU1XMG-16 | 2026-08-31 23:42:15 | -22.83766 | -43.23355 | 114° | 44km/h | 3525m | 7.6m/s | 7.4°C | 82.5% | 669.2hPa | 0V | 00:00:00 | 00:00:00 | 00:00:00 | |
| PU1XMG-16 | 2026-08-31 23:42:10 | -22.83744 | -43.23408 | 111° | 44km/h | 3491m | 7.8m/s | 7.7°C | 81.3% | 672.0hPa | 0V | 00:00:00 | 00:00:00 | 00:00:00 | |
| PU1XMG-16 | 2026-08-31 23:42:06 | -22.83725 | -43.23464 | 103° | 42km/h | 3459m | 6.2m/s | 8.0°C | 80.2% | 674.6hPa | 0V | 00:00:00 | 00:00:00 | 00:00:00 | |
| PU1XMG-16 | 2026-08-31 23:42:01 | -22.83706 | -43.23536 | 112° | 58km/h | 3429m | 9.0m/s | 8.2°C | 78.2% | 677.2hPa | 0V | 00:00:00 | 00:00:00 | 00:00:00 | |
| PU1XMG-16 | 2026-08-31 23:41:55 | -22.83679 | -43.23599 | 113° | 46km/h | 3396m | 5.7m/s | 8.4°C | 78.5% | 679.7hPa | 0V | 00:00:00 | 00:00:00 | 00:00:00 | |
| PU1XMG-16 | 2026-08-31 23:41:50 | -22.83648 | -43.23667 | 119° | 47km/h | 3358m | 5.1m/s | 8.4°C | 82.6% | 683.0hPa | 0V | 00:00:00 | 00:00:00 | 00:00:00 | |
| PU1XMG-16 | 2026-08-31 23:41:44 | -22.83616 | -43.23722 | 118° | 49km/h | 3325m | 8.8m/s | 8.7°C | 81.2% | 685.6hPa | 0V | 00:00:00 | 00:00:00 | 00:00:00 | |
| PU1XMG-16 | 2026-08-31 23:41:39 | -22.83590 | -43.23778 | 117° | 40km/h | 3290m | 8.3m/s | 9.0°C | 80.2% | 688.3hPa | 0V | 00:00:00 | 00:00:00 | 00:00:00 | |
| PU1XMG-16 | 2026-08-31 23:41:33 | -22.83558 | -43.23841 | 115° | 51km/h | 3246m | 5.9m/s | 9.4°C | 78.4% | 691.8hPa | 0V | 00:00:00 | 00:00:00 | 00:00:00 | |
| PU1XMG-16 | 2026-08-31 23:41:28 | -22.83530 | -43.23899 | 116° | 44km/h | 3217m | 6.5m/s | 9.7°C | 77.2% | 694.2hPa | 0V | 00:00:00 | 00:00:00 | 00:00:00 | |
| PU1XMG-16 | 2026-08-31 23:41:23 | -22.83504 | -43.23949 | 121° | 38km/h | 3183m | 9.2m/s | 10.0°C | 75.8% | 697.3hPa | 0V | 00:00:00 | 00:00:00 | 00:00:00 | |
| PU1XMG-16 | 2026-08-31 23:41:17 | -22.83477 | -43.23990 | 115° | 26km/h | 3141m | 5.5m/s | 10.3°C | 73.9% | 700.5hPa | 0V | 00:00:00 | 00:00:00 | 00:00:00 | |
| PU1XMG-16 | 2026-08-31 23:41:12 | -22.83455 | -43.24032 | 126° | 40km/h | 3111m | 9.2m/s | 10.6°C | 72.7% | 703.1hPa | 0V | 00:00:00 | 00:00:00 | 00:00:00 | |
| PU1XMG-16 | 2026-08-31 23:41:06 | -22.83419 | -43.24077 | 136° | 35km/h | 3069m | 5.5m/s | 11.0°C | 71.3% | 706.8hPa | 0V | 00:00:00 | 00:00:00 | 00:00:00 | |
| PU1XMG-16 | 2026-08-31 23:41:00 | -22.83384 | -43.24127 | 128° | 42km/h | 3033m | 5.3m/s | 11.3°C | 70.4% | 710.0hPa | 0V | 00:00:00 | 00:00:00 | 00:00:00 | |
| PU1XMG-16 | 2026-08-31 23:40:55 | -22.83342 | -43.24183 | 132° | 46km/h | 2998m | 8.4m/s | 11.6°C | 69.4% | 713.2hPa | 0V | 00:00:00 | 00:00:00 | 00:00:00 | |
| PU1XMG-16 | 2026-08-31 23:40:50 | -22.83304 | -43.24230 | 128° | 46km/h | 2964m | 5.9m/s | 11.9°C | 69.3% | 716.1hPa | 0V | 00:00:00 | 00:00:00 | 00:00:00 | |
| PU1XMG-16 | 2026-08-31 23:40:43 | -22.83257 | -43.24286 | 135° | 46km/h | 2924m | 5.9m/s | 12.2°C | 68.4% | 719.2hPa | 0V | 00:00:00 | 00:00:00 | 00:00:00 | |
| PU1XMG-16 | 2026-08-31 23:40:38 | -22.83218 | -43.24329 | 132° | 38km/h | 2890m | 7.2m/s | 12.3°C | 69.0% | 722.1hPa | 0V | 00:00:00 | 00:00:00 | 00:00:00 | |
| PU1XMG-16 | 2026-08-31 23:40:32 | -22.83181 | -43.24382 | 133° | 47km/h | 2851m | 5.7m/s | 12.5°C | 67.5% | 725.4hPa | 0V | 00:00:00 | 00:00:00 | 00:00:00 | |
| PU1XMG-16 | 2026-08-31 23:40:27 | -22.83140 | -43.24429 | 131° | 44km/h | 2815m | 7.3m/s | 12.8°C | 66.7% | 728.5hPa | 0V | 00:00:00 | 00:00:00 | 00:00:00 | |
| PU1XMG-16 | 2026-08-31 23:40:21 | -22.83091 | -43.24479 | 143° | 46km/h | 2777m | 7.4m/s | 13.1°C | 66.2% | 731.6hPa | 0V | 00:00:00 | 00:00:00 | 00:00:00 | |
| PU1XMG-16 | 2026-08-31 23:40:15 | -22.83031 | -43.24528 | 141° | 53km/h | 2737m | 5.0m/s | 13.4°C | 65.2% | 735.2hPa | 0V | 00:00:00 | 00:00:00 | 00:00:00 | |
| PU1XMG-16 | 2026-08-31 23:40:09 | -22.82981 | -43.24581 | 134° | 46km/h | 2700m | 7.0m/s | 13.7°C | 65.0% | 738.7hPa | 0V | 00:00:00 | 00:00:00 | 00:00:00 | |
| PU1XMG-16 | 2026-08-31 23:40:03 | -22.82932 | -43.24645 | 130° | 51km/h | 2662m | 6.8m/s | 13.8°C | 71.0% | 742.2hPa | 0V | 00:00:00 | 00:00:00 | 00:00:00 | |
| PU1XMG-16 | 2026-08-31 23:39:59 | -22.82888 | -43.24694 | 142° | 51km/h | 2625m | 7.4m/s | 13.9°C | 72.7% | 745.1hPa | 0V | 00:00:00 | 00:00:00 | 00:00:00 | |
| PU1XMG-16 | 2026-08-31 23:39:53 | -22.82827 | -43.24749 | 140° | 55km/h | 2583m | 6.3m/s | 14.1°C | 77.7% | 748.8hPa | 0V | 00:00:00 | 00:00:00 | 00:00:00 | |
| PU1XMG-16 | 2026-08-31 23:39:47 | -22.82770 | -43.24804 | 136° | 47km/h | 2543m | 7.2m/s | 14.3°C | 79.1% | 752.5hPa | 0V | 00:00:00 | 00:00:00 | 00:00:00 | |
| PU1XMG-16 | 2026-08-31 23:39:41 | -22.82725 | -43.24849 | 142° | 46km/h | 2507m | 7.6m/s | 14.5°C | 78.6% | 755.5hPa | 0V | 00:00:00 | 00:00:00 | 00:00:00 | |
| PU1XMG-16 | 2026-08-31 23:39:35 | -22.82665 | -43.24899 | 140° | 53km/h | 2463m | 7.0m/s | 14.9°C | 78.0% | 759.4hPa | 0V | 00:00:00 | 00:00:00 | 00:00:00 | |
| PU1XMG-16 | 2026-08-31 23:39:29 | -22.82614 | -43.24958 | 128° | 47km/h | 2423m | 5.9m/s | 15.1°C | 77.8% | 763.0hPa | 0V | 00:00:00 | 00:00:00 | 00:00:00 | |
| PU1XMG-16 | 2026-08-31 23:39:23 | -22.82561 | -43.25016 | 140° | 64km/h | 2386m | 7.9m/s | 15.5°C | 75.9% | 766.3hPa | 0V | 00:00:00 | 00:00:00 | 00:00:00 | |
| PU1XMG-16 | 2026-08-31 23:39:17 | -22.82500 | -43.25075 | 138° | 47km/h | 2348m | 9.2m/s | 15.8°C | 74.0% | 769.8hPa | 0V | 00:00:00 | 00:00:00 | 00:00:00 | |
| PU1XMG-16 | 2026-08-31 23:39:07 | -22.82412 | -43.25169 | 141° | 38km/h | 2273m | 6.5m/s | 16.4°C | 68.8% | 776.5hPa | 0V | 00:00:00 | 00:00:00 | 00:00:00 | |
| PU1XMG-16 | 2026-08-31 23:39:01 | -22.82364 | -43.25198 | 150° | 51km/h | 2242m | 5.3m/s | 16.7°C | 67.9% | 779.4hPa | 0V | 00:00:00 | 00:00:00 | 00:00:00 | |
| PU1XMG-16 | 2026-08-31 23:38:56 | -22.82316 | -43.25233 | 142° | 46km/h | 2206m | 9.0m/s | 17.1°C | 66.9% | 782.7hPa | 0V | 00:00:00 | 00:00:00 | 00:00:00 | |
| PU1XMG-16 | 2026-08-31 23:38:50 | -22.82271 | -43.25280 | 134° | 40km/h | 2166m | 4.8m/s | 17.4°C | 65.7% | 786.6hPa | 0V | 00:00:00 | 00:00:00 | 00:00:00 | |
| PU1XMG-16 | 2026-08-31 23:38:45 | -22.82230 | -43.25325 | 137° | 38km/h | 2125m | 7.2m/s | 17.8°C | 63.7% | 790.1hPa | 0V | 00:00:00 | 00:00:00 | 00:00:00 | |
| PU1XMG-16 | 2026-08-31 23:38:39 | -22.82188 | -43.25361 | 143° | 42km/h | 2095m | 5.9m/s | 18.1°C | 62.6% | 793.0hPa | 0V | 00:00:00 | 00:00:00 | 00:00:00 | |
| PU1XMG-16 | 2026-08-31 23:38:35 | -22.82140 | -43.25397 | 142° | 42km/h | 2060m | 5.2m/s | 18.4°C | 61.8% | 796.1hPa | 0V | 00:00:00 | 00:00:00 | 00:00:00 | |
| PU1XMG-16 | 2026-08-31 23:38:29 | -22.82090 | -43.25441 | 142° | 44km/h | 2017m | 5.9m/s | 18.4°C | 63.1% | 800.0hPa | 0V | 00:00:00 | 00:00:00 | 00:00:00 | |
| PU1XMG-16 | 2026-08-31 23:38:22 | -22.82044 | -43.25480 | 140° | 35km/h | 1979m | 6.4m/s | 18.3°C | 64.9% | 803.6hPa | 0V | 00:00:00 | 00:00:00 | 00:00:00 | |
| PU1XMG-16 | 2026-08-31 23:38:17 | -22.82010 | -43.25511 | 145° | 38km/h | 1947m | 8.2m/s | 18.3°C | 64.9% | 806.7hPa | 0V | 00:00:00 | 00:00:00 | 00:00:00 | |
| PU1XMG-16 | 2026-08-31 23:38:13 | -22.81963 | -43.25543 | 157° | 46km/h | 1915m | 7.3m/s | 17.7°C | 70.3% | 809.9hPa | 0V | 00:00:00 | 00:00:00 | 00:00:00 | |
| PU1XMG-16 | 2026-08-31 23:38:07 | -22.81911 | -43.25566 | 161° | 47km/h | 1883m | 7.3m/s | 17.6°C | 72.4% | 812.9hPa | 0V | 00:00:00 | 00:00:00 | 00:00:00 | |
| PU1XMG-16 | 2026-08-31 23:38:03 | -22.81861 | -43.25587 | 157° | 42km/h | 1853m | 6.9m/s | 17.8°C | 72.2% | 815.7hPa | 0V | 00:00:00 | 00:00:00 | 00:00:00 | |
| PU1XMG-16 | 2026-08-31 23:37:57 | -22.81808 | -43.25610 | 162° | 37km/h | 1814m | 7.9m/s | 17.4°C | 77.6% | 819.2hPa | 0V | 00:00:00 | 00:00:00 | 00:00:00 | |
| PU1XMG-16 | 2026-08-31 23:37:51 | -22.81767 | -43.25625 | 169° | 29km/h | 1780m | 6.9m/s | 17.4°C | 80.4% | 822.5hPa | 0V | 00:00:00 | 00:00:00 | 00:00:00 | |
| PU1XMG-16 | 2026-08-31 23:37:46 | -22.81734 | -43.25634 | 177° | 15km/h | 1742m | 5.8m/s | 17.3°C | 83.4% | 826.2hPa | 0V | 00:00:00 | 00:00:00 | 00:00:00 | |
| PU1XMG-16 | 2026-08-31 23:37:40 | -22.81712 | -43.25639 | 163° | 22km/h | 1710m | 7.5m/s | 17.3°C | 84.7% | 829.3hPa | 0V | 00:00:00 | 00:00:00 | 00:00:00 | |
| PU1XMG-16 | 2026-08-31 23:37:34 | -22.81680 | -43.25653 | 161° | 24km/h | 1670m | 6.8m/s | 17.6°C | 84.4% | 833.2hPa | 0V | 00:00:00 | 00:00:00 | 00:00:00 | |
| PU1XMG-16 | 2026-08-31 23:37:22 | -22.81614 | -43.25652 | 177° | 27km/h | 1587m | 7.4m/s | 18.3°C | 81.4% | 841.5hPa | 0V | 00:00:00 | 00:00:00 | 00:00:00 | |
| PU1XMG-16 | 2026-08-31 23:37:18 | -22.81577 | -43.25653 | 183° | 33km/h | 1547m | 9.8m/s | 18.5°C | 81.8% | 845.2hPa | 0V | 00:00:00 | 00:00:00 | 00:00:00 | |
| PU1XMG-16 | 2026-08-31 23:37:12 | -22.81538 | -43.25653 | 180° | 31km/h | 1511m | 7.7m/s | 18.9°C | 80.6% | 848.9hPa | 0V | 00:00:00 | 00:00:00 | 00:00:00 | |
| PU1XMG-16 | 2026-08-31 23:37:06 | -22.81488 | -43.25661 | 167° | 37km/h | 1469m | 8.2m/s | 19.1°C | 80.1% | 852.9hPa | 0V | 00:00:00 | 00:00:00 | 00:00:00 | |
| PU1XMG-16 | 2026-08-31 23:37:01 | -22.81444 | -43.25664 | 187° | 35km/h | 1434m | 7.4m/s | 18.8°C | 84.1% | 856.2hPa | 0V | 00:00:00 | 00:00:00 | 00:00:00 | |
| PU1XMG-16 | 2026-08-31 23:36:56 | -22.81398 | -43.25657 | 196° | 38km/h | 1401m | 7.6m/s | 19.1°C | 82.6% | 859.6hPa | 0V | 00:00:00 | 00:00:00 | 00:00:00 | |
| PU1XMG-16 | 2026-08-31 23:36:52 | -22.81353 | -43.25648 | 190° | 38km/h | 1363m | 6.7m/s | 19.5°C | 81.1% | 863.4hPa | 0V | 00:00:00 | 00:00:00 | 00:00:00 | |
| PU1XMG-16 | 2026-08-31 23:36:46 | -22.81303 | -43.25642 | 186° | 37km/h | 1330m | 6.9m/s | 19.8°C | 79.9% | 866.8hPa | 0V | 00:00:00 | 00:00:00 | 00:00:00 | |
| PU1XMG-16 | 2026-08-31 23:36:42 | -22.81262 | -43.25635 | 184° | 33km/h | 1294m | 6.8m/s | 20.0°C | 79.0% | 870.4hPa | 0V | 00:00:00 | 00:00:00 | 00:00:00 | |
| PU1XMG-16 | 2026-08-31 23:36:35 | -22.81218 | -43.25632 | 186° | 27km/h | 1256m | 7.4m/s | 20.2°C | 78.1% | 874.2hPa | 0V | 00:00:00 | 00:00:00 | 00:00:00 | |
| PU1XMG-16 | 2026-08-31 23:36:30 | -22.81184 | -43.25621 | 207° | 27km/h | 1225m | 6.6m/s | 20.5°C | 76.9% | 877.3hPa | 0V | 00:00:00 | 00:00:00 | 00:00:00 | |
| PU1XMG-16 | 2026-08-31 23:36:24 | -22.81154 | -43.25609 | 186° | 18km/h | 1190m | 6.9m/s | 20.8°C | 75.7% | 880.9hPa | 0V | 00:00:00 | 00:00:00 | 00:00:00 | |
| PU1XMG-16 | 2026-08-31 23:36:18 | -22.81127 | -43.25601 | 198° | 20km/h | 1150m | 6.0m/s | 21.1°C | 74.5% | 885.0hPa | 0V | 00:00:00 | 00:00:00 | 00:00:00 | |
| PU1XMG-16 | 2026-08-31 23:36:13 | -22.81100 | -43.25592 | 200° | 26km/h | 1112m | 8.3m/s | 21.6°C | 72.8% | 888.9hPa | 0V | 00:00:00 | 00:00:00 | 00:00:00 | |
| PU1XMG-16 | 2026-08-31 23:36:08 | -22.81075 | -43.25582 | 195° | 15km/h | 1074m | 7.5m/s | 21.9°C | 71.6% | 892.7hPa | 0V | 00:00:00 | 00:00:00 | 00:00:00 | |
| PU1XMG-16 | 2026-08-31 23:36:02 | -22.81047 | -43.25572 | 205° | 20km/h | 1032m | 7.3m/s | 22.3°C | 70.0% | 897.0hPa | 0V | 00:00:00 | 00:00:00 | 00:00:00 | |
| PU1XMG-16 | 2026-08-31 23:35:57 | -22.81030 | -43.25566 | 207° | 13km/h | 994m | 6.8m/s | 22.7°C | 68.8% | 900.9hPa | 0V | 00:00:00 | 00:00:00 | 00:00:00 | |
| PU1XMG-16 | 2026-08-31 23:35:46 | -22.80989 | -43.25542 | 202° | 24km/h | 917m | 7.9m/s | 23.2°C | 66.7% | 908.7hPa | 0V | 00:00:00 | 00:00:00 | 00:00:00 | |
| PU1XMG-16 | 2026-08-31 23:35:40 | -22.80963 | -43.25529 | 220° | 13km/h | 880m | 3.7m/s | 23.6°C | 65.7% | 912.8hPa | 0V | 00:00:00 | 00:00:00 | 00:00:00 | |
| PU1XMG-16 | 2026-08-31 23:35:36 | -22.80951 | -43.25513 | 230° | 18km/h | 848m | 6.1m/s | 23.8°C | 64.8% | 916.1hPa | 0V | 00:00:00 | 00:00:00 | 00:00:00 | |
| PU1XMG-16 | 2026-08-31 23:35:30 | -22.80932 | -43.25494 | 235° | 16km/h | 819m | 8.5m/s | 0°C | 0% | 919.4hPa | 0V | 00:00:00 | 00:00:00 | 00:00:00 | |
| PU1XMG-16 | 2026-08-31 23:35:26 | -22.80923 | -43.25477 | 232° | 13km/h | 783m | 6.3m/s | 0°C | 0% | 922.9hPa | 0V | 00:00:00 | 00:00:00 | 00:00:00 | |
| PU1XMG-16 | 2026-08-31 23:35:19 | -22.80913 | -43.25460 | 248° | 15km/h | 746m | 7.7m/s | 0°C | 0% | 926.9hPa | 0V | 00:00:00 | 00:00:00 | 00:00:00 | |
| PU1XMG-16 | 2026-08-31 23:35:14 | -22.80908 | -43.25438 | 270° | 18km/h | 715m | 5.2m/s | 0°C | 0% | 0hPa | 0V | 00:00:00 | 00:00:00 | 00:00:00 | |
| PU1XMG-16 | 2026-08-31 23:35:08 | -22.80910 | -43.25408 | 261° | 22km/h | 678m | 5.8m/s | 0°C | 0% | 0hPa | 0V | 00:00:00 | 00:00:00 | 00:00:00 | |
| PU1XMG-16 | 2026-08-31 23:35:03 | -22.80904 | -43.25381 | 258° | 18km/h | 651m | 6.9m/s | 0°C | 0% | 0hPa | 0V | 00:00:00 | 00:00:00 | 00:00:00 | |
| PU1XMG-16 | 2026-08-31 23:34:58 | -22.80899 | -43.25357 | 255° | 18km/h | 621m | 4.2m/s | 0°C | 0% | 0hPa | 0V | 00:00:00 | 00:00:00 | 00:00:00 | |
| PU1XMG-16 | 2026-08-31 23:34:52 | -22.80898 | -43.25325 | 279° | 24km/h | 585m | 6.5m/s | 0°C | 0% | 0hPa | 0V | 00:00:00 | 00:00:00 | 00:00:00 | |
| PU1XMG-16 | 2026-08-31 23:34:46 | -22.80892 | -43.25277 | 260° | 29km/h | 551m | 3.5m/s | 0°C | 0% | 0hPa | 0V | 00:00:00 | 00:00:00 | 00:00:00 | |
| PU1XMG-16 | 2026-08-31 23:34:40 | -22.80887 | -43.25232 | 264° | 22km/h | 521m | 4.3m/s | 0°C | 0% | 0hPa | 0V | 00:00:00 | 00:00:00 | 00:00:00 | |
| PU1XMG-16 | 2026-08-31 23:34:32 | -22.80888 | -43.25186 | 259° | 18km/h | 477m | 3.9m/s | 0°C | 0% | 0hPa | 0V | 00:00:00 | 00:00:00 | 00:00:00 | |
| PU1XMG-16 | 2026-08-31 23:34:25 | -22.80887 | -43.25164 | 289° | 9km/h | 441m | 7.3m/s | 0°C | 0% | 0hPa | 0V | 00:00:00 | 00:00:00 | 00:00:00 | |
| PU1XMG-16 | 2026-08-31 23:34:17 | -22.80892 | -43.25142 | 279° | 13km/h | 397m | 6.1m/s | 0°C | 0% | 0hPa | 0V | 00:00:00 | 00:00:00 | 00:00:00 | |
| PU1XMG-16 | 2026-08-31 23:34:07 | -22.80896 | -43.25112 | 284° | 15km/h | 342m | 5.0m/s | 0°C | 0% | 0hPa | 0V | 00:00:00 | 00:00:00 | 00:00:00 | |
| PU1XMG-16 | 2026-08-31 23:34:00 | -22.80899 | -43.25089 | 272° | 13km/h | 307m | 6.1m/s | 0°C | 0% | 0hPa | 0V | 00:00:00 | 00:00:00 | 00:00:00 | |
| PU1XMG-16 | 2026-08-31 23:33:53 | -22.80903 | -43.25065 | 286° | 15km/h | 271m | 4.7m/s | 0°C | 0% | 0hPa | 0V | 00:00:00 | 00:00:00 | 00:00:00 | |
| PU1XMG-16 | 2026-08-31 23:33:48 | -22.80906 | -43.25045 | 274° | 16km/h | 247m | 6.1m/s | 0°C | 0% | 0hPa | 0V | 00:00:00 | 00:00:00 | 00:00:00 |